<?xml version="1.0" encoding="UTF-8" standalone="no" ?>
<gpx xmlns="http://www.topografix.com/GPX/1/1" xmlns:xsi="http://www.w3.org/2001/XMLSchema-instance" xsi:schemaLocation="http://www.topografix.com/GPX/1/1 http://www.topografix.com/GPX/1/1/gpx.xsd" version="1.1" creator="VisuGPX - https://www.visugpx.com">
  <metadata>
    <name>Sonchamp</name>
  </metadata>
  <trk>
    <name><![CDATA[Move]]></name>
    <trkseg>
      <trkpt lat="48.57582" lon="1.8783">
        <ele>137.80000305176</ele>
        <time>2020-10-27T06:58:11.000Z</time>
      </trkpt>
      <trkpt lat="48.57582" lon="1.8783">
        <ele>138</ele>
        <time>2020-10-27T06:58:13.000Z</time>
      </trkpt>
      <trkpt lat="48.57584" lon="1.8783">
        <ele>139</ele>
        <time>2020-10-27T06:58:21.000Z</time>
      </trkpt>
      <trkpt lat="48.57586" lon="1.87829">
        <ele>139</ele>
        <time>2020-10-27T06:58:45.000Z</time>
      </trkpt>
      <trkpt lat="48.57587" lon="1.87828">
        <ele>138.372</ele>
        <time>2020-10-27T06:59:13.000Z</time>
      </trkpt>
      <trkpt lat="48.57585" lon="1.87826">
        <ele>139</ele>
        <time>2020-10-27T06:59:55.000Z</time>
      </trkpt>
      <trkpt lat="48.57585" lon="1.87828">
        <ele>138.272</ele>
        <time>2020-10-27T07:00:42.000Z</time>
      </trkpt>
      <trkpt lat="48.57589" lon="1.87815">
        <ele>140</ele>
        <time>2020-10-27T07:13:18.999Z</time>
      </trkpt>
      <trkpt lat="48.57598" lon="1.87818">
        <ele>140</ele>
        <time>2020-10-27T07:13:32.000Z</time>
      </trkpt>
      <trkpt lat="48.57608" lon="1.87819">
        <ele>140</ele>
        <time>2020-10-27T07:16:18.990Z</time>
      </trkpt>
      <trkpt lat="48.57617" lon="1.87816">
        <ele>140</ele>
        <time>2020-10-27T07:16:28.987Z</time>
      </trkpt>
      <trkpt lat="48.57626" lon="1.87811">
        <ele>140</ele>
        <time>2020-10-27T07:16:53.987Z</time>
      </trkpt>
      <trkpt lat="48.57637" lon="1.87805">
        <ele>140</ele>
        <time>2020-10-27T07:18:16.000Z</time>
      </trkpt>
      <trkpt lat="48.57626" lon="1.87806">
        <ele>140</ele>
        <time>2020-10-27T07:18:22.989Z</time>
      </trkpt>
      <trkpt lat="48.57628" lon="1.8782">
        <ele>140</ele>
        <time>2020-10-27T07:18:34.991Z</time>
      </trkpt>
      <trkpt lat="48.57636" lon="1.87828">
        <ele>140</ele>
        <time>2020-10-27T07:18:45.987Z</time>
      </trkpt>
      <trkpt lat="48.57631" lon="1.87841">
        <ele>140</ele>
        <time>2020-10-27T07:18:57.989Z</time>
      </trkpt>
      <trkpt lat="48.57627" lon="1.87854">
        <ele>140</ele>
        <time>2020-10-27T07:19:04.987Z</time>
      </trkpt>
      <trkpt lat="48.57626" lon="1.87868">
        <ele>140</ele>
        <time>2020-10-27T07:19:18.989Z</time>
      </trkpt>
      <trkpt lat="48.57619" lon="1.87876">
        <ele>140</ele>
        <time>2020-10-27T07:19:25.989Z</time>
      </trkpt>
      <trkpt lat="48.57621" lon="1.87891">
        <ele>140</ele>
        <time>2020-10-27T07:19:37.002Z</time>
      </trkpt>
      <trkpt lat="48.5763" lon="1.879">
        <ele>140</ele>
        <time>2020-10-27T07:19:42.987Z</time>
      </trkpt>
      <trkpt lat="48.57637" lon="1.8791">
        <ele>140</ele>
        <time>2020-10-27T07:19:51.997Z</time>
      </trkpt>
      <trkpt lat="48.57643" lon="1.87921">
        <ele>140</ele>
        <time>2020-10-27T07:19:59.990Z</time>
      </trkpt>
      <trkpt lat="48.57648" lon="1.87933">
        <ele>140</ele>
        <time>2020-10-27T07:20:07.987Z</time>
      </trkpt>
      <trkpt lat="48.57652" lon="1.87947">
        <ele>140</ele>
        <time>2020-10-27T07:20:15.987Z</time>
      </trkpt>
      <trkpt lat="48.57659" lon="1.87958">
        <ele>140</ele>
        <time>2020-10-27T07:20:23.987Z</time>
      </trkpt>
      <trkpt lat="48.57662" lon="1.87972">
        <ele>140</ele>
        <time>2020-10-27T07:20:34.000Z</time>
      </trkpt>
      <trkpt lat="48.57666" lon="1.87984">
        <ele>140</ele>
        <time>2020-10-27T07:20:43.987Z</time>
      </trkpt>
      <trkpt lat="48.57673" lon="1.87996">
        <ele>140</ele>
        <time>2020-10-27T07:20:53.987Z</time>
      </trkpt>
      <trkpt lat="48.57674" lon="1.88022">
        <ele>136.652</ele>
        <time>2020-10-27T07:21:03.000Z</time>
      </trkpt>
      <trkpt lat="48.57681" lon="1.88031">
        <ele>131</ele>
        <time>2020-10-27T07:21:10.990Z</time>
      </trkpt>
      <trkpt lat="48.57688" lon="1.88042">
        <ele>131</ele>
        <time>2020-10-27T07:21:20.987Z</time>
      </trkpt>
      <trkpt lat="48.57701" lon="1.88046">
        <ele>131</ele>
        <time>2020-10-27T07:21:29.000Z</time>
      </trkpt>
      <trkpt lat="48.5771" lon="1.88054">
        <ele>131</ele>
        <time>2020-10-27T07:21:33.987Z</time>
      </trkpt>
      <trkpt lat="48.57717" lon="1.88064">
        <ele>131</ele>
        <time>2020-10-27T07:21:40.990Z</time>
      </trkpt>
      <trkpt lat="48.57719" lon="1.88077">
        <ele>131</ele>
        <time>2020-10-27T07:21:47.990Z</time>
      </trkpt>
      <trkpt lat="48.57724" lon="1.8809">
        <ele>130.03986230192</ele>
        <time>2020-10-27T07:21:58.987Z</time>
      </trkpt>
      <trkpt lat="48.57727" lon="1.88103">
        <ele>129.13063769646</ele>
        <time>2020-10-27T07:22:07.988Z</time>
      </trkpt>
      <trkpt lat="48.5773" lon="1.88116">
        <ele>129</ele>
        <time>2020-10-27T07:22:17.001Z</time>
      </trkpt>
      <trkpt lat="48.57736" lon="1.88127">
        <ele>129</ele>
        <time>2020-10-27T07:22:23.987Z</time>
      </trkpt>
      <trkpt lat="48.5774" lon="1.88141">
        <ele>129.36763903754</ele>
        <time>2020-10-27T07:22:32.988Z</time>
      </trkpt>
      <trkpt lat="48.57744" lon="1.88153">
        <ele>129.97185930553</ele>
        <time>2020-10-27T07:22:39.000Z</time>
      </trkpt>
      <trkpt lat="48.57746" lon="1.88167">
        <ele>130</ele>
        <time>2020-10-27T07:22:44.000Z</time>
      </trkpt>
      <trkpt lat="48.5775" lon="1.8818">
        <ele>130</ele>
        <time>2020-10-27T07:22:51.988Z</time>
      </trkpt>
      <trkpt lat="48.57757" lon="1.8819">
        <ele>130.372</ele>
        <time>2020-10-27T07:23:03.000Z</time>
      </trkpt>
      <trkpt lat="48.57766" lon="1.88191">
        <ele>131.46965189083</ele>
        <time>2020-10-27T07:23:14.000Z</time>
      </trkpt>
      <trkpt lat="48.57772" lon="1.8818">
        <ele>132.36309587302</ele>
        <time>2020-10-27T07:23:22.990Z</time>
      </trkpt>
      <trkpt lat="48.57781" lon="1.88176">
        <ele>133.36261467473</ele>
        <time>2020-10-27T07:23:32.989Z</time>
      </trkpt>
      <trkpt lat="48.57791" lon="1.88174">
        <ele>134.06906645914</ele>
        <time>2020-10-27T07:23:39.990Z</time>
      </trkpt>
      <trkpt lat="48.578" lon="1.88168">
        <ele>135</ele>
        <time>2020-10-27T07:23:49.990Z</time>
      </trkpt>
      <trkpt lat="48.57808" lon="1.88162">
        <ele>135</ele>
        <time>2020-10-27T07:23:58.990Z</time>
      </trkpt>
      <trkpt lat="48.57817" lon="1.88158">
        <ele>136.34200064</ele>
        <time>2020-10-27T07:24:05.990Z</time>
      </trkpt>
      <trkpt lat="48.57827" lon="1.88155">
        <ele>137</ele>
        <time>2020-10-27T07:24:13.000Z</time>
      </trkpt>
      <trkpt lat="48.57836" lon="1.88151">
        <ele>137</ele>
        <time>2020-10-27T07:24:18.990Z</time>
      </trkpt>
      <trkpt lat="48.57845" lon="1.88147">
        <ele>137</ele>
        <time>2020-10-27T07:24:28.989Z</time>
      </trkpt>
      <trkpt lat="48.57854" lon="1.88143">
        <ele>137</ele>
        <time>2020-10-27T07:24:33.990Z</time>
      </trkpt>
      <trkpt lat="48.57862" lon="1.88136">
        <ele>137.16616287329</ele>
        <time>2020-10-27T07:24:41.000Z</time>
      </trkpt>
      <trkpt lat="48.57872" lon="1.88138">
        <ele>138.16884220175</ele>
        <time>2020-10-27T07:24:50.987Z</time>
      </trkpt>
      <trkpt lat="48.57881" lon="1.88138">
        <ele>138.76251259742</ele>
        <time>2020-10-27T07:24:56.989Z</time>
      </trkpt>
      <trkpt lat="48.57893" lon="1.88131">
        <ele>139.26152289316</ele>
        <time>2020-10-27T07:25:02.000Z</time>
      </trkpt>
      <trkpt lat="48.579" lon="1.8814">
        <ele>140.46422176025</ele>
        <time>2020-10-27T07:25:13.989Z</time>
      </trkpt>
      <trkpt lat="48.57909" lon="1.88148">
        <ele>141</ele>
        <time>2020-10-27T07:25:21.002Z</time>
      </trkpt>
      <trkpt lat="48.57918" lon="1.88143">
        <ele>141</ele>
        <time>2020-10-27T07:25:27.989Z</time>
      </trkpt>
      <trkpt lat="48.5793" lon="1.88151">
        <ele>141.06167815949</ele>
        <time>2020-10-27T07:25:40.000Z</time>
      </trkpt>
      <trkpt lat="48.57942" lon="1.88154">
        <ele>142.172</ele>
        <time>2020-10-27T07:25:51.000Z</time>
      </trkpt>
      <trkpt lat="48.57946" lon="1.88166">
        <ele>143.07170048</ele>
        <time>2020-10-27T07:25:59.997Z</time>
      </trkpt>
      <trkpt lat="48.57947" lon="1.8818">
        <ele>144</ele>
        <time>2020-10-27T07:26:12.987Z</time>
      </trkpt>
      <trkpt lat="48.57952" lon="1.88194">
        <ele>144.32437248606</ele>
        <time>2020-10-27T07:26:20.987Z</time>
      </trkpt>
      <trkpt lat="48.57964" lon="1.88203">
        <ele>146</ele>
        <time>2020-10-27T07:26:31.000Z</time>
      </trkpt>
      <trkpt lat="48.57972" lon="1.88221">
        <ele>146</ele>
        <time>2020-10-27T07:26:39.000Z</time>
      </trkpt>
      <trkpt lat="48.57981" lon="1.88224">
        <ele>147.2071094194</ele>
        <time>2020-10-27T07:26:49.989Z</time>
      </trkpt>
      <trkpt lat="48.57992" lon="1.88223">
        <ele>148.378772696</ele>
        <time>2020-10-27T07:26:54.000Z</time>
      </trkpt>
      <trkpt lat="48.57985" lon="1.88235">
        <ele>148.67088555532</ele>
        <time>2020-10-27T07:26:55.000Z</time>
      </trkpt>
      <trkpt lat="48.5798" lon="1.88248">
        <ele>150.25338759976</ele>
        <time>2020-10-27T07:27:02.018Z</time>
      </trkpt>
      <trkpt lat="48.5798" lon="1.88261">
        <ele>152.12291150377</ele>
        <time>2020-10-27T07:27:15.000Z</time>
      </trkpt>
      <trkpt lat="48.57979" lon="1.88278">
        <ele>153</ele>
        <time>2020-10-27T07:27:21.000Z</time>
      </trkpt>
      <trkpt lat="48.57983" lon="1.88295">
        <ele>153.94211637021</ele>
        <time>2020-10-27T07:27:34.000Z</time>
      </trkpt>
      <trkpt lat="48.5799" lon="1.88313">
        <ele>155</ele>
        <time>2020-10-27T07:27:44.000Z</time>
      </trkpt>
      <trkpt lat="48.58" lon="1.88315">
        <ele>155</ele>
        <time>2020-10-27T07:27:50.000Z</time>
      </trkpt>
      <trkpt lat="48.58" lon="1.88331">
        <ele>155</ele>
        <time>2020-10-27T07:28:02.000Z</time>
      </trkpt>
      <trkpt lat="48.5799" lon="1.88361">
        <ele>155</ele>
        <time>2020-10-27T07:28:06.000Z</time>
      </trkpt>
      <trkpt lat="48.57992" lon="1.88376">
        <ele>156.46545424455</ele>
        <time>2020-10-27T07:28:23.988Z</time>
      </trkpt>
      <trkpt lat="48.58008" lon="1.88372">
        <ele>156.97171719</ele>
        <time>2020-10-27T07:28:29.000Z</time>
      </trkpt>
      <trkpt lat="48.5801" lon="1.88388">
        <ele>157</ele>
        <time>2020-10-27T07:28:42.000Z</time>
      </trkpt>
      <trkpt lat="48.58006" lon="1.8842">
        <ele>157</ele>
        <time>2020-10-27T07:28:50.000Z</time>
      </trkpt>
      <trkpt lat="48.58012" lon="1.88431">
        <ele>157</ele>
        <time>2020-10-27T07:29:02.999Z</time>
      </trkpt>
      <trkpt lat="48.58013" lon="1.88453">
        <ele>157</ele>
        <time>2020-10-27T07:29:17.000Z</time>
      </trkpt>
      <trkpt lat="48.58022" lon="1.88463">
        <ele>157</ele>
        <time>2020-10-27T07:29:26.000Z</time>
      </trkpt>
      <trkpt lat="48.58017" lon="1.88476">
        <ele>157</ele>
        <time>2020-10-27T07:29:29.000Z</time>
      </trkpt>
      <trkpt lat="48.5802" lon="1.88489">
        <ele>158</ele>
        <time>2020-10-27T07:29:42.988Z</time>
      </trkpt>
      <trkpt lat="48.5803" lon="1.88503">
        <ele>158</ele>
        <time>2020-10-27T07:29:55.000Z</time>
      </trkpt>
      <trkpt lat="48.58024" lon="1.8852">
        <ele>158</ele>
        <time>2020-10-27T07:29:59.000Z</time>
      </trkpt>
      <trkpt lat="48.58023" lon="1.88536">
        <ele>158</ele>
        <time>2020-10-27T07:30:16.000Z</time>
      </trkpt>
      <trkpt lat="48.58031" lon="1.88545">
        <ele>158.66937702811</ele>
        <time>2020-10-27T07:30:25.987Z</time>
      </trkpt>
      <trkpt lat="48.58039" lon="1.88537">
        <ele>159</ele>
        <time>2020-10-27T07:30:34.990Z</time>
      </trkpt>
      <trkpt lat="48.58048" lon="1.88531">
        <ele>158.32899968</ele>
        <time>2020-10-27T07:30:45.990Z</time>
      </trkpt>
      <trkpt lat="48.58057" lon="1.88528">
        <ele>158.96237684745</ele>
        <time>2020-10-27T07:30:59.000Z</time>
      </trkpt>
      <trkpt lat="48.58066" lon="1.88525">
        <ele>157.46302871077</ele>
        <time>2020-10-27T07:31:06.988Z</time>
      </trkpt>
      <trkpt lat="48.58073" lon="1.88515">
        <ele>157</ele>
        <time>2020-10-27T07:31:17.990Z</time>
      </trkpt>
      <trkpt lat="48.58081" lon="1.88505">
        <ele>158</ele>
        <time>2020-10-27T07:31:31.991Z</time>
      </trkpt>
      <trkpt lat="48.58091" lon="1.88499">
        <ele>158</ele>
        <time>2020-10-27T07:31:40.990Z</time>
      </trkpt>
      <trkpt lat="48.58098" lon="1.8849">
        <ele>158</ele>
        <time>2020-10-27T07:31:48.990Z</time>
      </trkpt>
      <trkpt lat="48.58108" lon="1.88484">
        <ele>158</ele>
        <time>2020-10-27T07:31:55.989Z</time>
      </trkpt>
      <trkpt lat="48.58117" lon="1.88479">
        <ele>158</ele>
        <time>2020-10-27T07:31:59.000Z</time>
      </trkpt>
      <trkpt lat="48.58123" lon="1.88469">
        <ele>158.0462021873</ele>
        <time>2020-10-27T07:32:09.990Z</time>
      </trkpt>
      <trkpt lat="48.58133" lon="1.88454">
        <ele>158.5605752374</ele>
        <time>2020-10-27T07:32:15.000Z</time>
      </trkpt>
      <trkpt lat="48.58144" lon="1.88443">
        <ele>159</ele>
        <time>2020-10-27T07:32:29.000Z</time>
      </trkpt>
      <trkpt lat="48.58154" lon="1.88441">
        <ele>158.52920064</ele>
        <time>2020-10-27T07:32:33.988Z</time>
      </trkpt>
      <trkpt lat="48.58164" lon="1.88443">
        <ele>158</ele>
        <time>2020-10-27T07:32:42.000Z</time>
      </trkpt>
      <trkpt lat="48.58173" lon="1.88444">
        <ele>158</ele>
        <time>2020-10-27T07:32:48.990Z</time>
      </trkpt>
      <trkpt lat="48.58182" lon="1.88438">
        <ele>158</ele>
        <time>2020-10-27T07:32:54.990Z</time>
      </trkpt>
      <trkpt lat="48.58192" lon="1.88442">
        <ele>158</ele>
        <time>2020-10-27T07:33:05.990Z</time>
      </trkpt>
      <trkpt lat="48.58202" lon="1.88441">
        <ele>158</ele>
        <time>2020-10-27T07:33:14.000Z</time>
      </trkpt>
      <trkpt lat="48.58212" lon="1.88448">
        <ele>158</ele>
        <time>2020-10-27T07:33:22.970Z</time>
      </trkpt>
      <trkpt lat="48.58221" lon="1.8845">
        <ele>158.27100032</ele>
        <time>2020-10-27T07:33:31.990Z</time>
      </trkpt>
      <trkpt lat="48.5823" lon="1.88451">
        <ele>158.972</ele>
        <time>2020-10-27T07:33:39.000Z</time>
      </trkpt>
      <trkpt lat="48.5824" lon="1.88453">
        <ele>159</ele>
        <time>2020-10-27T07:33:48.000Z</time>
      </trkpt>
      <trkpt lat="48.5825" lon="1.88453">
        <ele>158.43403744098</ele>
        <time>2020-10-27T07:33:54.990Z</time>
      </trkpt>
      <trkpt lat="48.58259" lon="1.88453">
        <ele>157.63183544474</ele>
        <time>2020-10-27T07:34:02.989Z</time>
      </trkpt>
      <trkpt lat="48.58267" lon="1.88461">
        <ele>157.06827309237</ele>
        <time>2020-10-27T07:34:10.000Z</time>
      </trkpt>
      <trkpt lat="48.58276" lon="1.88455">
        <ele>157.36947791165</ele>
        <time>2020-10-27T07:34:13.000Z</time>
      </trkpt>
      <trkpt lat="48.58286" lon="1.88458">
        <ele>158</ele>
        <time>2020-10-27T07:34:19.990Z</time>
      </trkpt>
      <trkpt lat="48.58295" lon="1.88457">
        <ele>158</ele>
        <time>2020-10-27T07:34:29.002Z</time>
      </trkpt>
      <trkpt lat="48.58304" lon="1.88449">
        <ele>157.82889984</ele>
        <time>2020-10-27T07:34:40.991Z</time>
      </trkpt>
      <trkpt lat="48.5831" lon="1.88439">
        <ele>157.02840064</ele>
        <time>2020-10-27T07:34:48.996Z</time>
      </trkpt>
      <trkpt lat="48.58316" lon="1.88428">
        <ele>157.77100032</ele>
        <time>2020-10-27T07:34:56.990Z</time>
      </trkpt>
      <trkpt lat="48.58324" lon="1.88421">
        <ele>158</ele>
        <time>2020-10-27T07:35:19.000Z</time>
      </trkpt>
      <trkpt lat="48.58331" lon="1.88411">
        <ele>157.17080064</ele>
        <time>2020-10-27T07:35:40.988Z</time>
      </trkpt>
      <trkpt lat="48.58335" lon="1.88398">
        <ele>158.53458466403</ele>
        <time>2020-10-27T07:36:03.990Z</time>
      </trkpt>
      <trkpt lat="48.58342" lon="1.88389">
        <ele>158</ele>
        <time>2020-10-27T07:36:17.990Z</time>
      </trkpt>
      <trkpt lat="48.5835" lon="1.88381">
        <ele>158.93713767914</ele>
        <time>2020-10-27T07:36:28.990Z</time>
      </trkpt>
      <trkpt lat="48.58358" lon="1.88374">
        <ele>159</ele>
        <time>2020-10-27T07:36:38.990Z</time>
      </trkpt>
      <trkpt lat="48.58364" lon="1.88364">
        <ele>158.23081513984</ele>
        <time>2020-10-27T07:36:46.988Z</time>
      </trkpt>
      <trkpt lat="48.58373" lon="1.88358">
        <ele>158</ele>
        <time>2020-10-27T07:36:56.000Z</time>
      </trkpt>
      <trkpt lat="48.58381" lon="1.88349">
        <ele>157.43289560189</ele>
        <time>2020-10-27T07:37:04.990Z</time>
      </trkpt>
      <trkpt lat="48.58389" lon="1.88341">
        <ele>157</ele>
        <time>2020-10-27T07:37:11.003Z</time>
      </trkpt>
      <trkpt lat="48.58397" lon="1.88332">
        <ele>157</ele>
        <time>2020-10-27T07:37:18.990Z</time>
      </trkpt>
      <trkpt lat="48.58405" lon="1.88323">
        <ele>156.13952632411</ele>
        <time>2020-10-27T07:37:27.988Z</time>
      </trkpt>
      <trkpt lat="48.58412" lon="1.88312">
        <ele>156</ele>
        <time>2020-10-27T07:37:36.990Z</time>
      </trkpt>
      <trkpt lat="48.58418" lon="1.88302">
        <ele>156</ele>
        <time>2020-10-27T07:37:44.990Z</time>
      </trkpt>
      <trkpt lat="48.58426" lon="1.88293">
        <ele>156</ele>
        <time>2020-10-27T07:37:52.988Z</time>
      </trkpt>
      <trkpt lat="48.58432" lon="1.88283">
        <ele>155.83636309568</ele>
        <time>2020-10-27T07:38:01.000Z</time>
      </trkpt>
      <trkpt lat="48.58441" lon="1.88276">
        <ele>155.02929258712</ele>
        <time>2020-10-27T07:38:08.990Z</time>
      </trkpt>
      <trkpt lat="48.58448" lon="1.88267">
        <ele>155</ele>
        <time>2020-10-27T07:38:16.988Z</time>
      </trkpt>
      <trkpt lat="48.58455" lon="1.88256">
        <ele>155</ele>
        <time>2020-10-27T07:38:24.990Z</time>
      </trkpt>
      <trkpt lat="48.58463" lon="1.88248">
        <ele>155</ele>
        <time>2020-10-27T07:38:32.988Z</time>
      </trkpt>
      <trkpt lat="48.58472" lon="1.8824">
        <ele>154.82817177324</ele>
        <time>2020-10-27T07:38:41.000Z</time>
      </trkpt>
      <trkpt lat="48.58479" lon="1.8823">
        <ele>154.13007029133</ele>
        <time>2020-10-27T07:38:47.988Z</time>
      </trkpt>
      <trkpt lat="48.58486" lon="1.8822">
        <ele>154</ele>
        <time>2020-10-27T07:38:54.988Z</time>
      </trkpt>
      <trkpt lat="48.5849" lon="1.88207">
        <ele>153.63689984</ele>
        <time>2020-10-27T07:39:02.991Z</time>
      </trkpt>
      <trkpt lat="48.58491" lon="1.88193">
        <ele>153.16552387097</ele>
        <time>2020-10-27T07:39:11.002Z</time>
      </trkpt>
      <trkpt lat="48.5849" lon="1.88178">
        <ele>153.97046322581</ele>
        <time>2020-10-27T07:39:18.987Z</time>
      </trkpt>
      <trkpt lat="48.58491" lon="1.88163">
        <ele>154</ele>
        <time>2020-10-27T07:39:28.990Z</time>
      </trkpt>
      <trkpt lat="48.58494" lon="1.8815">
        <ele>153.24926963996</ele>
        <time>2020-10-27T07:39:36.990Z</time>
      </trkpt>
      <trkpt lat="48.58493" lon="1.88135">
        <ele>152.33669141597</ele>
        <time>2020-10-27T07:39:46.004Z</time>
      </trkpt>
      <trkpt lat="48.58491" lon="1.8812">
        <ele>152</ele>
        <time>2020-10-27T07:39:52.988Z</time>
      </trkpt>
      <trkpt lat="48.58488" lon="1.88106">
        <ele>151.92924099273</ele>
        <time>2020-10-27T07:39:59.989Z</time>
      </trkpt>
      <trkpt lat="48.58488" lon="1.88092">
        <ele>151.06913919414</ele>
        <time>2020-10-27T07:40:09.990Z</time>
      </trkpt>
      <trkpt lat="48.58485" lon="1.88079">
        <ele>151.97084218303</ele>
        <time>2020-10-27T07:40:18.989Z</time>
      </trkpt>
      <trkpt lat="48.58484" lon="1.88064">
        <ele>151.33333333333</ele>
        <time>2020-10-27T07:40:26.000Z</time>
      </trkpt>
      <trkpt lat="48.58485" lon="1.88049">
        <ele>150.53663630458</ele>
        <time>2020-10-27T07:40:33.989Z</time>
      </trkpt>
      <trkpt lat="48.5848" lon="1.88024">
        <ele>149.83383712671</ele>
        <time>2020-10-27T07:40:41.000Z</time>
      </trkpt>
      <trkpt lat="48.58478" lon="1.88009">
        <ele>148.25896414343</ele>
        <time>2020-10-27T07:40:53.000Z</time>
      </trkpt>
      <trkpt lat="48.58475" lon="1.87997">
        <ele>145.859437751</ele>
        <time>2020-10-27T07:41:05.000Z</time>
      </trkpt>
      <trkpt lat="48.58469" lon="1.87986">
        <ele>144.72854274079</ele>
        <time>2020-10-27T07:41:12.000Z</time>
      </trkpt>
      <trkpt lat="48.58475" lon="1.87969">
        <ele>143.18837535014</ele>
        <time>2020-10-27T07:41:22.000Z</time>
      </trkpt>
      <trkpt lat="48.58468" lon="1.87957">
        <ele>141.38476929233</ele>
        <time>2020-10-27T07:41:28.000Z</time>
      </trkpt>
      <trkpt lat="48.58462" lon="1.8794">
        <ele>141</ele>
        <time>2020-10-27T07:41:35.000Z</time>
      </trkpt>
      <trkpt lat="48.58467" lon="1.87926">
        <ele>140.43066127818</ele>
        <time>2020-10-27T07:41:45.002Z</time>
      </trkpt>
      <trkpt lat="48.58468" lon="1.87911">
        <ele>139.42995916315</ele>
        <time>2020-10-27T07:41:54.989Z</time>
      </trkpt>
      <trkpt lat="48.58478" lon="1.87898">
        <ele>138.228</ele>
        <time>2020-10-27T07:42:07.000Z</time>
      </trkpt>
      <trkpt lat="48.58482" lon="1.87884">
        <ele>138</ele>
        <time>2020-10-27T07:42:16.000Z</time>
      </trkpt>
      <trkpt lat="48.58488" lon="1.87872">
        <ele>138</ele>
        <time>2020-10-27T07:42:22.000Z</time>
      </trkpt>
      <trkpt lat="48.58497" lon="1.87871">
        <ele>138</ele>
        <time>2020-10-27T07:42:27.989Z</time>
      </trkpt>
      <trkpt lat="48.58508" lon="1.87858">
        <ele>138</ele>
        <time>2020-10-27T07:42:42.000Z</time>
      </trkpt>
      <trkpt lat="48.58517" lon="1.87851">
        <ele>138.3545732718</ele>
        <time>2020-10-27T07:42:53.000Z</time>
      </trkpt>
      <trkpt lat="48.58522" lon="1.87836">
        <ele>140.14299896151</ele>
        <time>2020-10-27T07:43:10.000Z</time>
      </trkpt>
      <trkpt lat="48.58531" lon="1.87833">
        <ele>142</ele>
        <time>2020-10-27T07:43:26.000Z</time>
      </trkpt>
      <trkpt lat="48.58534" lon="1.87817">
        <ele>143.14314341761</ele>
        <time>2020-10-27T07:43:35.000Z</time>
      </trkpt>
      <trkpt lat="48.58541" lon="1.87808">
        <ele>144.27170048</ele>
        <time>2020-10-27T07:43:41.997Z</time>
      </trkpt>
      <trkpt lat="48.5855" lon="1.87794">
        <ele>145.1697927486</ele>
        <time>2020-10-27T07:43:51.000Z</time>
      </trkpt>
      <trkpt lat="48.58549" lon="1.8778">
        <ele>146.66666709895</ele>
        <time>2020-10-27T07:44:05.990Z</time>
      </trkpt>
      <trkpt lat="48.58559" lon="1.87776">
        <ele>146.97163121487</ele>
        <time>2020-10-27T07:44:09.000Z</time>
      </trkpt>
      <trkpt lat="48.58562" lon="1.87763">
        <ele>149.26612903226</ele>
        <time>2020-10-27T07:44:22.000Z</time>
      </trkpt>
      <trkpt lat="48.58567" lon="1.8775">
        <ele>150</ele>
        <time>2020-10-27T07:44:31.000Z</time>
      </trkpt>
      <trkpt lat="48.58569" lon="1.87736">
        <ele>150</ele>
        <time>2020-10-27T07:44:38.990Z</time>
      </trkpt>
      <trkpt lat="48.58573" lon="1.87723">
        <ele>150</ele>
        <time>2020-10-27T07:44:47.990Z</time>
      </trkpt>
      <trkpt lat="48.58577" lon="1.87709">
        <ele>150.77062359477</ele>
        <time>2020-10-27T07:44:57.000Z</time>
      </trkpt>
      <trkpt lat="48.58585" lon="1.87703">
        <ele>151</ele>
        <time>2020-10-27T07:45:15.987Z</time>
      </trkpt>
      <trkpt lat="48.58594" lon="1.87688">
        <ele>151.872</ele>
        <time>2020-10-27T07:45:28.000Z</time>
      </trkpt>
      <trkpt lat="48.58604" lon="1.87693">
        <ele>152</ele>
        <time>2020-10-27T07:45:36.000Z</time>
      </trkpt>
      <trkpt lat="48.58613" lon="1.87685">
        <ele>154.05829087031</ele>
        <time>2020-10-27T07:45:50.000Z</time>
      </trkpt>
      <trkpt lat="48.58624" lon="1.8768">
        <ele>154.6614068693</ele>
        <time>2020-10-27T07:45:56.001Z</time>
      </trkpt>
      <trkpt lat="48.58633" lon="1.87678">
        <ele>155</ele>
        <time>2020-10-27T07:46:07.989Z</time>
      </trkpt>
      <trkpt lat="48.58642" lon="1.87676">
        <ele>155.77110016</ele>
        <time>2020-10-27T07:46:16.991Z</time>
      </trkpt>
      <trkpt lat="48.58651" lon="1.87672">
        <ele>156</ele>
        <time>2020-10-27T07:46:24.988Z</time>
      </trkpt>
      <trkpt lat="48.58661" lon="1.87671">
        <ele>156</ele>
        <time>2020-10-27T07:46:34.002Z</time>
      </trkpt>
      <trkpt lat="48.5867" lon="1.87667">
        <ele>156.17110016</ele>
        <time>2020-10-27T07:46:40.991Z</time>
      </trkpt>
      <trkpt lat="48.58679" lon="1.87667">
        <ele>156.97190016</ele>
        <time>2020-10-27T07:46:48.999Z</time>
      </trkpt>
      <trkpt lat="48.58689" lon="1.87667">
        <ele>157</ele>
        <time>2020-10-27T07:46:56.987Z</time>
      </trkpt>
      <trkpt lat="48.58698" lon="1.87666">
        <ele>157.46954758768</ele>
        <time>2020-10-27T07:47:04.002Z</time>
      </trkpt>
      <trkpt lat="48.58708" lon="1.87666">
        <ele>158</ele>
        <time>2020-10-27T07:47:11.990Z</time>
      </trkpt>
      <trkpt lat="48.58718" lon="1.87664">
        <ele>158</ele>
        <time>2020-10-27T07:47:20.986Z</time>
      </trkpt>
      <trkpt lat="48.58728" lon="1.87665">
        <ele>158</ele>
        <time>2020-10-27T07:47:27.987Z</time>
      </trkpt>
      <trkpt lat="48.58737" lon="1.87665">
        <ele>158</ele>
        <time>2020-10-27T07:47:37.989Z</time>
      </trkpt>
      <trkpt lat="48.58748" lon="1.87665">
        <ele>159.13128067328</ele>
        <time>2020-10-27T07:47:44.986Z</time>
      </trkpt>
      <trkpt lat="48.58757" lon="1.87663">
        <ele>160</ele>
        <time>2020-10-27T07:47:52.987Z</time>
      </trkpt>
      <trkpt lat="48.58766" lon="1.87661">
        <ele>159.93002925164</ele>
        <time>2020-10-27T07:47:59.989Z</time>
      </trkpt>
      <trkpt lat="48.58776" lon="1.87659">
        <ele>159.02812795896</ele>
        <time>2020-10-27T07:48:08.999Z</time>
      </trkpt>
      <trkpt lat="48.58786" lon="1.87656">
        <ele>159.77100032</ele>
        <time>2020-10-27T07:48:16.990Z</time>
      </trkpt>
      <trkpt lat="48.58795" lon="1.87654">
        <ele>160.57090048</ele>
        <time>2020-10-27T07:48:24.989Z</time>
      </trkpt>
      <trkpt lat="48.58805" lon="1.87653">
        <ele>161</ele>
        <time>2020-10-27T07:48:32.989Z</time>
      </trkpt>
      <trkpt lat="48.58815" lon="1.87652">
        <ele>161</ele>
        <time>2020-10-27T07:48:46.987Z</time>
      </trkpt>
      <trkpt lat="48.58825" lon="1.87649">
        <ele>161.00171858158</ele>
        <time>2020-10-27T07:49:09.986Z</time>
      </trkpt>
      <trkpt lat="48.58836" lon="1.8765">
        <ele>161.96992482237</ele>
        <time>2020-10-27T07:49:19.000Z</time>
      </trkpt>
      <trkpt lat="48.58846" lon="1.87652">
        <ele>162.77069952</ele>
        <time>2020-10-27T07:49:26.987Z</time>
      </trkpt>
      <trkpt lat="48.58856" lon="1.87654">
        <ele>162.53257411965</ele>
        <time>2020-10-27T07:49:34.001Z</time>
      </trkpt>
      <trkpt lat="48.58866" lon="1.87655">
        <ele>162</ele>
        <time>2020-10-27T07:49:41.992Z</time>
      </trkpt>
      <trkpt lat="48.58875" lon="1.87656">
        <ele>162</ele>
        <time>2020-10-27T07:49:49.004Z</time>
      </trkpt>
      <trkpt lat="48.58885" lon="1.87657">
        <ele>162</ele>
        <time>2020-10-27T07:49:57.991Z</time>
      </trkpt>
      <trkpt lat="48.58895" lon="1.87658">
        <ele>161.3322909926</ele>
        <time>2020-10-27T07:50:05.987Z</time>
      </trkpt>
      <trkpt lat="48.58905" lon="1.8766">
        <ele>161</ele>
        <time>2020-10-27T07:50:12.986Z</time>
      </trkpt>
      <trkpt lat="48.58914" lon="1.87661">
        <ele>161.06094385742</ele>
        <time>2020-10-27T07:50:19.987Z</time>
      </trkpt>
      <trkpt lat="48.58924" lon="1.87662">
        <ele>161.8643574434</ele>
        <time>2020-10-27T07:50:27.989Z</time>
      </trkpt>
      <trkpt lat="48.58933" lon="1.87662">
        <ele>162</ele>
        <time>2020-10-27T07:50:35.991Z</time>
      </trkpt>
      <trkpt lat="48.58942" lon="1.87663">
        <ele>162</ele>
        <time>2020-10-27T07:50:44.002Z</time>
      </trkpt>
      <trkpt lat="48.58951" lon="1.87665">
        <ele>162</ele>
        <time>2020-10-27T07:50:54.986Z</time>
      </trkpt>
      <trkpt lat="48.5896" lon="1.87667">
        <ele>161.53225806452</ele>
        <time>2020-10-27T07:51:04.000Z</time>
      </trkpt>
      <trkpt lat="48.5897" lon="1.87669">
        <ele>161</ele>
        <time>2020-10-27T07:51:12.986Z</time>
      </trkpt>
      <trkpt lat="48.5898" lon="1.8767">
        <ele>161.17069952</ele>
        <time>2020-10-27T07:51:20.987Z</time>
      </trkpt>
      <trkpt lat="48.58989" lon="1.87669">
        <ele>161.972</ele>
        <time>2020-10-27T07:51:29.000Z</time>
      </trkpt>
      <trkpt lat="48.58999" lon="1.87671">
        <ele>162</ele>
        <time>2020-10-27T07:51:37.990Z</time>
      </trkpt>
      <trkpt lat="48.59008" lon="1.87673">
        <ele>162</ele>
        <time>2020-10-27T07:51:47.990Z</time>
      </trkpt>
      <trkpt lat="48.59019" lon="1.87674">
        <ele>162</ele>
        <time>2020-10-27T07:51:56.990Z</time>
      </trkpt>
      <trkpt lat="48.59028" lon="1.87676">
        <ele>161.33197258964</ele>
        <time>2020-10-27T07:52:05.987Z</time>
      </trkpt>
      <trkpt lat="48.59037" lon="1.87677">
        <ele>161.36369015873</ele>
        <time>2020-10-27T07:52:12.986Z</time>
      </trkpt>
      <trkpt lat="48.59047" lon="1.87679">
        <ele>162</ele>
        <time>2020-10-27T07:52:21.990Z</time>
      </trkpt>
      <trkpt lat="48.59057" lon="1.8768">
        <ele>162.17100032</ele>
        <time>2020-10-27T07:52:30.990Z</time>
      </trkpt>
      <trkpt lat="48.59066" lon="1.87681">
        <ele>162.97170048</ele>
        <time>2020-10-27T07:52:38.997Z</time>
      </trkpt>
      <trkpt lat="48.59076" lon="1.87683">
        <ele>163</ele>
        <time>2020-10-27T07:52:46.987Z</time>
      </trkpt>
      <trkpt lat="48.59087" lon="1.87683">
        <ele>163</ele>
        <time>2020-10-27T07:52:54.987Z</time>
      </trkpt>
      <trkpt lat="48.59097" lon="1.87684">
        <ele>162.52842841932</ele>
        <time>2020-10-27T07:53:04.001Z</time>
      </trkpt>
      <trkpt lat="48.59107" lon="1.87685">
        <ele>162.37069952</ele>
        <time>2020-10-27T07:53:12.987Z</time>
      </trkpt>
      <trkpt lat="48.59116" lon="1.87686">
        <ele>163</ele>
        <time>2020-10-27T07:53:21.987Z</time>
      </trkpt>
      <trkpt lat="48.59126" lon="1.87686">
        <ele>162.9657031405</ele>
        <time>2020-10-27T07:53:29.992Z</time>
      </trkpt>
      <trkpt lat="48.59135" lon="1.87688">
        <ele>162.1397738843</ele>
        <time>2020-10-27T07:53:37.987Z</time>
      </trkpt>
      <trkpt lat="48.59145" lon="1.87689">
        <ele>162</ele>
        <time>2020-10-27T07:53:45.987Z</time>
      </trkpt>
      <trkpt lat="48.59155" lon="1.87691">
        <ele>162</ele>
        <time>2020-10-27T07:53:54.987Z</time>
      </trkpt>
      <trkpt lat="48.59164" lon="1.87693">
        <ele>162</ele>
        <time>2020-10-27T07:54:01.990Z</time>
      </trkpt>
      <trkpt lat="48.59174" lon="1.87695">
        <ele>162</ele>
        <time>2020-10-27T07:54:09.990Z</time>
      </trkpt>
      <trkpt lat="48.59183" lon="1.87696">
        <ele>162</ele>
        <time>2020-10-27T07:54:17.989Z</time>
      </trkpt>
      <trkpt lat="48.59192" lon="1.87697">
        <ele>161.3359484136</ele>
        <time>2020-10-27T07:54:25.987Z</time>
      </trkpt>
      <trkpt lat="48.59202" lon="1.87698">
        <ele>161</ele>
        <time>2020-10-27T07:54:34.001Z</time>
      </trkpt>
      <trkpt lat="48.59211" lon="1.87694">
        <ele>161</ele>
        <time>2020-10-27T07:54:41.000Z</time>
      </trkpt>
      <trkpt lat="48.5922" lon="1.87699">
        <ele>161</ele>
        <time>2020-10-27T07:54:48.000Z</time>
      </trkpt>
      <trkpt lat="48.59229" lon="1.87701">
        <ele>161</ele>
        <time>2020-10-27T07:54:56.000Z</time>
      </trkpt>
      <trkpt lat="48.59239" lon="1.87702">
        <ele>160.06774554265</ele>
        <time>2020-10-27T07:55:04.000Z</time>
      </trkpt>
      <trkpt lat="48.59249" lon="1.87703">
        <ele>159</ele>
        <time>2020-10-27T07:55:12.000Z</time>
      </trkpt>
      <trkpt lat="48.59258" lon="1.87705">
        <ele>159</ele>
        <time>2020-10-27T07:55:20.000Z</time>
      </trkpt>
      <trkpt lat="48.59268" lon="1.87706">
        <ele>159</ele>
        <time>2020-10-27T07:55:28.000Z</time>
      </trkpt>
      <trkpt lat="48.59277" lon="1.87708">
        <ele>159</ele>
        <time>2020-10-27T07:55:36.000Z</time>
      </trkpt>
      <trkpt lat="48.59287" lon="1.87709">
        <ele>158.52829952</ele>
        <time>2020-10-27T07:55:43.997Z</time>
      </trkpt>
      <trkpt lat="48.59296" lon="1.87713">
        <ele>158</ele>
        <time>2020-10-27T07:55:52.986Z</time>
      </trkpt>
      <trkpt lat="48.59305" lon="1.87716">
        <ele>157.837676711</ele>
        <time>2020-10-27T07:56:00.987Z</time>
      </trkpt>
      <trkpt lat="48.59314" lon="1.87719">
        <ele>157.02828281</ele>
        <time>2020-10-27T07:56:09.000Z</time>
      </trkpt>
      <trkpt lat="48.59324" lon="1.87721">
        <ele>158.73792430366</ele>
        <time>2020-10-27T07:56:17.987Z</time>
      </trkpt>
      <trkpt lat="48.59333" lon="1.87723">
        <ele>159</ele>
        <time>2020-10-27T07:56:24.986Z</time>
      </trkpt>
      <trkpt lat="48.59342" lon="1.87723">
        <ele>159</ele>
        <time>2020-10-27T07:56:30.991Z</time>
      </trkpt>
      <trkpt lat="48.59352" lon="1.87725">
        <ele>159</ele>
        <time>2020-10-27T07:56:39.001Z</time>
      </trkpt>
      <trkpt lat="48.59362" lon="1.87726">
        <ele>159</ele>
        <time>2020-10-27T07:56:47.990Z</time>
      </trkpt>
      <trkpt lat="48.59371" lon="1.87729">
        <ele>160.53903487423</ele>
        <time>2020-10-27T07:56:56.989Z</time>
      </trkpt>
      <trkpt lat="48.59381" lon="1.8773">
        <ele>161</ele>
        <time>2020-10-27T07:57:04.991Z</time>
      </trkpt>
      <trkpt lat="48.5939" lon="1.87731">
        <ele>161</ele>
        <time>2020-10-27T07:57:12.986Z</time>
      </trkpt>
      <trkpt lat="48.59399" lon="1.87731">
        <ele>161</ele>
        <time>2020-10-27T07:57:19.989Z</time>
      </trkpt>
      <trkpt lat="48.59409" lon="1.87732">
        <ele>161</ele>
        <time>2020-10-27T07:57:29.001Z</time>
      </trkpt>
      <trkpt lat="48.59418" lon="1.87733">
        <ele>161</ele>
        <time>2020-10-27T07:57:36.987Z</time>
      </trkpt>
      <trkpt lat="48.59428" lon="1.87734">
        <ele>161</ele>
        <time>2020-10-27T07:57:44.989Z</time>
      </trkpt>
      <trkpt lat="48.59438" lon="1.87734">
        <ele>161.47209984</ele>
        <time>2020-10-27T07:57:54.001Z</time>
      </trkpt>
      <trkpt lat="48.59447" lon="1.87735">
        <ele>162</ele>
        <time>2020-10-27T07:58:02.986Z</time>
      </trkpt>
      <trkpt lat="48.59457" lon="1.87736">
        <ele>162</ele>
        <time>2020-10-27T07:58:09.986Z</time>
      </trkpt>
      <trkpt lat="48.59466" lon="1.87739">
        <ele>162</ele>
        <time>2020-10-27T07:58:17.991Z</time>
      </trkpt>
      <trkpt lat="48.59475" lon="1.87739">
        <ele>162</ele>
        <time>2020-10-27T07:58:24.991Z</time>
      </trkpt>
      <trkpt lat="48.59484" lon="1.8774">
        <ele>162</ele>
        <time>2020-10-27T07:58:31.987Z</time>
      </trkpt>
      <trkpt lat="48.59494" lon="1.87742">
        <ele>162</ele>
        <time>2020-10-27T07:58:39.002Z</time>
      </trkpt>
      <trkpt lat="48.59504" lon="1.87742">
        <ele>162</ele>
        <time>2020-10-27T07:58:46.987Z</time>
      </trkpt>
      <trkpt lat="48.59513" lon="1.87744">
        <ele>162</ele>
        <time>2020-10-27T07:58:55.986Z</time>
      </trkpt>
      <trkpt lat="48.59524" lon="1.87745">
        <ele>161.42940032</ele>
        <time>2020-10-27T07:59:04.986Z</time>
      </trkpt>
      <trkpt lat="48.59533" lon="1.87748">
        <ele>161</ele>
        <time>2020-10-27T07:59:12.991Z</time>
      </trkpt>
      <trkpt lat="48.59542" lon="1.87749">
        <ele>161</ele>
        <time>2020-10-27T07:59:20.987Z</time>
      </trkpt>
      <trkpt lat="48.59551" lon="1.87752">
        <ele>161</ele>
        <time>2020-10-27T07:59:27.989Z</time>
      </trkpt>
      <trkpt lat="48.59561" lon="1.87753">
        <ele>161</ele>
        <time>2020-10-27T07:59:34.990Z</time>
      </trkpt>
      <trkpt lat="48.5957" lon="1.87754">
        <ele>160.62940032</ele>
        <time>2020-10-27T07:59:42.986Z</time>
      </trkpt>
      <trkpt lat="48.59579" lon="1.87754">
        <ele>160</ele>
        <time>2020-10-27T07:59:50.991Z</time>
      </trkpt>
      <trkpt lat="48.59589" lon="1.87756">
        <ele>160</ele>
        <time>2020-10-27T07:59:59.001Z</time>
      </trkpt>
      <trkpt lat="48.59599" lon="1.87757">
        <ele>159.22909952</ele>
        <time>2020-10-27T08:00:06.989Z</time>
      </trkpt>
      <trkpt lat="48.59608" lon="1.87758">
        <ele>159</ele>
        <time>2020-10-27T08:00:13.999Z</time>
      </trkpt>
      <trkpt lat="48.59618" lon="1.87762">
        <ele>159</ele>
        <time>2020-10-27T08:00:22.989Z</time>
      </trkpt>
      <trkpt lat="48.59627" lon="1.87764">
        <ele>159</ele>
        <time>2020-10-27T08:00:29.991Z</time>
      </trkpt>
      <trkpt lat="48.59637" lon="1.87764">
        <ele>159</ele>
        <time>2020-10-27T08:00:37.991Z</time>
      </trkpt>
      <trkpt lat="48.59647" lon="1.87764">
        <ele>158.23051350832</ele>
        <time>2020-10-27T08:00:46.991Z</time>
      </trkpt>
      <trkpt lat="48.59657" lon="1.87764">
        <ele>158</ele>
        <time>2020-10-27T08:00:54.986Z</time>
      </trkpt>
      <trkpt lat="48.59666" lon="1.87765">
        <ele>157.82909952</ele>
        <time>2020-10-27T08:01:00.989Z</time>
      </trkpt>
      <trkpt lat="48.59676" lon="1.87766">
        <ele>157.02840064</ele>
        <time>2020-10-27T08:01:08.996Z</time>
      </trkpt>
      <trkpt lat="48.59686" lon="1.87768">
        <ele>157</ele>
        <time>2020-10-27T08:01:17.989Z</time>
      </trkpt>
      <trkpt lat="48.59693" lon="1.87777">
        <ele>157</ele>
        <time>2020-10-27T08:01:26.990Z</time>
      </trkpt>
      <trkpt lat="48.59699" lon="1.87765">
        <ele>157</ele>
        <time>2020-10-27T08:01:50.991Z</time>
      </trkpt>
      <trkpt lat="48.59709" lon="1.87765">
        <ele>157</ele>
        <time>2020-10-27T08:01:59.003Z</time>
      </trkpt>
      <trkpt lat="48.59718" lon="1.87767">
        <ele>157</ele>
        <time>2020-10-27T08:02:06.989Z</time>
      </trkpt>
      <trkpt lat="48.59728" lon="1.87771">
        <ele>157</ele>
        <time>2020-10-27T08:02:14.988Z</time>
      </trkpt>
      <trkpt lat="48.59736" lon="1.87776">
        <ele>157</ele>
        <time>2020-10-27T08:02:21.991Z</time>
      </trkpt>
      <trkpt lat="48.59743" lon="1.87785">
        <ele>156.87487261356</ele>
        <time>2020-10-27T08:02:29.990Z</time>
      </trkpt>
      <trkpt lat="48.59746" lon="1.87798">
        <ele>155.26074792791</ele>
        <time>2020-10-27T08:02:37.988Z</time>
      </trkpt>
      <trkpt lat="48.59744" lon="1.87813">
        <ele>155</ele>
        <time>2020-10-27T08:02:45.986Z</time>
      </trkpt>
      <trkpt lat="48.59747" lon="1.87826">
        <ele>155</ele>
        <time>2020-10-27T08:02:53.998Z</time>
      </trkpt>
      <trkpt lat="48.59755" lon="1.87836">
        <ele>154.63147960072</ele>
        <time>2020-10-27T08:03:02.991Z</time>
      </trkpt>
      <trkpt lat="48.59763" lon="1.87843">
        <ele>154</ele>
        <time>2020-10-27T08:03:09.989Z</time>
      </trkpt>
      <trkpt lat="48.59771" lon="1.87848">
        <ele>154</ele>
        <time>2020-10-27T08:03:17.990Z</time>
      </trkpt>
      <trkpt lat="48.59781" lon="1.87855">
        <ele>154</ele>
        <time>2020-10-27T08:03:25.991Z</time>
      </trkpt>
      <trkpt lat="48.5979" lon="1.87861">
        <ele>154.57110016</ele>
        <time>2020-10-27T08:03:34.991Z</time>
      </trkpt>
      <trkpt lat="48.59797" lon="1.8787">
        <ele>155</ele>
        <time>2020-10-27T08:03:41.988Z</time>
      </trkpt>
      <trkpt lat="48.59806" lon="1.87872">
        <ele>155</ele>
        <time>2020-10-27T08:03:49.000Z</time>
      </trkpt>
      <trkpt lat="48.59814" lon="1.8788">
        <ele>154.228</ele>
        <time>2020-10-27T08:03:57.000Z</time>
      </trkpt>
      <trkpt lat="48.59824" lon="1.8788">
        <ele>154.372</ele>
        <time>2020-10-27T08:04:03.000Z</time>
      </trkpt>
      <trkpt lat="48.59832" lon="1.87888">
        <ele>155</ele>
        <time>2020-10-27T08:04:11.990Z</time>
      </trkpt>
      <trkpt lat="48.59837" lon="1.879">
        <ele>155.46772608771</ele>
        <time>2020-10-27T08:04:23.990Z</time>
      </trkpt>
      <trkpt lat="48.59846" lon="1.87911">
        <ele>156.16616287329</ele>
        <time>2020-10-27T08:04:31.000Z</time>
      </trkpt>
      <trkpt lat="48.59852" lon="1.87922">
        <ele>156.87089655457</ele>
        <time>2020-10-27T08:04:37.998Z</time>
      </trkpt>
      <trkpt lat="48.59857" lon="1.87935">
        <ele>157</ele>
        <time>2020-10-27T08:04:45.985Z</time>
      </trkpt>
      <trkpt lat="48.59862" lon="1.87946">
        <ele>157.54826254826</ele>
        <time>2020-10-27T08:04:54.990Z</time>
      </trkpt>
      <trkpt lat="48.59869" lon="1.87959">
        <ele>158</ele>
        <time>2020-10-27T08:05:03.000Z</time>
      </trkpt>
      <trkpt lat="48.59875" lon="1.87969">
        <ele>158.172</ele>
        <time>2020-10-27T08:05:11.000Z</time>
      </trkpt>
      <trkpt lat="48.59883" lon="1.87977">
        <ele>158.872</ele>
        <time>2020-10-27T08:05:18.000Z</time>
      </trkpt>
      <trkpt lat="48.59888" lon="1.87989">
        <ele>159</ele>
        <time>2020-10-27T08:05:25.990Z</time>
      </trkpt>
      <trkpt lat="48.59894" lon="1.88">
        <ele>159</ele>
        <time>2020-10-27T08:05:39.000Z</time>
      </trkpt>
      <trkpt lat="48.599" lon="1.88011">
        <ele>159.77100032</ele>
        <time>2020-10-27T08:05:46.990Z</time>
      </trkpt>
      <trkpt lat="48.59908" lon="1.8802">
        <ele>160</ele>
        <time>2020-10-27T08:05:51.990Z</time>
      </trkpt>
      <trkpt lat="48.59914" lon="1.88031">
        <ele>160</ele>
        <time>2020-10-27T08:06:01.988Z</time>
      </trkpt>
      <trkpt lat="48.59922" lon="1.88038">
        <ele>160</ele>
        <time>2020-10-27T08:06:07.000Z</time>
      </trkpt>
      <trkpt lat="48.59929" lon="1.88048">
        <ele>160.57100032</ele>
        <time>2020-10-27T08:06:14.990Z</time>
      </trkpt>
      <trkpt lat="48.59935" lon="1.88059">
        <ele>161.16930735481</ele>
        <time>2020-10-27T08:06:20.990Z</time>
      </trkpt>
      <trkpt lat="48.59944" lon="1.88068">
        <ele>161.76435691999</ele>
        <time>2020-10-27T08:06:27.000Z</time>
      </trkpt>
      <trkpt lat="48.59951" lon="1.88079">
        <ele>162</ele>
        <time>2020-10-27T08:06:34.990Z</time>
      </trkpt>
      <trkpt lat="48.59959" lon="1.8809">
        <ele>162</ele>
        <time>2020-10-27T08:06:44.000Z</time>
      </trkpt>
      <trkpt lat="48.59968" lon="1.88096">
        <ele>162</ele>
        <time>2020-10-27T08:06:57.000Z</time>
      </trkpt>
      <trkpt lat="48.59979" lon="1.88104">
        <ele>162.47209984</ele>
        <time>2020-10-27T08:07:04.000Z</time>
      </trkpt>
      <trkpt lat="48.59986" lon="1.88113">
        <ele>163</ele>
        <time>2020-10-27T08:07:12.000Z</time>
      </trkpt>
      <trkpt lat="48.59995" lon="1.88119">
        <ele>162.42790016</ele>
        <time>2020-10-27T08:07:25.000Z</time>
      </trkpt>
      <trkpt lat="48.60005" lon="1.8812">
        <ele>162</ele>
        <time>2020-10-27T08:07:35.000Z</time>
      </trkpt>
      <trkpt lat="48.60015" lon="1.88121">
        <ele>162.37209984</ele>
        <time>2020-10-27T08:07:43.000Z</time>
      </trkpt>
      <trkpt lat="48.60024" lon="1.88127">
        <ele>163</ele>
        <time>2020-10-27T08:07:51.000Z</time>
      </trkpt>
      <trkpt lat="48.60033" lon="1.88129">
        <ele>163.06662742716</ele>
        <time>2020-10-27T08:08:00.000Z</time>
      </trkpt>
      <trkpt lat="48.60042" lon="1.88137">
        <ele>163.84835225387</ele>
        <time>2020-10-27T08:08:07.990Z</time>
      </trkpt>
      <trkpt lat="48.60051" lon="1.88135">
        <ele>164.5605752374</ele>
        <time>2020-10-27T08:08:15.000Z</time>
      </trkpt>
      <trkpt lat="48.6006" lon="1.88135">
        <ele>165</ele>
        <time>2020-10-27T08:08:22.990Z</time>
      </trkpt>
      <trkpt lat="48.6007" lon="1.88137">
        <ele>165</ele>
        <time>2020-10-27T08:08:32.990Z</time>
      </trkpt>
      <trkpt lat="48.60079" lon="1.88142">
        <ele>165.06124586507</ele>
        <time>2020-10-27T08:08:39.990Z</time>
      </trkpt>
      <trkpt lat="48.60088" lon="1.88146">
        <ele>165.66465842293</ele>
        <time>2020-10-27T08:08:46.000Z</time>
      </trkpt>
      <trkpt lat="48.60097" lon="1.88148">
        <ele>166.36820884875</ele>
        <time>2020-10-27T08:08:53.000Z</time>
      </trkpt>
      <trkpt lat="48.60105" lon="1.88155">
        <ele>166.97082525285</ele>
        <time>2020-10-27T08:08:58.990Z</time>
      </trkpt>
      <trkpt lat="48.60115" lon="1.88157">
        <ele>167</ele>
        <time>2020-10-27T08:09:07.990Z</time>
      </trkpt>
      <trkpt lat="48.60124" lon="1.88161">
        <ele>167</ele>
        <time>2020-10-27T08:09:15.000Z</time>
      </trkpt>
      <trkpt lat="48.60133" lon="1.88158">
        <ele>167.66449070956</ele>
        <time>2020-10-27T08:09:25.998Z</time>
      </trkpt>
      <trkpt lat="48.60142" lon="1.88156">
        <ele>168</ele>
        <time>2020-10-27T08:09:34.000Z</time>
      </trkpt>
      <trkpt lat="48.60151" lon="1.88163">
        <ele>168</ele>
        <time>2020-10-27T08:09:40.998Z</time>
      </trkpt>
      <trkpt lat="48.6016" lon="1.88164">
        <ele>168</ele>
        <time>2020-10-27T08:09:55.000Z</time>
      </trkpt>
      <trkpt lat="48.60169" lon="1.88165">
        <ele>168</ele>
        <time>2020-10-27T08:10:05.000Z</time>
      </trkpt>
      <trkpt lat="48.60178" lon="1.88168">
        <ele>168</ele>
        <time>2020-10-27T08:10:13.000Z</time>
      </trkpt>
      <trkpt lat="48.60186" lon="1.88176">
        <ele>168</ele>
        <time>2020-10-27T08:10:16.000Z</time>
      </trkpt>
      <trkpt lat="48.60195" lon="1.88179">
        <ele>167.96265560166</ele>
        <time>2020-10-27T08:10:20.000Z</time>
      </trkpt>
      <trkpt lat="48.60205" lon="1.88181">
        <ele>167.02904564315</ele>
        <time>2020-10-27T08:10:29.000Z</time>
      </trkpt>
      <trkpt lat="48.60215" lon="1.88184">
        <ele>167.0704368254</ele>
        <time>2020-10-27T08:10:39.990Z</time>
      </trkpt>
      <trkpt lat="48.60225" lon="1.88184">
        <ele>167.96428571429</ele>
        <time>2020-10-27T08:10:49.000Z</time>
      </trkpt>
      <trkpt lat="48.60234" lon="1.88189">
        <ele>168</ele>
        <time>2020-10-27T08:10:57.990Z</time>
      </trkpt>
      <trkpt lat="48.60245" lon="1.88193">
        <ele>168</ele>
        <time>2020-10-27T08:11:06.989Z</time>
      </trkpt>
      <trkpt lat="48.60254" lon="1.88192">
        <ele>168</ele>
        <time>2020-10-27T08:11:18.000Z</time>
      </trkpt>
      <trkpt lat="48.60264" lon="1.8819">
        <ele>168</ele>
        <time>2020-10-27T08:11:37.000Z</time>
      </trkpt>
      <trkpt lat="48.60272" lon="1.88198">
        <ele>167.42909952</ele>
        <time>2020-10-27T08:11:54.989Z</time>
      </trkpt>
      <trkpt lat="48.60275" lon="1.88185">
        <ele>168</ele>
        <time>2020-10-27T08:12:28.990Z</time>
      </trkpt>
      <trkpt lat="48.60265" lon="1.88188">
        <ele>168</ele>
        <time>2020-10-27T08:13:12.000Z</time>
      </trkpt>
      <trkpt lat="48.60253" lon="1.88189">
        <ele>168</ele>
        <time>2020-10-27T08:13:17.000Z</time>
      </trkpt>
      <trkpt lat="48.60262" lon="1.88184">
        <ele>168</ele>
        <time>2020-10-27T08:13:29.000Z</time>
      </trkpt>
      <trkpt lat="48.60268" lon="1.88174">
        <ele>168</ele>
        <time>2020-10-27T08:13:36.000Z</time>
      </trkpt>
      <trkpt lat="48.60267" lon="1.88159">
        <ele>168</ele>
        <time>2020-10-27T08:14:08.000Z</time>
      </trkpt>
      <trkpt lat="48.60273" lon="1.88171">
        <ele>168</ele>
        <time>2020-10-27T08:14:24.000Z</time>
      </trkpt>
      <trkpt lat="48.6028" lon="1.8818">
        <ele>168</ele>
        <time>2020-10-27T08:14:35.989Z</time>
      </trkpt>
      <trkpt lat="48.60278" lon="1.88197">
        <ele>168</ele>
        <time>2020-10-27T08:15:04.000Z</time>
      </trkpt>
      <trkpt lat="48.60272" lon="1.88206">
        <ele>168</ele>
        <time>2020-10-27T08:15:31.000Z</time>
      </trkpt>
      <trkpt lat="48.60264" lon="1.88215">
        <ele>168</ele>
        <time>2020-10-27T08:15:44.000Z</time>
      </trkpt>
      <trkpt lat="48.60267" lon="1.88201">
        <ele>168</ele>
        <time>2020-10-27T08:16:00.000Z</time>
      </trkpt>
      <trkpt lat="48.60267" lon="1.88186">
        <ele>168</ele>
        <time>2020-10-27T08:16:07.000Z</time>
      </trkpt>
      <trkpt lat="48.60277" lon="1.88183">
        <ele>168</ele>
        <time>2020-10-27T08:16:47.000Z</time>
      </trkpt>
      <trkpt lat="48.60267" lon="1.88183">
        <ele>168</ele>
        <time>2020-10-27T08:17:18.000Z</time>
      </trkpt>
      <trkpt lat="48.60275" lon="1.88192">
        <ele>168</ele>
        <time>2020-10-27T08:17:55.000Z</time>
      </trkpt>
      <trkpt lat="48.60281" lon="1.88202">
        <ele>168</ele>
        <time>2020-10-27T08:18:05.987Z</time>
      </trkpt>
      <trkpt lat="48.60283" lon="1.88216">
        <ele>168</ele>
        <time>2020-10-27T08:18:17.001Z</time>
      </trkpt>
      <trkpt lat="48.60284" lon="1.88231">
        <ele>168</ele>
        <time>2020-10-27T08:18:31.000Z</time>
      </trkpt>
      <trkpt lat="48.60283" lon="1.88244">
        <ele>168</ele>
        <time>2020-10-27T08:18:38.989Z</time>
      </trkpt>
      <trkpt lat="48.60282" lon="1.88258">
        <ele>168.172</ele>
        <time>2020-10-27T08:18:51.000Z</time>
      </trkpt>
      <trkpt lat="48.60281" lon="1.88273">
        <ele>168.8290259537</ele>
        <time>2020-10-27T08:19:01.000Z</time>
      </trkpt>
      <trkpt lat="48.60276" lon="1.88285">
        <ele>168.13320134667</ele>
        <time>2020-10-27T08:19:08.000Z</time>
      </trkpt>
      <trkpt lat="48.60279" lon="1.88297">
        <ele>168</ele>
        <time>2020-10-27T08:19:13.990Z</time>
      </trkpt>
      <trkpt lat="48.60279" lon="1.88311">
        <ele>168</ele>
        <time>2020-10-27T08:19:24.986Z</time>
      </trkpt>
      <trkpt lat="48.60277" lon="1.88325">
        <ele>168</ele>
        <time>2020-10-27T08:19:37.988Z</time>
      </trkpt>
      <trkpt lat="48.60276" lon="1.88339">
        <ele>168</ele>
        <time>2020-10-27T08:19:43.988Z</time>
      </trkpt>
      <trkpt lat="48.60276" lon="1.88352">
        <ele>168</ele>
        <time>2020-10-27T08:19:50.989Z</time>
      </trkpt>
      <trkpt lat="48.60272" lon="1.88366">
        <ele>168</ele>
        <time>2020-10-27T08:20:02.000Z</time>
      </trkpt>
      <trkpt lat="48.60274" lon="1.88381">
        <ele>168</ele>
        <time>2020-10-27T08:20:09.000Z</time>
      </trkpt>
      <trkpt lat="48.60277" lon="1.88394">
        <ele>168</ele>
        <time>2020-10-27T08:20:13.990Z</time>
      </trkpt>
      <trkpt lat="48.60283" lon="1.88411">
        <ele>168</ele>
        <time>2020-10-27T08:20:24.000Z</time>
      </trkpt>
      <trkpt lat="48.6029" lon="1.88423">
        <ele>168</ele>
        <time>2020-10-27T08:20:33.986Z</time>
      </trkpt>
      <trkpt lat="48.60286" lon="1.88436">
        <ele>168</ele>
        <time>2020-10-27T08:20:44.000Z</time>
      </trkpt>
      <trkpt lat="48.60288" lon="1.88452">
        <ele>168</ele>
        <time>2020-10-27T08:20:55.000Z</time>
      </trkpt>
      <trkpt lat="48.60291" lon="1.88467">
        <ele>168</ele>
        <time>2020-10-27T08:21:02.991Z</time>
      </trkpt>
      <trkpt lat="48.60292" lon="1.88481">
        <ele>168</ele>
        <time>2020-10-27T08:21:12.000Z</time>
      </trkpt>
      <trkpt lat="48.60293" lon="1.88498">
        <ele>168</ele>
        <time>2020-10-27T08:21:22.000Z</time>
      </trkpt>
      <trkpt lat="48.60293" lon="1.88515">
        <ele>168</ele>
        <time>2020-10-27T08:21:30.000Z</time>
      </trkpt>
      <trkpt lat="48.60291" lon="1.8853">
        <ele>168</ele>
        <time>2020-10-27T08:21:37.000Z</time>
      </trkpt>
      <trkpt lat="48.60297" lon="1.88543">
        <ele>168</ele>
        <time>2020-10-27T08:21:43.991Z</time>
      </trkpt>
      <trkpt lat="48.60294" lon="1.88558">
        <ele>168</ele>
        <time>2020-10-27T08:21:51.000Z</time>
      </trkpt>
      <trkpt lat="48.60298" lon="1.88572">
        <ele>168</ele>
        <time>2020-10-27T08:21:55.990Z</time>
      </trkpt>
      <trkpt lat="48.60304" lon="1.88583">
        <ele>168</ele>
        <time>2020-10-27T08:22:02.990Z</time>
      </trkpt>
      <trkpt lat="48.60304" lon="1.88598">
        <ele>168</ele>
        <time>2020-10-27T08:22:11.000Z</time>
      </trkpt>
      <trkpt lat="48.60303" lon="1.88613">
        <ele>168</ele>
        <time>2020-10-27T08:22:19.000Z</time>
      </trkpt>
      <trkpt lat="48.60305" lon="1.88629">
        <ele>168</ele>
        <time>2020-10-27T08:22:29.000Z</time>
      </trkpt>
      <trkpt lat="48.60307" lon="1.88644">
        <ele>168</ele>
        <time>2020-10-27T08:22:37.000Z</time>
      </trkpt>
      <trkpt lat="48.60309" lon="1.88662">
        <ele>168</ele>
        <time>2020-10-27T08:22:48.000Z</time>
      </trkpt>
      <trkpt lat="48.60311" lon="1.88677">
        <ele>168</ele>
        <time>2020-10-27T08:22:55.990Z</time>
      </trkpt>
      <trkpt lat="48.60314" lon="1.88691">
        <ele>168</ele>
        <time>2020-10-27T08:23:03.991Z</time>
      </trkpt>
      <trkpt lat="48.60318" lon="1.88704">
        <ele>168</ele>
        <time>2020-10-27T08:23:08.990Z</time>
      </trkpt>
      <trkpt lat="48.60315" lon="1.88718">
        <ele>168</ele>
        <time>2020-10-27T08:23:31.000Z</time>
      </trkpt>
      <trkpt lat="48.60314" lon="1.88735">
        <ele>168</ele>
        <time>2020-10-27T08:23:50.000Z</time>
      </trkpt>
      <trkpt lat="48.60316" lon="1.88749">
        <ele>168</ele>
        <time>2020-10-27T08:23:57.988Z</time>
      </trkpt>
      <trkpt lat="48.60319" lon="1.88762">
        <ele>168</ele>
        <time>2020-10-27T08:24:08.991Z</time>
      </trkpt>
      <trkpt lat="48.60319" lon="1.88777">
        <ele>168</ele>
        <time>2020-10-27T08:24:20.989Z</time>
      </trkpt>
      <trkpt lat="48.6032" lon="1.88792">
        <ele>168</ele>
        <time>2020-10-27T08:24:26.000Z</time>
      </trkpt>
      <trkpt lat="48.60318" lon="1.88806">
        <ele>168</ele>
        <time>2020-10-27T08:24:33.990Z</time>
      </trkpt>
      <trkpt lat="48.60318" lon="1.88822">
        <ele>168</ele>
        <time>2020-10-27T08:24:44.000Z</time>
      </trkpt>
      <trkpt lat="48.6032" lon="1.88837">
        <ele>168</ele>
        <time>2020-10-27T08:24:48.000Z</time>
      </trkpt>
      <trkpt lat="48.60322" lon="1.88852">
        <ele>168</ele>
        <time>2020-10-27T08:24:56.000Z</time>
      </trkpt>
      <trkpt lat="48.60322" lon="1.88867">
        <ele>168</ele>
        <time>2020-10-27T08:25:01.000Z</time>
      </trkpt>
      <trkpt lat="48.60325" lon="1.88881">
        <ele>168</ele>
        <time>2020-10-27T08:25:07.000Z</time>
      </trkpt>
      <trkpt lat="48.60327" lon="1.88896">
        <ele>168</ele>
        <time>2020-10-27T08:25:17.000Z</time>
      </trkpt>
      <trkpt lat="48.60328" lon="1.8891">
        <ele>168</ele>
        <time>2020-10-27T08:25:29.000Z</time>
      </trkpt>
      <trkpt lat="48.60331" lon="1.88925">
        <ele>168</ele>
        <time>2020-10-27T08:25:38.000Z</time>
      </trkpt>
      <trkpt lat="48.60333" lon="1.88942">
        <ele>168</ele>
        <time>2020-10-27T08:25:46.000Z</time>
      </trkpt>
      <trkpt lat="48.60334" lon="1.88957">
        <ele>168</ele>
        <time>2020-10-27T08:25:52.986Z</time>
      </trkpt>
      <trkpt lat="48.60338" lon="1.8897">
        <ele>168</ele>
        <time>2020-10-27T08:26:00.991Z</time>
      </trkpt>
      <trkpt lat="48.60337" lon="1.88985">
        <ele>168</ele>
        <time>2020-10-27T08:26:11.000Z</time>
      </trkpt>
      <trkpt lat="48.6034" lon="1.88998">
        <ele>168</ele>
        <time>2020-10-27T08:26:19.000Z</time>
      </trkpt>
      <trkpt lat="48.60347" lon="1.8901">
        <ele>168</ele>
        <time>2020-10-27T08:26:26.000Z</time>
      </trkpt>
      <trkpt lat="48.60347" lon="1.89024">
        <ele>168</ele>
        <time>2020-10-27T08:26:33.000Z</time>
      </trkpt>
      <trkpt lat="48.6035" lon="1.89038">
        <ele>168</ele>
        <time>2020-10-27T08:26:40.000Z</time>
      </trkpt>
      <trkpt lat="48.60349" lon="1.89053">
        <ele>168</ele>
        <time>2020-10-27T08:26:48.000Z</time>
      </trkpt>
      <trkpt lat="48.60349" lon="1.89067">
        <ele>168</ele>
        <time>2020-10-27T08:26:58.000Z</time>
      </trkpt>
      <trkpt lat="48.60351" lon="1.89082">
        <ele>168</ele>
        <time>2020-10-27T08:27:05.999Z</time>
      </trkpt>
      <trkpt lat="48.60358" lon="1.89096">
        <ele>168</ele>
        <time>2020-10-27T08:27:16.000Z</time>
      </trkpt>
      <trkpt lat="48.60364" lon="1.89106">
        <ele>168</ele>
        <time>2020-10-27T08:27:21.986Z</time>
      </trkpt>
      <trkpt lat="48.6037" lon="1.89119">
        <ele>168</ele>
        <time>2020-10-27T08:27:29.988Z</time>
      </trkpt>
      <trkpt lat="48.60374" lon="1.89132">
        <ele>168</ele>
        <time>2020-10-27T08:27:37.988Z</time>
      </trkpt>
      <trkpt lat="48.60379" lon="1.89147">
        <ele>168</ele>
        <time>2020-10-27T08:27:46.000Z</time>
      </trkpt>
      <trkpt lat="48.60384" lon="1.89159">
        <ele>168</ele>
        <time>2020-10-27T08:27:53.990Z</time>
      </trkpt>
      <trkpt lat="48.60392" lon="1.89166">
        <ele>168</ele>
        <time>2020-10-27T08:28:01.991Z</time>
      </trkpt>
      <trkpt lat="48.60399" lon="1.89179">
        <ele>168</ele>
        <time>2020-10-27T08:28:11.000Z</time>
      </trkpt>
      <trkpt lat="48.60406" lon="1.89188">
        <ele>168</ele>
        <time>2020-10-27T08:28:21.000Z</time>
      </trkpt>
      <trkpt lat="48.60415" lon="1.89193">
        <ele>168</ele>
        <time>2020-10-27T08:28:39.000Z</time>
      </trkpt>
      <trkpt lat="48.60425" lon="1.89196">
        <ele>168</ele>
        <time>2020-10-27T08:28:48.989Z</time>
      </trkpt>
      <trkpt lat="48.60433" lon="1.89206">
        <ele>168</ele>
        <time>2020-10-27T08:28:58.000Z</time>
      </trkpt>
      <trkpt lat="48.60438" lon="1.89217">
        <ele>168</ele>
        <time>2020-10-27T08:29:01.000Z</time>
      </trkpt>
      <trkpt lat="48.60445" lon="1.89226">
        <ele>168</ele>
        <time>2020-10-27T08:29:08.000Z</time>
      </trkpt>
      <trkpt lat="48.60453" lon="1.89236">
        <ele>168</ele>
        <time>2020-10-27T08:29:17.000Z</time>
      </trkpt>
      <trkpt lat="48.60461" lon="1.89226">
        <ele>168</ele>
        <time>2020-10-27T08:29:29.990Z</time>
      </trkpt>
      <trkpt lat="48.60465" lon="1.89214">
        <ele>168</ele>
        <time>2020-10-27T08:29:48.989Z</time>
      </trkpt>
      <trkpt lat="48.60471" lon="1.89204">
        <ele>168</ele>
        <time>2020-10-27T08:30:19.991Z</time>
      </trkpt>
      <trkpt lat="48.60477" lon="1.89192">
        <ele>168</ele>
        <time>2020-10-27T08:30:34.990Z</time>
      </trkpt>
      <trkpt lat="48.60481" lon="1.89179">
        <ele>168</ele>
        <time>2020-10-27T08:30:41.991Z</time>
      </trkpt>
      <trkpt lat="48.60488" lon="1.89168">
        <ele>168</ele>
        <time>2020-10-27T08:30:49.989Z</time>
      </trkpt>
      <trkpt lat="48.60498" lon="1.89162">
        <ele>168</ele>
        <time>2020-10-27T08:30:56.989Z</time>
      </trkpt>
      <trkpt lat="48.60504" lon="1.8915">
        <ele>168</ele>
        <time>2020-10-27T08:31:06.991Z</time>
      </trkpt>
      <trkpt lat="48.60507" lon="1.89135">
        <ele>167.42909952</ele>
        <time>2020-10-27T08:31:14.989Z</time>
      </trkpt>
      <trkpt lat="48.60512" lon="1.89122">
        <ele>167</ele>
        <time>2020-10-27T08:31:22.989Z</time>
      </trkpt>
      <trkpt lat="48.60514" lon="1.89108">
        <ele>167</ele>
        <time>2020-10-27T08:31:29.989Z</time>
      </trkpt>
      <trkpt lat="48.60518" lon="1.89094">
        <ele>167</ele>
        <time>2020-10-27T08:31:37.989Z</time>
      </trkpt>
      <trkpt lat="48.60525" lon="1.89084">
        <ele>167</ele>
        <time>2020-10-27T08:31:45.991Z</time>
      </trkpt>
      <trkpt lat="48.60532" lon="1.89073">
        <ele>167</ele>
        <time>2020-10-27T08:31:52.989Z</time>
      </trkpt>
      <trkpt lat="48.6054" lon="1.89065">
        <ele>167</ele>
        <time>2020-10-27T08:32:00.990Z</time>
      </trkpt>
      <trkpt lat="48.60546" lon="1.89053">
        <ele>167</ele>
        <time>2020-10-27T08:32:09.990Z</time>
      </trkpt>
      <trkpt lat="48.6055" lon="1.89041">
        <ele>167</ele>
        <time>2020-10-27T08:32:16.990Z</time>
      </trkpt>
      <trkpt lat="48.60557" lon="1.8903">
        <ele>167</ele>
        <time>2020-10-27T08:32:25.989Z</time>
      </trkpt>
      <trkpt lat="48.60561" lon="1.89017">
        <ele>167</ele>
        <time>2020-10-27T08:32:34.990Z</time>
      </trkpt>
      <trkpt lat="48.60566" lon="1.89004">
        <ele>167</ele>
        <time>2020-10-27T08:32:41.990Z</time>
      </trkpt>
      <trkpt lat="48.60574" lon="1.88994">
        <ele>167</ele>
        <time>2020-10-27T08:32:49.990Z</time>
      </trkpt>
      <trkpt lat="48.6058" lon="1.88983">
        <ele>167</ele>
        <time>2020-10-27T08:32:56.988Z</time>
      </trkpt>
      <trkpt lat="48.60583" lon="1.88969">
        <ele>167</ele>
        <time>2020-10-27T08:33:05.989Z</time>
      </trkpt>
      <trkpt lat="48.60588" lon="1.88957">
        <ele>167</ele>
        <time>2020-10-27T08:33:12.991Z</time>
      </trkpt>
      <trkpt lat="48.60593" lon="1.88946">
        <ele>166.63840102201</ele>
        <time>2020-10-27T08:33:22.990Z</time>
      </trkpt>
      <trkpt lat="48.60598" lon="1.88934">
        <ele>166</ele>
        <time>2020-10-27T08:33:32.015Z</time>
      </trkpt>
      <trkpt lat="48.60603" lon="1.88923">
        <ele>166</ele>
        <time>2020-10-27T08:33:39.990Z</time>
      </trkpt>
      <trkpt lat="48.60611" lon="1.88914">
        <ele>166</ele>
        <time>2020-10-27T08:33:47.989Z</time>
      </trkpt>
      <trkpt lat="48.60618" lon="1.88903">
        <ele>166</ele>
        <time>2020-10-27T08:33:55.990Z</time>
      </trkpt>
      <trkpt lat="48.60623" lon="1.8889">
        <ele>166</ele>
        <time>2020-10-27T08:34:04.000Z</time>
      </trkpt>
      <trkpt lat="48.60627" lon="1.88876">
        <ele>166</ele>
        <time>2020-10-27T08:34:11.988Z</time>
      </trkpt>
      <trkpt lat="48.60634" lon="1.88866">
        <ele>166</ele>
        <time>2020-10-27T08:34:19.990Z</time>
      </trkpt>
      <trkpt lat="48.60641" lon="1.88856">
        <ele>166</ele>
        <time>2020-10-27T08:34:27.990Z</time>
      </trkpt>
      <trkpt lat="48.60647" lon="1.88845">
        <ele>166</ele>
        <time>2020-10-27T08:34:35.989Z</time>
      </trkpt>
      <trkpt lat="48.60654" lon="1.88835">
        <ele>166</ele>
        <time>2020-10-27T08:34:44.000Z</time>
      </trkpt>
      <trkpt lat="48.6066" lon="1.88824">
        <ele>166</ele>
        <time>2020-10-27T08:34:50.989Z</time>
      </trkpt>
      <trkpt lat="48.60665" lon="1.88813">
        <ele>166</ele>
        <time>2020-10-27T08:34:58.999Z</time>
      </trkpt>
      <trkpt lat="48.60674" lon="1.88807">
        <ele>166</ele>
        <time>2020-10-27T08:35:08.000Z</time>
      </trkpt>
      <trkpt lat="48.60682" lon="1.88815">
        <ele>166</ele>
        <time>2020-10-27T08:35:15.988Z</time>
      </trkpt>
      <trkpt lat="48.6069" lon="1.88824">
        <ele>166</ele>
        <time>2020-10-27T08:35:24.001Z</time>
      </trkpt>
      <trkpt lat="48.60697" lon="1.88834">
        <ele>166</ele>
        <time>2020-10-27T08:35:28.999Z</time>
      </trkpt>
      <trkpt lat="48.60705" lon="1.88843">
        <ele>166</ele>
        <time>2020-10-27T08:35:38.999Z</time>
      </trkpt>
      <trkpt lat="48.60714" lon="1.88848">
        <ele>166</ele>
        <time>2020-10-27T08:35:50.000Z</time>
      </trkpt>
      <trkpt lat="48.60722" lon="1.88856">
        <ele>166</ele>
        <time>2020-10-27T08:35:56.988Z</time>
      </trkpt>
      <trkpt lat="48.6073" lon="1.88862">
        <ele>166</ele>
        <time>2020-10-27T08:36:04.000Z</time>
      </trkpt>
      <trkpt lat="48.60738" lon="1.8887">
        <ele>166</ele>
        <time>2020-10-27T08:36:11.989Z</time>
      </trkpt>
      <trkpt lat="48.60745" lon="1.88881">
        <ele>166</ele>
        <time>2020-10-27T08:36:25.000Z</time>
      </trkpt>
      <trkpt lat="48.60752" lon="1.88892">
        <ele>166</ele>
        <time>2020-10-27T08:36:35.986Z</time>
      </trkpt>
      <trkpt lat="48.60761" lon="1.889">
        <ele>166</ele>
        <time>2020-10-27T08:36:51.000Z</time>
      </trkpt>
      <trkpt lat="48.60768" lon="1.8891">
        <ele>166</ele>
        <time>2020-10-27T08:36:58.986Z</time>
      </trkpt>
      <trkpt lat="48.60776" lon="1.88915">
        <ele>166</ele>
        <time>2020-10-27T08:37:06.102Z</time>
      </trkpt>
      <trkpt lat="48.60784" lon="1.88927">
        <ele>166</ele>
        <time>2020-10-27T08:37:14.000Z</time>
      </trkpt>
      <trkpt lat="48.60792" lon="1.88932">
        <ele>166</ele>
        <time>2020-10-27T08:37:18.001Z</time>
      </trkpt>
      <trkpt lat="48.608" lon="1.88944">
        <ele>166</ele>
        <time>2020-10-27T08:37:28.986Z</time>
      </trkpt>
      <trkpt lat="48.60808" lon="1.88952">
        <ele>166</ele>
        <time>2020-10-27T08:37:36.000Z</time>
      </trkpt>
      <trkpt lat="48.60816" lon="1.8896">
        <ele>166</ele>
        <time>2020-10-27T08:37:44.988Z</time>
      </trkpt>
      <trkpt lat="48.60823" lon="1.88969">
        <ele>166</ele>
        <time>2020-10-27T08:37:53.988Z</time>
      </trkpt>
      <trkpt lat="48.60833" lon="1.88975">
        <ele>164.40766759793</ele>
        <time>2020-10-27T08:38:02.000Z</time>
      </trkpt>
      <trkpt lat="48.6084" lon="1.88981">
        <ele>160.16952567684</ele>
        <time>2020-10-27T08:38:09.000Z</time>
      </trkpt>
      <trkpt lat="48.60847" lon="1.8899">
        <ele>159.44412033248</ele>
        <time>2020-10-27T08:38:15.000Z</time>
      </trkpt>
      <trkpt lat="48.60855" lon="1.88995">
        <ele>158.44088537479</ele>
        <time>2020-10-27T08:38:24.999Z</time>
      </trkpt>
      <trkpt lat="48.60861" lon="1.89006">
        <ele>157.83510089415</ele>
        <time>2020-10-27T08:38:30.990Z</time>
      </trkpt>
      <trkpt lat="48.60868" lon="1.89015">
        <ele>157.1601728556</ele>
        <time>2020-10-27T08:38:37.989Z</time>
      </trkpt>
      <trkpt lat="48.60874" lon="1.89026">
        <ele>156.34592461085</ele>
        <time>2020-10-27T08:38:45.988Z</time>
      </trkpt>
      <trkpt lat="48.60882" lon="1.89034">
        <ele>155.7337341185</ele>
        <time>2020-10-27T08:38:52.000Z</time>
      </trkpt>
      <trkpt lat="48.6089" lon="1.89041">
        <ele>155</ele>
        <time>2020-10-27T08:38:59.988Z</time>
      </trkpt>
      <trkpt lat="48.609" lon="1.89053">
        <ele>155</ele>
        <time>2020-10-27T08:39:08.000Z</time>
      </trkpt>
      <trkpt lat="48.60907" lon="1.89062">
        <ele>155</ele>
        <time>2020-10-27T08:39:14.989Z</time>
      </trkpt>
      <trkpt lat="48.60915" lon="1.89069">
        <ele>155</ele>
        <time>2020-10-27T08:39:23.986Z</time>
      </trkpt>
      <trkpt lat="48.60923" lon="1.8908">
        <ele>154.43369908396</ele>
        <time>2020-10-27T08:39:35.000Z</time>
      </trkpt>
      <trkpt lat="48.60931" lon="1.89089">
        <ele>153.93923897249</ele>
        <time>2020-10-27T08:39:39.988Z</time>
      </trkpt>
      <trkpt lat="48.60939" lon="1.89098">
        <ele>152.98417687764</ele>
        <time>2020-10-27T08:39:50.000Z</time>
      </trkpt>
      <trkpt lat="48.60945" lon="1.89109">
        <ele>152.03607493671</ele>
        <time>2020-10-27T08:39:58.988Z</time>
      </trkpt>
      <trkpt lat="48.60956" lon="1.89117">
        <ele>151.33085480817</ele>
        <time>2020-10-27T08:40:05.988Z</time>
      </trkpt>
      <trkpt lat="48.60966" lon="1.89125">
        <ele>151</ele>
        <time>2020-10-27T08:40:11.988Z</time>
      </trkpt>
      <trkpt lat="48.60973" lon="1.89135">
        <ele>151</ele>
        <time>2020-10-27T08:40:22.000Z</time>
      </trkpt>
      <trkpt lat="48.6098" lon="1.89145">
        <ele>150.83484385413</ele>
        <time>2020-10-27T08:40:30.990Z</time>
      </trkpt>
      <trkpt lat="48.60988" lon="1.89154">
        <ele>150.02920411817</ele>
        <time>2020-10-27T08:40:38.990Z</time>
      </trkpt>
      <trkpt lat="48.60996" lon="1.89162">
        <ele>150</ele>
        <time>2020-10-27T08:40:44.988Z</time>
      </trkpt>
      <trkpt lat="48.61004" lon="1.89171">
        <ele>150</ele>
        <time>2020-10-27T08:40:53.000Z</time>
      </trkpt>
      <trkpt lat="48.61013" lon="1.89179">
        <ele>149.53081540783</ele>
        <time>2020-10-27T08:41:04.000Z</time>
      </trkpt>
      <trkpt lat="48.61021" lon="1.89187">
        <ele>149</ele>
        <time>2020-10-27T08:41:12.028Z</time>
      </trkpt>
      <trkpt lat="48.61032" lon="1.89193">
        <ele>148.73858633606</ele>
        <time>2020-10-27T08:41:21.988Z</time>
      </trkpt>
      <trkpt lat="48.61038" lon="1.89205">
        <ele>148.1325253382</ele>
        <time>2020-10-27T08:41:27.988Z</time>
      </trkpt>
      <trkpt lat="48.61043" lon="1.89217">
        <ele>148</ele>
        <time>2020-10-27T08:41:37.990Z</time>
      </trkpt>
      <trkpt lat="48.6105" lon="1.89225">
        <ele>148</ele>
        <time>2020-10-27T08:41:46.000Z</time>
      </trkpt>
      <trkpt lat="48.61059" lon="1.89232">
        <ele>147.9404249028</ele>
        <time>2020-10-27T08:41:49.998Z</time>
      </trkpt>
      <trkpt lat="48.61067" lon="1.89239">
        <ele>147.02836878513</ele>
        <time>2020-10-27T08:41:59.000Z</time>
      </trkpt>
      <trkpt lat="48.61075" lon="1.89247">
        <ele>146</ele>
        <time>2020-10-27T08:42:24.101Z</time>
      </trkpt>
      <trkpt lat="48.61083" lon="1.89255">
        <ele>146</ele>
        <time>2020-10-27T08:42:28.990Z</time>
      </trkpt>
      <trkpt lat="48.6109" lon="1.89263">
        <ele>146</ele>
        <time>2020-10-27T08:42:37.999Z</time>
      </trkpt>
      <trkpt lat="48.61098" lon="1.89272">
        <ele>146</ele>
        <time>2020-10-27T08:42:43.989Z</time>
      </trkpt>
      <trkpt lat="48.61104" lon="1.89284">
        <ele>145.645217501</ele>
        <time>2020-10-27T08:42:53.002Z</time>
      </trkpt>
      <trkpt lat="48.6111" lon="1.89295">
        <ele>143.89416533333</ele>
        <time>2020-10-27T08:43:04.988Z</time>
      </trkpt>
      <trkpt lat="48.61118" lon="1.89302">
        <ele>143</ele>
        <time>2020-10-27T08:43:10.000Z</time>
      </trkpt>
      <trkpt lat="48.61126" lon="1.89309">
        <ele>143</ele>
        <time>2020-10-27T08:43:16.989Z</time>
      </trkpt>
      <trkpt lat="48.61131" lon="1.8932">
        <ele>143</ele>
        <time>2020-10-27T08:43:26.988Z</time>
      </trkpt>
      <trkpt lat="48.61141" lon="1.89326">
        <ele>143</ele>
        <time>2020-10-27T08:43:32.998Z</time>
      </trkpt>
      <trkpt lat="48.6115" lon="1.89334">
        <ele>142.93642754828</ele>
        <time>2020-10-27T08:43:40.000Z</time>
      </trkpt>
      <trkpt lat="48.61158" lon="1.89342">
        <ele>142.13037396396</ele>
        <time>2020-10-27T08:43:47.988Z</time>
      </trkpt>
      <trkpt lat="48.61166" lon="1.8935">
        <ele>142</ele>
        <time>2020-10-27T08:43:52.987Z</time>
      </trkpt>
      <trkpt lat="48.61171" lon="1.89361">
        <ele>141.91152197531</ele>
        <time>2020-10-27T08:43:59.990Z</time>
      </trkpt>
      <trkpt lat="48.61179" lon="1.8937">
        <ele>140.05987555556</ele>
        <time>2020-10-27T08:44:08.989Z</time>
      </trkpt>
      <trkpt lat="48.61188" lon="1.89375">
        <ele>140</ele>
        <time>2020-10-27T08:44:18.987Z</time>
      </trkpt>
      <trkpt lat="48.61196" lon="1.89383">
        <ele>139.52909952</ele>
        <time>2020-10-27T08:44:23.989Z</time>
      </trkpt>
      <trkpt lat="48.61201" lon="1.89395">
        <ele>139.02919936</ele>
        <time>2020-10-27T08:44:28.988Z</time>
      </trkpt>
      <trkpt lat="48.61207" lon="1.89406">
        <ele>139</ele>
        <time>2020-10-27T08:44:33.989Z</time>
      </trkpt>
      <trkpt lat="48.61206" lon="1.89422">
        <ele>139</ele>
        <time>2020-10-27T08:44:42.002Z</time>
      </trkpt>
      <trkpt lat="48.6121" lon="1.89436">
        <ele>139</ele>
        <time>2020-10-27T08:44:48.986Z</time>
      </trkpt>
      <trkpt lat="48.61207" lon="1.89452">
        <ele>138.328</ele>
        <time>2020-10-27T08:44:56.000Z</time>
      </trkpt>
      <trkpt lat="48.61209" lon="1.89466">
        <ele>137.63738994745</ele>
        <time>2020-10-27T08:45:03.004Z</time>
      </trkpt>
      <trkpt lat="48.61206" lon="1.8948">
        <ele>137</ele>
        <time>2020-10-27T08:45:09.987Z</time>
      </trkpt>
      <trkpt lat="48.61205" lon="1.89494">
        <ele>137</ele>
        <time>2020-10-27T08:45:16.997Z</time>
      </trkpt>
      <trkpt lat="48.61205" lon="1.89508">
        <ele>136.52899968</ele>
        <time>2020-10-27T08:45:23.990Z</time>
      </trkpt>
      <trkpt lat="48.61207" lon="1.89523">
        <ele>136</ele>
        <time>2020-10-27T08:45:32.004Z</time>
      </trkpt>
      <trkpt lat="48.61208" lon="1.89541">
        <ele>136</ele>
        <time>2020-10-27T08:45:39.000Z</time>
      </trkpt>
      <trkpt lat="48.61206" lon="1.89555">
        <ele>136</ele>
        <time>2020-10-27T08:45:46.987Z</time>
      </trkpt>
      <trkpt lat="48.61212" lon="1.8957">
        <ele>136</ele>
        <time>2020-10-27T08:45:54.000Z</time>
      </trkpt>
      <trkpt lat="48.61211" lon="1.89584">
        <ele>136</ele>
        <time>2020-10-27T08:45:58.987Z</time>
      </trkpt>
      <trkpt lat="48.61211" lon="1.89599">
        <ele>136</ele>
        <time>2020-10-27T08:46:07.998Z</time>
      </trkpt>
      <trkpt lat="48.61209" lon="1.89614">
        <ele>135.44121338252</ele>
        <time>2020-10-27T08:46:14.987Z</time>
      </trkpt>
      <trkpt lat="48.61212" lon="1.89628">
        <ele>135</ele>
        <time>2020-10-27T08:46:21.988Z</time>
      </trkpt>
      <trkpt lat="48.61213" lon="1.89643">
        <ele>135</ele>
        <time>2020-10-27T08:46:29.987Z</time>
      </trkpt>
      <trkpt lat="48.61212" lon="1.89657">
        <ele>135</ele>
        <time>2020-10-27T08:46:36.987Z</time>
      </trkpt>
      <trkpt lat="48.61209" lon="1.8967">
        <ele>135</ele>
        <time>2020-10-27T08:46:43.987Z</time>
      </trkpt>
      <trkpt lat="48.61211" lon="1.89685">
        <ele>135</ele>
        <time>2020-10-27T08:46:50.989Z</time>
      </trkpt>
      <trkpt lat="48.61215" lon="1.89699">
        <ele>135</ele>
        <time>2020-10-27T08:46:58.989Z</time>
      </trkpt>
      <trkpt lat="48.61218" lon="1.89713">
        <ele>134.22919936</ele>
        <time>2020-10-27T08:47:06.988Z</time>
      </trkpt>
      <trkpt lat="48.61222" lon="1.89728">
        <ele>134</ele>
        <time>2020-10-27T08:47:12.000Z</time>
      </trkpt>
      <trkpt lat="48.61224" lon="1.89743">
        <ele>134</ele>
        <time>2020-10-27T08:47:18.000Z</time>
      </trkpt>
      <trkpt lat="48.61229" lon="1.89755">
        <ele>133.53651925214</ele>
        <time>2020-10-27T08:47:23.987Z</time>
      </trkpt>
      <trkpt lat="48.6123" lon="1.8977">
        <ele>133.1686746988</ele>
        <time>2020-10-27T08:47:31.000Z</time>
      </trkpt>
      <trkpt lat="48.6123" lon="1.89785">
        <ele>133.97068337349</ele>
        <time>2020-10-27T08:47:38.988Z</time>
      </trkpt>
      <trkpt lat="48.61232" lon="1.89799">
        <ele>134</ele>
        <time>2020-10-27T08:47:47.987Z</time>
      </trkpt>
      <trkpt lat="48.61231" lon="1.89814">
        <ele>133.33296318155</ele>
        <time>2020-10-27T08:47:55.987Z</time>
      </trkpt>
      <trkpt lat="48.61234" lon="1.89829">
        <ele>133</ele>
        <time>2020-10-27T08:48:02.989Z</time>
      </trkpt>
      <trkpt lat="48.61236" lon="1.89844">
        <ele>133</ele>
        <time>2020-10-27T08:48:12.000Z</time>
      </trkpt>
      <trkpt lat="48.61239" lon="1.89859">
        <ele>133</ele>
        <time>2020-10-27T08:48:18.987Z</time>
      </trkpt>
      <trkpt lat="48.61241" lon="1.89872">
        <ele>133</ele>
        <time>2020-10-27T08:48:24.997Z</time>
      </trkpt>
      <trkpt lat="48.61241" lon="1.89887">
        <ele>132.63260690033</ele>
        <time>2020-10-27T08:48:32.987Z</time>
      </trkpt>
      <trkpt lat="48.61243" lon="1.89902">
        <ele>132</ele>
        <time>2020-10-27T08:48:41.000Z</time>
      </trkpt>
      <trkpt lat="48.61245" lon="1.89916">
        <ele>132</ele>
        <time>2020-10-27T08:48:47.999Z</time>
      </trkpt>
      <trkpt lat="48.61248" lon="1.8993">
        <ele>132</ele>
        <time>2020-10-27T08:48:55.989Z</time>
      </trkpt>
      <trkpt lat="48.61248" lon="1.89944">
        <ele>132</ele>
        <time>2020-10-27T08:49:02.999Z</time>
      </trkpt>
      <trkpt lat="48.61246" lon="1.89958">
        <ele>132</ele>
        <time>2020-10-27T08:49:10.000Z</time>
      </trkpt>
      <trkpt lat="48.61249" lon="1.89971">
        <ele>132</ele>
        <time>2020-10-27T08:49:17.000Z</time>
      </trkpt>
      <trkpt lat="48.61251" lon="1.89985">
        <ele>131.54265177148</ele>
        <time>2020-10-27T08:49:24.000Z</time>
      </trkpt>
      <trkpt lat="48.61249" lon="1.89999">
        <ele>131</ele>
        <time>2020-10-27T08:49:32.000Z</time>
      </trkpt>
      <trkpt lat="48.61248" lon="1.90014">
        <ele>130.93737313139</ele>
        <time>2020-10-27T08:49:40.000Z</time>
      </trkpt>
      <trkpt lat="48.61252" lon="1.90028">
        <ele>130.02828281</ele>
        <time>2020-10-27T08:49:49.000Z</time>
      </trkpt>
      <trkpt lat="48.61248" lon="1.90042">
        <ele>130</ele>
        <time>2020-10-27T08:49:58.000Z</time>
      </trkpt>
      <trkpt lat="48.61247" lon="1.90057">
        <ele>129.32832822316</ele>
        <time>2020-10-27T08:50:06.000Z</time>
      </trkpt>
      <trkpt lat="48.61245" lon="1.90072">
        <ele>129</ele>
        <time>2020-10-27T08:50:13.999Z</time>
      </trkpt>
      <trkpt lat="48.61243" lon="1.90085">
        <ele>129</ele>
        <time>2020-10-27T08:50:21.988Z</time>
      </trkpt>
      <trkpt lat="48.61236" lon="1.90098">
        <ele>129</ele>
        <time>2020-10-27T08:50:30.988Z</time>
      </trkpt>
      <trkpt lat="48.6123" lon="1.90111">
        <ele>128.93472253968</ele>
        <time>2020-10-27T08:50:39.988Z</time>
      </trkpt>
      <trkpt lat="48.61224" lon="1.90122">
        <ele>128.14126984127</ele>
        <time>2020-10-27T08:50:47.986Z</time>
      </trkpt>
      <trkpt lat="48.6122" lon="1.90134">
        <ele>128.66300387097</ele>
        <time>2020-10-27T08:50:55.987Z</time>
      </trkpt>
      <trkpt lat="48.61213" lon="1.90145">
        <ele>129</ele>
        <time>2020-10-27T08:51:02.987Z</time>
      </trkpt>
      <trkpt lat="48.61206" lon="1.90156">
        <ele>129.159378667</ele>
        <time>2020-10-27T08:51:10.989Z</time>
      </trkpt>
      <trkpt lat="48.61201" lon="1.90167">
        <ele>129.861383787</ele>
        <time>2020-10-27T08:51:17.988Z</time>
      </trkpt>
      <trkpt lat="48.61194" lon="1.90179">
        <ele>130</ele>
        <time>2020-10-27T08:51:26.989Z</time>
      </trkpt>
      <trkpt lat="48.61187" lon="1.9019">
        <ele>129.42930048</ele>
        <time>2020-10-27T08:51:34.987Z</time>
      </trkpt>
      <trkpt lat="48.61182" lon="1.90201">
        <ele>129</ele>
        <time>2020-10-27T08:51:42.988Z</time>
      </trkpt>
      <trkpt lat="48.61176" lon="1.90215">
        <ele>129</ele>
        <time>2020-10-27T08:51:50.989Z</time>
      </trkpt>
      <trkpt lat="48.6117" lon="1.90227">
        <ele>129</ele>
        <time>2020-10-27T08:51:59.002Z</time>
      </trkpt>
      <trkpt lat="48.61164" lon="1.90237">
        <ele>128.22930048</ele>
        <time>2020-10-27T08:52:06.987Z</time>
      </trkpt>
      <trkpt lat="48.61172" lon="1.90249">
        <ele>128.33975975408</ele>
        <time>2020-10-27T08:52:25.989Z</time>
      </trkpt>
      <trkpt lat="48.6118" lon="1.90253">
        <ele>128</ele>
        <time>2020-10-27T08:52:38.989Z</time>
      </trkpt>
      <trkpt lat="48.6119" lon="1.90258">
        <ele>128</ele>
        <time>2020-10-27T08:52:47.000Z</time>
      </trkpt>
      <trkpt lat="48.61199" lon="1.90262">
        <ele>128</ele>
        <time>2020-10-27T08:52:56.988Z</time>
      </trkpt>
      <trkpt lat="48.61208" lon="1.90263">
        <ele>127.2324235846</ele>
        <time>2020-10-27T08:53:06.989Z</time>
      </trkpt>
      <trkpt lat="48.61216" lon="1.9027">
        <ele>127.86739816793</ele>
        <time>2020-10-27T08:53:17.990Z</time>
      </trkpt>
      <trkpt lat="48.61219" lon="1.90284">
        <ele>129</ele>
        <time>2020-10-27T08:53:55.000Z</time>
      </trkpt>
      <trkpt lat="48.61215" lon="1.90271">
        <ele>128.36831706507</ele>
        <time>2020-10-27T08:55:03.000Z</time>
      </trkpt>
      <trkpt lat="48.61217" lon="1.90257">
        <ele>128.87079936</ele>
        <time>2020-10-27T08:56:27.988Z</time>
      </trkpt>
      <trkpt lat="48.6121" lon="1.90267">
        <ele>128</ele>
        <time>2020-10-27T08:56:53.989Z</time>
      </trkpt>
      <trkpt lat="48.61215" lon="1.9028">
        <ele>130</ele>
        <time>2020-10-27T09:00:14.000Z</time>
      </trkpt>
      <trkpt lat="48.6121" lon="1.90268">
        <ele>130</ele>
        <time>2020-10-27T09:00:52.998Z</time>
      </trkpt>
      <trkpt lat="48.61216" lon="1.90279">
        <ele>130</ele>
        <time>2020-10-27T09:03:58.988Z</time>
      </trkpt>
      <trkpt lat="48.61221" lon="1.9029">
        <ele>130</ele>
        <time>2020-10-27T09:04:15.000Z</time>
      </trkpt>
      <trkpt lat="48.61225" lon="1.90303">
        <ele>130</ele>
        <time>2020-10-27T09:04:21.000Z</time>
      </trkpt>
      <trkpt lat="48.61218" lon="1.90311">
        <ele>130</ele>
        <time>2020-10-27T09:05:13.988Z</time>
      </trkpt>
      <trkpt lat="48.61218" lon="1.90296">
        <ele>130</ele>
        <time>2020-10-27T09:05:32.988Z</time>
      </trkpt>
      <trkpt lat="48.61228" lon="1.90299">
        <ele>130</ele>
        <time>2020-10-27T09:06:03.988Z</time>
      </trkpt>
      <trkpt lat="48.61219" lon="1.90301">
        <ele>130</ele>
        <time>2020-10-27T09:06:16.989Z</time>
      </trkpt>
      <trkpt lat="48.61229" lon="1.90305">
        <ele>130</ele>
        <time>2020-10-27T09:06:46.000Z</time>
      </trkpt>
      <trkpt lat="48.61236" lon="1.90316">
        <ele>130</ele>
        <time>2020-10-27T09:06:57.988Z</time>
      </trkpt>
      <trkpt lat="48.61233" lon="1.9033">
        <ele>130</ele>
        <time>2020-10-27T09:07:08.999Z</time>
      </trkpt>
      <trkpt lat="48.6123" lon="1.90343">
        <ele>130</ele>
        <time>2020-10-27T09:07:18.000Z</time>
      </trkpt>
      <trkpt lat="48.61227" lon="1.90358">
        <ele>130</ele>
        <time>2020-10-27T09:07:26.989Z</time>
      </trkpt>
      <trkpt lat="48.61224" lon="1.90372">
        <ele>130</ele>
        <time>2020-10-27T09:07:39.990Z</time>
      </trkpt>
      <trkpt lat="48.61226" lon="1.90386">
        <ele>130</ele>
        <time>2020-10-27T09:07:46.000Z</time>
      </trkpt>
      <trkpt lat="48.61227" lon="1.904">
        <ele>130</ele>
        <time>2020-10-27T09:07:55.990Z</time>
      </trkpt>
      <trkpt lat="48.6123" lon="1.90415">
        <ele>130</ele>
        <time>2020-10-27T09:08:04.000Z</time>
      </trkpt>
      <trkpt lat="48.61237" lon="1.90426">
        <ele>130</ele>
        <time>2020-10-27T09:08:09.029Z</time>
      </trkpt>
      <trkpt lat="48.61242" lon="1.90438">
        <ele>130</ele>
        <time>2020-10-27T09:08:16.988Z</time>
      </trkpt>
      <trkpt lat="48.61247" lon="1.90449">
        <ele>130</ele>
        <time>2020-10-27T09:08:24.989Z</time>
      </trkpt>
      <trkpt lat="48.61255" lon="1.90456">
        <ele>130</ele>
        <time>2020-10-27T09:08:33.998Z</time>
      </trkpt>
      <trkpt lat="48.61261" lon="1.90468">
        <ele>130</ele>
        <time>2020-10-27T09:08:42.988Z</time>
      </trkpt>
      <trkpt lat="48.61267" lon="1.90481">
        <ele>130</ele>
        <time>2020-10-27T09:08:50.988Z</time>
      </trkpt>
      <trkpt lat="48.61272" lon="1.90492">
        <ele>130</ele>
        <time>2020-10-27T09:08:57.989Z</time>
      </trkpt>
      <trkpt lat="48.61278" lon="1.90505">
        <ele>130</ele>
        <time>2020-10-27T09:09:04.988Z</time>
      </trkpt>
      <trkpt lat="48.61283" lon="1.90518">
        <ele>130</ele>
        <time>2020-10-27T09:09:12.988Z</time>
      </trkpt>
      <trkpt lat="48.61285" lon="1.90531">
        <ele>130</ele>
        <time>2020-10-27T09:09:20.988Z</time>
      </trkpt>
      <trkpt lat="48.61291" lon="1.90542">
        <ele>130</ele>
        <time>2020-10-27T09:09:29.989Z</time>
      </trkpt>
      <trkpt lat="48.61298" lon="1.9055">
        <ele>130</ele>
        <time>2020-10-27T09:09:37.988Z</time>
      </trkpt>
      <trkpt lat="48.61306" lon="1.90558">
        <ele>130</ele>
        <time>2020-10-27T09:09:45.988Z</time>
      </trkpt>
      <trkpt lat="48.61313" lon="1.90567">
        <ele>130</ele>
        <time>2020-10-27T09:09:52.988Z</time>
      </trkpt>
      <trkpt lat="48.61321" lon="1.90575">
        <ele>130</ele>
        <time>2020-10-27T09:09:59.990Z</time>
      </trkpt>
      <trkpt lat="48.61328" lon="1.90584">
        <ele>130</ele>
        <time>2020-10-27T09:10:06.989Z</time>
      </trkpt>
      <trkpt lat="48.61332" lon="1.90598">
        <ele>130</ele>
        <time>2020-10-27T09:10:14.989Z</time>
      </trkpt>
      <trkpt lat="48.61336" lon="1.90611">
        <ele>130</ele>
        <time>2020-10-27T09:10:22.990Z</time>
      </trkpt>
      <trkpt lat="48.61336" lon="1.90626">
        <ele>130</ele>
        <time>2020-10-27T09:10:30.989Z</time>
      </trkpt>
      <trkpt lat="48.61336" lon="1.90641">
        <ele>130</ele>
        <time>2020-10-27T09:10:38.998Z</time>
      </trkpt>
      <trkpt lat="48.61332" lon="1.90654">
        <ele>130</ele>
        <time>2020-10-27T09:10:45.989Z</time>
      </trkpt>
      <trkpt lat="48.61328" lon="1.90667">
        <ele>130</ele>
        <time>2020-10-27T09:10:54.000Z</time>
      </trkpt>
      <trkpt lat="48.61323" lon="1.90679">
        <ele>130</ele>
        <time>2020-10-27T09:11:00.989Z</time>
      </trkpt>
      <trkpt lat="48.61316" lon="1.90691">
        <ele>130</ele>
        <time>2020-10-27T09:11:09.989Z</time>
      </trkpt>
      <trkpt lat="48.61314" lon="1.90705">
        <ele>130</ele>
        <time>2020-10-27T09:11:18.999Z</time>
      </trkpt>
      <trkpt lat="48.61306" lon="1.90711">
        <ele>130</ele>
        <time>2020-10-27T09:11:26.989Z</time>
      </trkpt>
      <trkpt lat="48.61296" lon="1.90715">
        <ele>130</ele>
        <time>2020-10-27T09:11:33.999Z</time>
      </trkpt>
      <trkpt lat="48.61287" lon="1.90718">
        <ele>130</ele>
        <time>2020-10-27T09:11:39.990Z</time>
      </trkpt>
      <trkpt lat="48.61278" lon="1.90717">
        <ele>130</ele>
        <time>2020-10-27T09:11:47.990Z</time>
      </trkpt>
      <trkpt lat="48.61272" lon="1.90704">
        <ele>130</ele>
        <time>2020-10-27T09:11:55.000Z</time>
      </trkpt>
      <trkpt lat="48.61266" lon="1.90694">
        <ele>130</ele>
        <time>2020-10-27T09:12:02.989Z</time>
      </trkpt>
      <trkpt lat="48.61258" lon="1.90687">
        <ele>130</ele>
        <time>2020-10-27T09:12:09.000Z</time>
      </trkpt>
      <trkpt lat="48.61251" lon="1.90678">
        <ele>130</ele>
        <time>2020-10-27T09:12:15.990Z</time>
      </trkpt>
      <trkpt lat="48.61243" lon="1.90669">
        <ele>130</ele>
        <time>2020-10-27T09:12:23.989Z</time>
      </trkpt>
      <trkpt lat="48.61236" lon="1.9066">
        <ele>130</ele>
        <time>2020-10-27T09:12:31.999Z</time>
      </trkpt>
      <trkpt lat="48.6123" lon="1.90648">
        <ele>130</ele>
        <time>2020-10-27T09:12:39.989Z</time>
      </trkpt>
      <trkpt lat="48.61225" lon="1.90637">
        <ele>130</ele>
        <time>2020-10-27T09:12:47.000Z</time>
      </trkpt>
      <trkpt lat="48.61219" lon="1.90624">
        <ele>130</ele>
        <time>2020-10-27T09:12:54.987Z</time>
      </trkpt>
      <trkpt lat="48.61214" lon="1.90613">
        <ele>130</ele>
        <time>2020-10-27T09:13:02.002Z</time>
      </trkpt>
      <trkpt lat="48.61209" lon="1.90599">
        <ele>130</ele>
        <time>2020-10-27T09:13:10.990Z</time>
      </trkpt>
      <trkpt lat="48.61205" lon="1.90587">
        <ele>130</ele>
        <time>2020-10-27T09:13:18.990Z</time>
      </trkpt>
      <trkpt lat="48.61199" lon="1.90575">
        <ele>130</ele>
        <time>2020-10-27T09:13:27.002Z</time>
      </trkpt>
      <trkpt lat="48.61193" lon="1.90563">
        <ele>130</ele>
        <time>2020-10-27T09:13:34.990Z</time>
      </trkpt>
      <trkpt lat="48.61187" lon="1.90552">
        <ele>130</ele>
        <time>2020-10-27T09:13:42.000Z</time>
      </trkpt>
      <trkpt lat="48.61179" lon="1.90542">
        <ele>130</ele>
        <time>2020-10-27T09:13:49.990Z</time>
      </trkpt>
      <trkpt lat="48.61173" lon="1.90531">
        <ele>130</ele>
        <time>2020-10-27T09:13:56.987Z</time>
      </trkpt>
      <trkpt lat="48.61168" lon="1.90518">
        <ele>130</ele>
        <time>2020-10-27T09:14:04.000Z</time>
      </trkpt>
      <trkpt lat="48.61165" lon="1.90506">
        <ele>130</ele>
        <time>2020-10-27T09:14:11.990Z</time>
      </trkpt>
      <trkpt lat="48.61159" lon="1.90495">
        <ele>130</ele>
        <time>2020-10-27T09:14:20.987Z</time>
      </trkpt>
      <trkpt lat="48.61152" lon="1.90485">
        <ele>130</ele>
        <time>2020-10-27T09:14:29.987Z</time>
      </trkpt>
      <trkpt lat="48.61147" lon="1.90473">
        <ele>130</ele>
        <time>2020-10-27T09:14:37.990Z</time>
      </trkpt>
      <trkpt lat="48.61139" lon="1.90465">
        <ele>130</ele>
        <time>2020-10-27T09:14:45.990Z</time>
      </trkpt>
      <trkpt lat="48.61134" lon="1.90453">
        <ele>130</ele>
        <time>2020-10-27T09:14:54.002Z</time>
      </trkpt>
      <trkpt lat="48.61128" lon="1.90443">
        <ele>130</ele>
        <time>2020-10-27T09:15:02.959Z</time>
      </trkpt>
      <trkpt lat="48.6112" lon="1.90435">
        <ele>131</ele>
        <time>2020-10-27T09:16:02.990Z</time>
      </trkpt>
      <trkpt lat="48.61111" lon="1.90439">
        <ele>131</ele>
        <time>2020-10-27T09:16:12.989Z</time>
      </trkpt>
      <trkpt lat="48.61103" lon="1.90431">
        <ele>131</ele>
        <time>2020-10-27T09:16:22.988Z</time>
      </trkpt>
      <trkpt lat="48.61095" lon="1.9042">
        <ele>131</ele>
        <time>2020-10-27T09:16:33.000Z</time>
      </trkpt>
      <trkpt lat="48.61087" lon="1.90413">
        <ele>131</ele>
        <time>2020-10-27T09:16:45.000Z</time>
      </trkpt>
      <trkpt lat="48.6108" lon="1.90404">
        <ele>131</ele>
        <time>2020-10-27T09:16:52.000Z</time>
      </trkpt>
      <trkpt lat="48.61073" lon="1.90395">
        <ele>131</ele>
        <time>2020-10-27T09:16:59.000Z</time>
      </trkpt>
      <trkpt lat="48.61065" lon="1.90388">
        <ele>131</ele>
        <time>2020-10-27T09:17:05.988Z</time>
      </trkpt>
      <trkpt lat="48.61056" lon="1.90381">
        <ele>131</ele>
        <time>2020-10-27T09:17:13.000Z</time>
      </trkpt>
      <trkpt lat="48.61047" lon="1.90376">
        <ele>131</ele>
        <time>2020-10-27T09:17:20.990Z</time>
      </trkpt>
      <trkpt lat="48.61039" lon="1.90369">
        <ele>131</ele>
        <time>2020-10-27T09:17:29.000Z</time>
      </trkpt>
      <trkpt lat="48.61031" lon="1.90363">
        <ele>131</ele>
        <time>2020-10-27T09:17:38.000Z</time>
      </trkpt>
      <trkpt lat="48.61024" lon="1.90354">
        <ele>131</ele>
        <time>2020-10-27T09:17:46.000Z</time>
      </trkpt>
      <trkpt lat="48.61016" lon="1.90344">
        <ele>131</ele>
        <time>2020-10-27T09:17:56.000Z</time>
      </trkpt>
      <trkpt lat="48.61008" lon="1.90336">
        <ele>131</ele>
        <time>2020-10-27T09:18:03.988Z</time>
      </trkpt>
      <trkpt lat="48.61001" lon="1.90326">
        <ele>131</ele>
        <time>2020-10-27T09:18:11.000Z</time>
      </trkpt>
      <trkpt lat="48.60992" lon="1.90319">
        <ele>131</ele>
        <time>2020-10-27T09:18:20.000Z</time>
      </trkpt>
      <trkpt lat="48.60983" lon="1.90315">
        <ele>131</ele>
        <time>2020-10-27T09:18:28.000Z</time>
      </trkpt>
      <trkpt lat="48.60974" lon="1.90306">
        <ele>131</ele>
        <time>2020-10-27T09:18:37.000Z</time>
      </trkpt>
      <trkpt lat="48.60965" lon="1.90299">
        <ele>131</ele>
        <time>2020-10-27T09:18:46.000Z</time>
      </trkpt>
      <trkpt lat="48.60957" lon="1.90291">
        <ele>131</ele>
        <time>2020-10-27T09:18:55.001Z</time>
      </trkpt>
      <trkpt lat="48.60951" lon="1.90281">
        <ele>131</ele>
        <time>2020-10-27T09:19:01.998Z</time>
      </trkpt>
      <trkpt lat="48.60941" lon="1.90275">
        <ele>131</ele>
        <time>2020-10-27T09:19:09.000Z</time>
      </trkpt>
      <trkpt lat="48.60933" lon="1.90266">
        <ele>131</ele>
        <time>2020-10-27T09:19:17.989Z</time>
      </trkpt>
      <trkpt lat="48.60924" lon="1.9026">
        <ele>131</ele>
        <time>2020-10-27T09:19:26.000Z</time>
      </trkpt>
      <trkpt lat="48.60917" lon="1.90248">
        <ele>131</ele>
        <time>2020-10-27T09:19:34.000Z</time>
      </trkpt>
      <trkpt lat="48.6091" lon="1.9024">
        <ele>131</ele>
        <time>2020-10-27T09:19:42.000Z</time>
      </trkpt>
      <trkpt lat="48.60902" lon="1.90233">
        <ele>131</ele>
        <time>2020-10-27T09:19:49.999Z</time>
      </trkpt>
      <trkpt lat="48.60893" lon="1.90225">
        <ele>131</ele>
        <time>2020-10-27T09:19:56.999Z</time>
      </trkpt>
      <trkpt lat="48.60885" lon="1.90218">
        <ele>131</ele>
        <time>2020-10-27T09:20:05.988Z</time>
      </trkpt>
      <trkpt lat="48.60878" lon="1.90206">
        <ele>131</ele>
        <time>2020-10-27T09:20:15.000Z</time>
      </trkpt>
      <trkpt lat="48.6087" lon="1.90198">
        <ele>131</ele>
        <time>2020-10-27T09:20:25.000Z</time>
      </trkpt>
      <trkpt lat="48.60862" lon="1.9019">
        <ele>131</ele>
        <time>2020-10-27T09:20:30.990Z</time>
      </trkpt>
      <trkpt lat="48.60853" lon="1.90188">
        <ele>131</ele>
        <time>2020-10-27T09:20:39.000Z</time>
      </trkpt>
      <trkpt lat="48.60846" lon="1.90177">
        <ele>131</ele>
        <time>2020-10-27T09:20:45.000Z</time>
      </trkpt>
      <trkpt lat="48.60837" lon="1.90168">
        <ele>131</ele>
        <time>2020-10-27T09:20:52.000Z</time>
      </trkpt>
      <trkpt lat="48.60829" lon="1.90163">
        <ele>131</ele>
        <time>2020-10-27T09:20:59.999Z</time>
      </trkpt>
      <trkpt lat="48.60821" lon="1.90155">
        <ele>131</ele>
        <time>2020-10-27T09:21:09.999Z</time>
      </trkpt>
      <trkpt lat="48.60812" lon="1.90146">
        <ele>131</ele>
        <time>2020-10-27T09:21:20.000Z</time>
      </trkpt>
      <trkpt lat="48.60804" lon="1.90139">
        <ele>131</ele>
        <time>2020-10-27T09:21:27.989Z</time>
      </trkpt>
      <trkpt lat="48.60798" lon="1.90129">
        <ele>131</ele>
        <time>2020-10-27T09:21:37.000Z</time>
      </trkpt>
      <trkpt lat="48.60789" lon="1.90123">
        <ele>131</ele>
        <time>2020-10-27T09:21:42.990Z</time>
      </trkpt>
      <trkpt lat="48.60782" lon="1.90113">
        <ele>131</ele>
        <time>2020-10-27T09:21:53.000Z</time>
      </trkpt>
      <trkpt lat="48.60772" lon="1.90115">
        <ele>131</ele>
        <time>2020-10-27T09:22:02.000Z</time>
      </trkpt>
      <trkpt lat="48.60763" lon="1.90122">
        <ele>131</ele>
        <time>2020-10-27T09:22:11.000Z</time>
      </trkpt>
      <trkpt lat="48.60757" lon="1.90133">
        <ele>131</ele>
        <time>2020-10-27T09:22:17.990Z</time>
      </trkpt>
      <trkpt lat="48.60751" lon="1.90144">
        <ele>131</ele>
        <time>2020-10-27T09:22:25.986Z</time>
      </trkpt>
      <trkpt lat="48.60744" lon="1.90158">
        <ele>131</ele>
        <time>2020-10-27T09:22:33.000Z</time>
      </trkpt>
      <trkpt lat="48.60738" lon="1.90167">
        <ele>131</ele>
        <time>2020-10-27T09:22:40.990Z</time>
      </trkpt>
      <trkpt lat="48.60731" lon="1.90178">
        <ele>131</ele>
        <time>2020-10-27T09:22:47.991Z</time>
      </trkpt>
      <trkpt lat="48.60726" lon="1.90185">
        <ele>133.79841897233</ele>
        <time>2020-10-27T09:22:54.000Z</time>
      </trkpt>
      <trkpt lat="48.6072" lon="1.90196">
        <ele>137.26214607287</ele>
        <time>2020-10-27T09:23:01.990Z</time>
      </trkpt>
      <trkpt lat="48.60713" lon="1.90207">
        <ele>137.97165991903</ele>
        <time>2020-10-27T09:23:09.000Z</time>
      </trkpt>
      <trkpt lat="48.60707" lon="1.90218">
        <ele>138</ele>
        <time>2020-10-27T09:23:16.990Z</time>
      </trkpt>
      <trkpt lat="48.60699" lon="1.90227">
        <ele>137.32899968</ele>
        <time>2020-10-27T09:23:25.990Z</time>
      </trkpt>
      <trkpt lat="48.60694" lon="1.90239">
        <ele>137</ele>
        <time>2020-10-27T09:23:33.990Z</time>
      </trkpt>
      <trkpt lat="48.60689" lon="1.90251">
        <ele>137.05864576215</ele>
        <time>2020-10-27T09:23:39.990Z</time>
      </trkpt>
      <trkpt lat="48.60683" lon="1.90263">
        <ele>137.76744243234</ele>
        <time>2020-10-27T09:23:47.000Z</time>
      </trkpt>
      <trkpt lat="48.60674" lon="1.90272">
        <ele>138</ele>
        <time>2020-10-27T09:23:54.000Z</time>
      </trkpt>
      <trkpt lat="48.60667" lon="1.90282">
        <ele>138</ele>
        <time>2020-10-27T09:24:01.996Z</time>
      </trkpt>
      <trkpt lat="48.6066" lon="1.90292">
        <ele>137.85303148301</ele>
        <time>2020-10-27T09:24:11.000Z</time>
      </trkpt>
      <trkpt lat="48.60653" lon="1.90301">
        <ele>137.13473681718</ele>
        <time>2020-10-27T09:24:17.989Z</time>
      </trkpt>
      <trkpt lat="48.60649" lon="1.90314">
        <ele>137</ele>
        <time>2020-10-27T09:24:23.986Z</time>
      </trkpt>
      <trkpt lat="48.60642" lon="1.90326">
        <ele>137</ele>
        <time>2020-10-27T09:24:31.991Z</time>
      </trkpt>
      <trkpt lat="48.60636" lon="1.90336">
        <ele>136.72899968</ele>
        <time>2020-10-27T09:24:41.990Z</time>
      </trkpt>
      <trkpt lat="48.6063" lon="1.90346">
        <ele>135.928</ele>
        <time>2020-10-27T09:24:50.000Z</time>
      </trkpt>
      <trkpt lat="48.60622" lon="1.90356">
        <ele>135.228</ele>
        <time>2020-10-27T09:24:57.000Z</time>
      </trkpt>
      <trkpt lat="48.60615" lon="1.90366">
        <ele>134.42940032</ele>
        <time>2020-10-27T09:25:04.986Z</time>
      </trkpt>
      <trkpt lat="48.60608" lon="1.90376">
        <ele>134</ele>
        <time>2020-10-27T09:25:12.000Z</time>
      </trkpt>
      <trkpt lat="48.60603" lon="1.90388">
        <ele>134</ele>
        <time>2020-10-27T09:25:19.989Z</time>
      </trkpt>
      <trkpt lat="48.60596" lon="1.90399">
        <ele>134</ele>
        <time>2020-10-27T09:25:28.986Z</time>
      </trkpt>
      <trkpt lat="48.60591" lon="1.9041">
        <ele>133.22899968</ele>
        <time>2020-10-27T09:25:36.990Z</time>
      </trkpt>
      <trkpt lat="48.60587" lon="1.90422">
        <ele>133</ele>
        <time>2020-10-27T09:25:48.000Z</time>
      </trkpt>
      <trkpt lat="48.60578" lon="1.90434">
        <ele>133</ele>
        <time>2020-10-27T09:25:56.000Z</time>
      </trkpt>
      <trkpt lat="48.60571" lon="1.90445">
        <ele>132.72899968</ele>
        <time>2020-10-27T09:26:01.990Z</time>
      </trkpt>
      <trkpt lat="48.60565" lon="1.90457">
        <ele>132.16874344807</ele>
        <time>2020-10-27T09:26:10.986Z</time>
      </trkpt>
      <trkpt lat="48.60557" lon="1.90467">
        <ele>133</ele>
        <time>2020-10-27T09:26:20.000Z</time>
      </trkpt>
      <trkpt lat="48.60549" lon="1.90477">
        <ele>133</ele>
        <time>2020-10-27T09:26:26.986Z</time>
      </trkpt>
      <trkpt lat="48.60541" lon="1.90484">
        <ele>133.66461832773</ele>
        <time>2020-10-27T09:26:35.986Z</time>
      </trkpt>
      <trkpt lat="48.60533" lon="1.90491">
        <ele>134</ele>
        <time>2020-10-27T09:26:44.000Z</time>
      </trkpt>
      <trkpt lat="48.60527" lon="1.90503">
        <ele>134.46881253525</ele>
        <time>2020-10-27T09:26:54.000Z</time>
      </trkpt>
      <trkpt lat="48.60519" lon="1.90512">
        <ele>135.54200064</ele>
        <time>2020-10-27T09:27:01.990Z</time>
      </trkpt>
      <trkpt lat="48.60515" lon="1.90524">
        <ele>137</ele>
        <time>2020-10-27T09:27:09.990Z</time>
      </trkpt>
      <trkpt lat="48.60509" lon="1.90535">
        <ele>137</ele>
        <time>2020-10-27T09:27:18.996Z</time>
      </trkpt>
      <trkpt lat="48.60502" lon="1.90546">
        <ele>137.86461542905</ele>
        <time>2020-10-27T09:27:27.990Z</time>
      </trkpt>
      <trkpt lat="48.60496" lon="1.90557">
        <ele>138</ele>
        <time>2020-10-27T09:27:35.990Z</time>
      </trkpt>
      <trkpt lat="48.60488" lon="1.90564">
        <ele>138</ele>
        <time>2020-10-27T09:27:44.000Z</time>
      </trkpt>
      <trkpt lat="48.60481" lon="1.90573">
        <ele>138</ele>
        <time>2020-10-27T09:27:52.990Z</time>
      </trkpt>
      <trkpt lat="48.60474" lon="1.90583">
        <ele>138</ele>
        <time>2020-10-27T09:28:02.990Z</time>
      </trkpt>
      <trkpt lat="48.60472" lon="1.90598">
        <ele>138.572</ele>
        <time>2020-10-27T09:28:15.000Z</time>
      </trkpt>
      <trkpt lat="48.60467" lon="1.90611">
        <ele>139</ele>
        <time>2020-10-27T09:28:22.990Z</time>
      </trkpt>
      <trkpt lat="48.60459" lon="1.90617">
        <ele>139</ele>
        <time>2020-10-27T09:28:32.990Z</time>
      </trkpt>
      <trkpt lat="48.60451" lon="1.90626">
        <ele>139</ele>
        <time>2020-10-27T09:28:39.990Z</time>
      </trkpt>
      <trkpt lat="48.60445" lon="1.90638">
        <ele>139</ele>
        <time>2020-10-27T09:28:48.990Z</time>
      </trkpt>
      <trkpt lat="48.60438" lon="1.90647">
        <ele>139</ele>
        <time>2020-10-27T09:28:57.000Z</time>
      </trkpt>
      <trkpt lat="48.60431" lon="1.90661">
        <ele>139</ele>
        <time>2020-10-27T09:29:09.000Z</time>
      </trkpt>
      <trkpt lat="48.60426" lon="1.90673">
        <ele>139</ele>
        <time>2020-10-27T09:29:15.990Z</time>
      </trkpt>
      <trkpt lat="48.60418" lon="1.90683">
        <ele>139</ele>
        <time>2020-10-27T09:29:23.000Z</time>
      </trkpt>
      <trkpt lat="48.60411" lon="1.90692">
        <ele>139</ele>
        <time>2020-10-27T09:29:31.990Z</time>
      </trkpt>
      <trkpt lat="48.60404" lon="1.90701">
        <ele>139</ele>
        <time>2020-10-27T09:29:39.000Z</time>
      </trkpt>
      <trkpt lat="48.60398" lon="1.90713">
        <ele>138.13762289909</ele>
        <time>2020-10-27T09:29:47.990Z</time>
      </trkpt>
      <trkpt lat="48.60395" lon="1.90727">
        <ele>138</ele>
        <time>2020-10-27T09:29:56.990Z</time>
      </trkpt>
      <trkpt lat="48.6039" lon="1.9074">
        <ele>138</ele>
        <time>2020-10-27T09:30:06.990Z</time>
      </trkpt>
      <trkpt lat="48.60386" lon="1.90753">
        <ele>137.52780032</ele>
        <time>2020-10-27T09:30:14.002Z</time>
      </trkpt>
      <trkpt lat="48.6038" lon="1.90763">
        <ele>136.83365727627</ele>
        <time>2020-10-27T09:30:20.990Z</time>
      </trkpt>
      <trkpt lat="48.60373" lon="1.90773">
        <ele>136.05447470817</ele>
        <time>2020-10-27T09:30:29.000Z</time>
      </trkpt>
      <trkpt lat="48.60366" lon="1.90781">
        <ele>136</ele>
        <time>2020-10-27T09:30:36.990Z</time>
      </trkpt>
      <trkpt lat="48.6036" lon="1.90792">
        <ele>136</ele>
        <time>2020-10-27T09:30:42.991Z</time>
      </trkpt>
      <trkpt lat="48.60354" lon="1.90804">
        <ele>136</ele>
        <time>2020-10-27T09:30:50.991Z</time>
      </trkpt>
      <trkpt lat="48.6035" lon="1.90818">
        <ele>136</ele>
        <time>2020-10-27T09:31:02.000Z</time>
      </trkpt>
      <trkpt lat="48.60346" lon="1.90832">
        <ele>137.73506039841</ele>
        <time>2020-10-27T09:31:17.990Z</time>
      </trkpt>
      <trkpt lat="48.60341" lon="1.90844">
        <ele>137.32931726908</ele>
        <time>2020-10-27T09:31:26.000Z</time>
      </trkpt>
      <trkpt lat="48.60335" lon="1.90855">
        <ele>137</ele>
        <time>2020-10-27T09:31:34.990Z</time>
      </trkpt>
      <trkpt lat="48.60328" lon="1.90866">
        <ele>137.46593184188</ele>
        <time>2020-10-27T09:31:44.000Z</time>
      </trkpt>
      <trkpt lat="48.60325" lon="1.9088">
        <ele>138</ele>
        <time>2020-10-27T09:31:52.961Z</time>
      </trkpt>
      <trkpt lat="48.60318" lon="1.90889">
        <ele>138.17159936</ele>
        <time>2020-10-27T09:32:00.996Z</time>
      </trkpt>
      <trkpt lat="48.60312" lon="1.90899">
        <ele>138.972</ele>
        <time>2020-10-27T09:32:09.000Z</time>
      </trkpt>
      <trkpt lat="48.60305" lon="1.90908">
        <ele>139.67100032</ele>
        <time>2020-10-27T09:32:15.990Z</time>
      </trkpt>
      <trkpt lat="48.60298" lon="1.90919">
        <ele>140</ele>
        <time>2020-10-27T09:32:22.987Z</time>
      </trkpt>
      <trkpt lat="48.60292" lon="1.90929">
        <ele>139.93868674671</ele>
        <time>2020-10-27T09:32:29.987Z</time>
      </trkpt>
      <trkpt lat="48.60288" lon="1.90941">
        <ele>139.23141350696</ele>
        <time>2020-10-27T09:32:36.989Z</time>
      </trkpt>
      <trkpt lat="48.60282" lon="1.90954">
        <ele>139</ele>
        <time>2020-10-27T09:32:44.000Z</time>
      </trkpt>
      <trkpt lat="48.60276" lon="1.90965">
        <ele>139</ele>
        <time>2020-10-27T09:32:53.991Z</time>
      </trkpt>
      <trkpt lat="48.60269" lon="1.90976">
        <ele>138.62940032</ele>
        <time>2020-10-27T09:33:02.986Z</time>
      </trkpt>
      <trkpt lat="48.60261" lon="1.90984">
        <ele>138</ele>
        <time>2020-10-27T09:33:11.986Z</time>
      </trkpt>
      <trkpt lat="48.60255" lon="1.90994">
        <ele>137.63205993743</ele>
        <time>2020-10-27T09:33:22.991Z</time>
      </trkpt>
      <trkpt lat="48.60245" lon="1.90993">
        <ele>137</ele>
        <time>2020-10-27T09:33:31.991Z</time>
      </trkpt>
      <trkpt lat="48.60234" lon="1.90989">
        <ele>136.95473251029</ele>
        <time>2020-10-27T09:33:40.000Z</time>
      </trkpt>
      <trkpt lat="48.60224" lon="1.90986">
        <ele>136.23569909465</ele>
        <time>2020-10-27T09:33:46.989Z</time>
      </trkpt>
      <trkpt lat="48.60215" lon="1.90984">
        <ele>135.32899968</ele>
        <time>2020-10-27T09:33:55.990Z</time>
      </trkpt>
      <trkpt lat="48.60207" lon="1.90977">
        <ele>135</ele>
        <time>2020-10-27T09:34:02.999Z</time>
      </trkpt>
      <trkpt lat="48.60201" lon="1.90966">
        <ele>135</ele>
        <time>2020-10-27T09:34:11.990Z</time>
      </trkpt>
      <trkpt lat="48.60194" lon="1.90953">
        <ele>135</ele>
        <time>2020-10-27T09:34:19.000Z</time>
      </trkpt>
      <trkpt lat="48.60187" lon="1.90944">
        <ele>135</ele>
        <time>2020-10-27T09:34:28.991Z</time>
      </trkpt>
      <trkpt lat="48.60177" lon="1.9094">
        <ele>134.228</ele>
        <time>2020-10-27T09:34:37.000Z</time>
      </trkpt>
      <trkpt lat="48.6017" lon="1.90931">
        <ele>133.42909952</ele>
        <time>2020-10-27T09:34:44.989Z</time>
      </trkpt>
      <trkpt lat="48.60165" lon="1.90918">
        <ele>133</ele>
        <time>2020-10-27T09:34:52.991Z</time>
      </trkpt>
      <trkpt lat="48.60154" lon="1.90914">
        <ele>132.73276310102</ele>
        <time>2020-10-27T09:35:01.989Z</time>
      </trkpt>
      <trkpt lat="48.60147" lon="1.90904">
        <ele>132.02924573934</ele>
        <time>2020-10-27T09:35:08.989Z</time>
      </trkpt>
      <trkpt lat="48.60139" lon="1.90895">
        <ele>132</ele>
        <time>2020-10-27T09:35:17.991Z</time>
      </trkpt>
      <trkpt lat="48.60131" lon="1.90886">
        <ele>132.76838350327</ele>
        <time>2020-10-27T09:35:26.987Z</time>
      </trkpt>
      <trkpt lat="48.60125" lon="1.90875">
        <ele>133</ele>
        <time>2020-10-27T09:35:35.990Z</time>
      </trkpt>
      <trkpt lat="48.60116" lon="1.90866">
        <ele>133</ele>
        <time>2020-10-27T09:35:45.990Z</time>
      </trkpt>
      <trkpt lat="48.60108" lon="1.90858">
        <ele>133</ele>
        <time>2020-10-27T09:35:53.986Z</time>
      </trkpt>
      <trkpt lat="48.60098" lon="1.90855">
        <ele>133.27100032</ele>
        <time>2020-10-27T09:36:01.990Z</time>
      </trkpt>
      <trkpt lat="48.60089" lon="1.90853">
        <ele>133.97059968</ele>
        <time>2020-10-27T09:36:08.986Z</time>
      </trkpt>
      <trkpt lat="48.6008" lon="1.90849">
        <ele>134.86398857143</ele>
        <time>2020-10-27T09:36:17.989Z</time>
      </trkpt>
      <trkpt lat="48.6007" lon="1.90848">
        <ele>134.33964111554</ele>
        <time>2020-10-27T09:36:25.990Z</time>
      </trkpt>
      <trkpt lat="48.60062" lon="1.90841">
        <ele>134.5667005668</ele>
        <time>2020-10-27T09:36:34.999Z</time>
      </trkpt>
      <trkpt lat="48.60051" lon="1.90832">
        <ele>135</ele>
        <time>2020-10-27T09:36:46.000Z</time>
      </trkpt>
      <trkpt lat="48.60042" lon="1.90834">
        <ele>135.14719079969</ele>
        <time>2020-10-27T09:36:50.991Z</time>
      </trkpt>
      <trkpt lat="48.60034" lon="1.9083">
        <ele>136</ele>
        <time>2020-10-27T09:37:02.989Z</time>
      </trkpt>
      <trkpt lat="48.60024" lon="1.90832">
        <ele>136</ele>
        <time>2020-10-27T09:37:09.989Z</time>
      </trkpt>
      <trkpt lat="48.60014" lon="1.90829">
        <ele>136</ele>
        <time>2020-10-27T09:37:17.989Z</time>
      </trkpt>
      <trkpt lat="48.60005" lon="1.90828">
        <ele>136</ele>
        <time>2020-10-27T09:37:25.989Z</time>
      </trkpt>
      <trkpt lat="48.6" lon="1.90816">
        <ele>136.76425806844</ele>
        <time>2020-10-27T09:37:36.999Z</time>
      </trkpt>
      <trkpt lat="48.59992" lon="1.90808">
        <ele>139</ele>
        <time>2020-10-27T09:37:49.989Z</time>
      </trkpt>
      <trkpt lat="48.59983" lon="1.908">
        <ele>139</ele>
        <time>2020-10-27T09:37:58.989Z</time>
      </trkpt>
      <trkpt lat="48.59976" lon="1.90791">
        <ele>139.86142453446</ele>
        <time>2020-10-27T09:38:07.989Z</time>
      </trkpt>
      <trkpt lat="48.59969" lon="1.90783">
        <ele>140.77947365969</ele>
        <time>2020-10-27T09:38:17.099Z</time>
      </trkpt>
      <trkpt lat="48.59961" lon="1.90775">
        <ele>141.57190016</ele>
        <time>2020-10-27T09:38:24.999Z</time>
      </trkpt>
      <trkpt lat="48.59953" lon="1.90768">
        <ele>142</ele>
        <time>2020-10-27T09:38:36.989Z</time>
      </trkpt>
      <trkpt lat="48.59944" lon="1.90763">
        <ele>142</ele>
        <time>2020-10-27T09:38:45.989Z</time>
      </trkpt>
      <trkpt lat="48.59934" lon="1.90757">
        <ele>143.53576606743</ele>
        <time>2020-10-27T09:38:56.989Z</time>
      </trkpt>
      <trkpt lat="48.59925" lon="1.90752">
        <ele>144</ele>
        <time>2020-10-27T09:39:05.989Z</time>
      </trkpt>
      <trkpt lat="48.59917" lon="1.90744">
        <ele>144</ele>
        <time>2020-10-27T09:39:15.004Z</time>
      </trkpt>
      <trkpt lat="48.59909" lon="1.90739">
        <ele>144.94119936</ele>
        <time>2020-10-27T09:39:23.986Z</time>
      </trkpt>
      <trkpt lat="48.59899" lon="1.90734">
        <ele>146</ele>
        <time>2020-10-27T09:39:30.989Z</time>
      </trkpt>
      <trkpt lat="48.59892" lon="1.90723">
        <ele>146</ele>
        <time>2020-10-27T09:39:40.986Z</time>
      </trkpt>
      <trkpt lat="48.59883" lon="1.90715">
        <ele>146.14825843527</ele>
        <time>2020-10-27T09:39:51.000Z</time>
      </trkpt>
      <trkpt lat="48.59876" lon="1.90704">
        <ele>147.04526748971</ele>
        <time>2020-10-27T09:40:00.000Z</time>
      </trkpt>
      <trkpt lat="48.59869" lon="1.90695">
        <ele>147.97119341564</ele>
        <time>2020-10-27T09:40:09.000Z</time>
      </trkpt>
      <trkpt lat="48.59859" lon="1.90695">
        <ele>148.57090048</ele>
        <time>2020-10-27T09:40:14.989Z</time>
      </trkpt>
      <trkpt lat="48.59856" lon="1.9068">
        <ele>149.46623839445</ele>
        <time>2020-10-27T09:40:23.989Z</time>
      </trkpt>
      <trkpt lat="48.59847" lon="1.90674">
        <ele>150</ele>
        <time>2020-10-27T09:40:33.989Z</time>
      </trkpt>
      <trkpt lat="48.59839" lon="1.90668">
        <ele>150</ele>
        <time>2020-10-27T09:40:43.000Z</time>
      </trkpt>
      <trkpt lat="48.5983" lon="1.90663">
        <ele>150.36947791165</ele>
        <time>2020-10-27T09:40:53.000Z</time>
      </trkpt>
      <trkpt lat="48.59822" lon="1.90653">
        <ele>152.144</ele>
        <time>2020-10-27T09:41:05.000Z</time>
      </trkpt>
      <trkpt lat="48.59813" lon="1.9065">
        <ele>153</ele>
        <time>2020-10-27T09:41:15.987Z</time>
      </trkpt>
      <trkpt lat="48.59803" lon="1.90648">
        <ele>153.86956549875</ele>
        <time>2020-10-27T09:41:28.000Z</time>
      </trkpt>
      <trkpt lat="48.59793" lon="1.90645">
        <ele>155.74374382583</ele>
        <time>2020-10-27T09:41:38.000Z</time>
      </trkpt>
      <trkpt lat="48.59782" lon="1.9064">
        <ele>157</ele>
        <time>2020-10-27T09:41:57.000Z</time>
      </trkpt>
      <trkpt lat="48.59772" lon="1.90639">
        <ele>157.94220032</ele>
        <time>2020-10-27T09:42:03.991Z</time>
      </trkpt>
      <trkpt lat="48.59763" lon="1.90634">
        <ele>159.37080064</ele>
        <time>2020-10-27T09:42:12.988Z</time>
      </trkpt>
      <trkpt lat="48.59753" lon="1.90635">
        <ele>160.73228153438</ele>
        <time>2020-10-27T09:42:22.989Z</time>
      </trkpt>
      <trkpt lat="48.59746" lon="1.90626">
        <ele>162</ele>
        <time>2020-10-27T09:42:31.000Z</time>
      </trkpt>
      <trkpt lat="48.59737" lon="1.90627">
        <ele>162</ele>
        <time>2020-10-27T09:42:38.987Z</time>
      </trkpt>
      <trkpt lat="48.59729" lon="1.90618">
        <ele>164</ele>
        <time>2020-10-27T09:42:52.000Z</time>
      </trkpt>
      <trkpt lat="48.59719" lon="1.90615">
        <ele>164.33430525459</ele>
        <time>2020-10-27T09:43:01.000Z</time>
      </trkpt>
      <trkpt lat="48.59715" lon="1.90604">
        <ele>166</ele>
        <time>2020-10-27T09:43:11.000Z</time>
      </trkpt>
      <trkpt lat="48.59707" lon="1.90596">
        <ele>166.272</ele>
        <time>2020-10-27T09:43:22.000Z</time>
      </trkpt>
      <trkpt lat="48.59698" lon="1.90591">
        <ele>167.172</ele>
        <time>2020-10-27T09:43:31.000Z</time>
      </trkpt>
      <trkpt lat="48.5969" lon="1.90582">
        <ele>168</ele>
        <time>2020-10-27T09:43:40.000Z</time>
      </trkpt>
      <trkpt lat="48.59682" lon="1.90572">
        <ele>168</ele>
        <time>2020-10-27T09:43:49.000Z</time>
      </trkpt>
      <trkpt lat="48.59675" lon="1.90564">
        <ele>169</ele>
        <time>2020-10-27T09:44:11.000Z</time>
      </trkpt>
      <trkpt lat="48.59666" lon="1.90556">
        <ele>169</ele>
        <time>2020-10-27T09:44:22.987Z</time>
      </trkpt>
      <trkpt lat="48.59663" lon="1.90543">
        <ele>169.272</ele>
        <time>2020-10-27T09:44:32.000Z</time>
      </trkpt>
      <trkpt lat="48.59653" lon="1.90542">
        <ele>170</ele>
        <time>2020-10-27T09:45:35.000Z</time>
      </trkpt>
      <trkpt lat="48.59649" lon="1.90555">
        <ele>170</ele>
        <time>2020-10-27T09:46:05.000Z</time>
      </trkpt>
      <trkpt lat="48.59641" lon="1.90563">
        <ele>169</ele>
        <time>2020-10-27T09:46:34.000Z</time>
      </trkpt>
      <trkpt lat="48.5963" lon="1.90567">
        <ele>169</ele>
        <time>2020-10-27T09:46:37.000Z</time>
      </trkpt>
      <trkpt lat="48.59635" lon="1.90554">
        <ele>169</ele>
        <time>2020-10-27T09:47:00.000Z</time>
      </trkpt>
      <trkpt lat="48.59638" lon="1.9054">
        <ele>169.37080064</ele>
        <time>2020-10-27T09:47:12.988Z</time>
      </trkpt>
      <trkpt lat="48.59643" lon="1.90528">
        <ele>170</ele>
        <time>2020-10-27T09:47:27.990Z</time>
      </trkpt>
      <trkpt lat="48.59635" lon="1.90535">
        <ele>170</ele>
        <time>2020-10-27T09:47:49.000Z</time>
      </trkpt>
      <trkpt lat="48.59627" lon="1.90528">
        <ele>170</ele>
        <time>2020-10-27T09:48:02.986Z</time>
      </trkpt>
      <trkpt lat="48.59618" lon="1.90524">
        <ele>170</ele>
        <time>2020-10-27T09:48:11.998Z</time>
      </trkpt>
      <trkpt lat="48.5961" lon="1.90517">
        <ele>170</ele>
        <time>2020-10-27T09:48:19.999Z</time>
      </trkpt>
      <trkpt lat="48.59603" lon="1.90507">
        <ele>170</ele>
        <time>2020-10-27T09:48:35.000Z</time>
      </trkpt>
      <trkpt lat="48.59594" lon="1.90504">
        <ele>170</ele>
        <time>2020-10-27T09:48:44.001Z</time>
      </trkpt>
      <trkpt lat="48.59586" lon="1.90496">
        <ele>170.26407644349</ele>
        <time>2020-10-27T09:48:51.987Z</time>
      </trkpt>
      <trkpt lat="48.59577" lon="1.90489">
        <ele>170.92951196666</ele>
        <time>2020-10-27T09:48:59.987Z</time>
      </trkpt>
      <trkpt lat="48.59568" lon="1.90484">
        <ele>170.1317046838</ele>
        <time>2020-10-27T09:49:07.989Z</time>
      </trkpt>
      <trkpt lat="48.59559" lon="1.9048">
        <ele>170.66043421232</ele>
        <time>2020-10-27T09:49:15.987Z</time>
      </trkpt>
      <trkpt lat="48.59551" lon="1.90472">
        <ele>171</ele>
        <time>2020-10-27T09:49:25.988Z</time>
      </trkpt>
      <trkpt lat="48.59542" lon="1.90466">
        <ele>171</ele>
        <time>2020-10-27T09:49:38.988Z</time>
      </trkpt>
      <trkpt lat="48.59533" lon="1.90463">
        <ele>171</ele>
        <time>2020-10-27T09:49:46.000Z</time>
      </trkpt>
      <trkpt lat="48.59534" lon="1.90478">
        <ele>171</ele>
        <time>2020-10-27T09:50:16.000Z</time>
      </trkpt>
      <trkpt lat="48.59524" lon="1.90482">
        <ele>171</ele>
        <time>2020-10-27T09:50:30.000Z</time>
      </trkpt>
      <trkpt lat="48.59515" lon="1.90482">
        <ele>171</ele>
        <time>2020-10-27T09:50:39.002Z</time>
      </trkpt>
      <trkpt lat="48.59508" lon="1.90492">
        <ele>171</ele>
        <time>2020-10-27T09:50:48.986Z</time>
      </trkpt>
      <trkpt lat="48.59502" lon="1.90503">
        <ele>171</ele>
        <time>2020-10-27T09:50:56.000Z</time>
      </trkpt>
      <trkpt lat="48.59496" lon="1.90513">
        <ele>171</ele>
        <time>2020-10-27T09:51:05.000Z</time>
      </trkpt>
      <trkpt lat="48.59487" lon="1.90521">
        <ele>171</ele>
        <time>2020-10-27T09:51:12.002Z</time>
      </trkpt>
      <trkpt lat="48.5948" lon="1.9053">
        <ele>171</ele>
        <time>2020-10-27T09:51:19.987Z</time>
      </trkpt>
      <trkpt lat="48.5947" lon="1.9053">
        <ele>171</ele>
        <time>2020-10-27T09:51:27.989Z</time>
      </trkpt>
      <trkpt lat="48.59462" lon="1.90537">
        <ele>171</ele>
        <time>2020-10-27T09:51:47.988Z</time>
      </trkpt>
      <trkpt lat="48.59456" lon="1.90547">
        <ele>171</ele>
        <time>2020-10-27T09:51:53.000Z</time>
      </trkpt>
      <trkpt lat="48.59449" lon="1.90557">
        <ele>171</ele>
        <time>2020-10-27T09:51:59.000Z</time>
      </trkpt>
      <trkpt lat="48.59443" lon="1.90569">
        <ele>171</ele>
        <time>2020-10-27T09:52:06.000Z</time>
      </trkpt>
      <trkpt lat="48.59434" lon="1.90578">
        <ele>171.46918459217</ele>
        <time>2020-10-27T09:52:14.000Z</time>
      </trkpt>
      <trkpt lat="48.59426" lon="1.90587">
        <ele>172</ele>
        <time>2020-10-27T09:52:20.987Z</time>
      </trkpt>
      <trkpt lat="48.59417" lon="1.90595">
        <ele>172</ele>
        <time>2020-10-27T09:52:28.989Z</time>
      </trkpt>
      <trkpt lat="48.59409" lon="1.90602">
        <ele>172</ele>
        <time>2020-10-27T09:52:34.987Z</time>
      </trkpt>
      <trkpt lat="48.59402" lon="1.9061">
        <ele>172</ele>
        <time>2020-10-27T09:52:43.987Z</time>
      </trkpt>
      <trkpt lat="48.59394" lon="1.9062">
        <ele>172.27229952</ele>
        <time>2020-10-27T09:52:52.003Z</time>
      </trkpt>
      <trkpt lat="48.59387" lon="1.9063">
        <ele>173</ele>
        <time>2020-10-27T09:53:00.000Z</time>
      </trkpt>
      <trkpt lat="48.59381" lon="1.90642">
        <ele>173</ele>
        <time>2020-10-27T09:53:06.987Z</time>
      </trkpt>
      <trkpt lat="48.59374" lon="1.9065">
        <ele>173</ele>
        <time>2020-10-27T09:53:14.987Z</time>
      </trkpt>
      <trkpt lat="48.59366" lon="1.90659">
        <ele>173</ele>
        <time>2020-10-27T09:53:21.988Z</time>
      </trkpt>
      <trkpt lat="48.59358" lon="1.90666">
        <ele>173</ele>
        <time>2020-10-27T09:53:28.989Z</time>
      </trkpt>
      <trkpt lat="48.59349" lon="1.90667">
        <ele>173</ele>
        <time>2020-10-27T09:53:34.989Z</time>
      </trkpt>
      <trkpt lat="48.59339" lon="1.90676">
        <ele>173</ele>
        <time>2020-10-27T09:53:43.000Z</time>
      </trkpt>
      <trkpt lat="48.5933" lon="1.90684">
        <ele>173</ele>
        <time>2020-10-27T09:53:49.990Z</time>
      </trkpt>
      <trkpt lat="48.5932" lon="1.90691">
        <ele>173</ele>
        <time>2020-10-27T09:53:59.000Z</time>
      </trkpt>
      <trkpt lat="48.59311" lon="1.907">
        <ele>173</ele>
        <time>2020-10-27T09:54:06.000Z</time>
      </trkpt>
      <trkpt lat="48.59306" lon="1.90713">
        <ele>173</ele>
        <time>2020-10-27T09:54:15.000Z</time>
      </trkpt>
      <trkpt lat="48.59297" lon="1.9072">
        <ele>172.53303044329</ele>
        <time>2020-10-27T09:54:24.003Z</time>
      </trkpt>
      <trkpt lat="48.59289" lon="1.90727">
        <ele>172.73353219117</ele>
        <time>2020-10-27T09:54:32.988Z</time>
      </trkpt>
      <trkpt lat="48.5928" lon="1.90733">
        <ele>173.72264902943</ele>
        <time>2020-10-27T09:54:37.988Z</time>
      </trkpt>
      <trkpt lat="48.59272" lon="1.90739">
        <ele>174</ele>
        <time>2020-10-27T09:54:45.000Z</time>
      </trkpt>
      <trkpt lat="48.59263" lon="1.90746">
        <ele>173.53026082228</ele>
        <time>2020-10-27T09:54:53.988Z</time>
      </trkpt>
      <trkpt lat="48.59255" lon="1.90754">
        <ele>173</ele>
        <time>2020-10-27T09:55:02.998Z</time>
      </trkpt>
      <trkpt lat="48.59247" lon="1.90765">
        <ele>173</ele>
        <time>2020-10-27T09:55:13.000Z</time>
      </trkpt>
      <trkpt lat="48.59238" lon="1.9077">
        <ele>173</ele>
        <time>2020-10-27T09:55:16.998Z</time>
      </trkpt>
      <trkpt lat="48.59233" lon="1.90783">
        <ele>173</ele>
        <time>2020-10-27T09:55:25.987Z</time>
      </trkpt>
      <trkpt lat="48.59225" lon="1.9079">
        <ele>172.82919936</ele>
        <time>2020-10-27T09:55:30.988Z</time>
      </trkpt>
      <trkpt lat="48.59217" lon="1.90801">
        <ele>172</ele>
        <time>2020-10-27T09:55:43.000Z</time>
      </trkpt>
      <trkpt lat="48.59212" lon="1.90813">
        <ele>172</ele>
        <time>2020-10-27T09:55:52.029Z</time>
      </trkpt>
      <trkpt lat="48.59204" lon="1.90821">
        <ele>172</ele>
        <time>2020-10-27T09:56:00.000Z</time>
      </trkpt>
      <trkpt lat="48.59198" lon="1.90832">
        <ele>172</ele>
        <time>2020-10-27T09:56:08.000Z</time>
      </trkpt>
      <trkpt lat="48.59195" lon="1.90847">
        <ele>172</ele>
        <time>2020-10-27T09:56:16.000Z</time>
      </trkpt>
      <trkpt lat="48.59193" lon="1.90861">
        <ele>172</ele>
        <time>2020-10-27T09:56:24.004Z</time>
      </trkpt>
      <trkpt lat="48.59191" lon="1.90875">
        <ele>172</ele>
        <time>2020-10-27T09:56:31.000Z</time>
      </trkpt>
      <trkpt lat="48.59185" lon="1.90886">
        <ele>172</ele>
        <time>2020-10-27T09:56:38.000Z</time>
      </trkpt>
      <trkpt lat="48.5918" lon="1.90897">
        <ele>172</ele>
        <time>2020-10-27T09:56:48.988Z</time>
      </trkpt>
      <trkpt lat="48.59173" lon="1.90912">
        <ele>172</ele>
        <time>2020-10-27T09:56:57.000Z</time>
      </trkpt>
      <trkpt lat="48.5917" lon="1.90926">
        <ele>172</ele>
        <time>2020-10-27T09:57:12.004Z</time>
      </trkpt>
      <trkpt lat="48.59163" lon="1.90937">
        <ele>172</ele>
        <time>2020-10-27T09:57:20.000Z</time>
      </trkpt>
      <trkpt lat="48.5916" lon="1.90951">
        <ele>172</ele>
        <time>2020-10-27T09:57:28.989Z</time>
      </trkpt>
      <trkpt lat="48.59158" lon="1.90965">
        <ele>172</ele>
        <time>2020-10-27T09:57:38.000Z</time>
      </trkpt>
      <trkpt lat="48.59152" lon="1.90975">
        <ele>172</ele>
        <time>2020-10-27T09:57:47.000Z</time>
      </trkpt>
      <trkpt lat="48.59147" lon="1.90988">
        <ele>172</ele>
        <time>2020-10-27T09:57:57.000Z</time>
      </trkpt>
      <trkpt lat="48.59139" lon="1.90999">
        <ele>172</ele>
        <time>2020-10-27T09:58:07.000Z</time>
      </trkpt>
      <trkpt lat="48.59132" lon="1.91008">
        <ele>172</ele>
        <time>2020-10-27T09:58:12.998Z</time>
      </trkpt>
      <trkpt lat="48.59128" lon="1.91021">
        <ele>172</ele>
        <time>2020-10-27T09:58:19.988Z</time>
      </trkpt>
      <trkpt lat="48.59123" lon="1.91032">
        <ele>172</ele>
        <time>2020-10-27T09:58:26.989Z</time>
      </trkpt>
      <trkpt lat="48.59122" lon="1.91048">
        <ele>172</ele>
        <time>2020-10-27T09:58:40.000Z</time>
      </trkpt>
      <trkpt lat="48.59119" lon="1.91062">
        <ele>172</ele>
        <time>2020-10-27T09:58:50.000Z</time>
      </trkpt>
      <trkpt lat="48.59113" lon="1.91075">
        <ele>172</ele>
        <time>2020-10-27T09:58:57.100Z</time>
      </trkpt>
      <trkpt lat="48.5911" lon="1.91089">
        <ele>172</ele>
        <time>2020-10-27T09:59:07.000Z</time>
      </trkpt>
      <trkpt lat="48.59104" lon="1.911">
        <ele>172</ele>
        <time>2020-10-27T09:59:15.000Z</time>
      </trkpt>
      <trkpt lat="48.59098" lon="1.91111">
        <ele>172</ele>
        <time>2020-10-27T09:59:22.000Z</time>
      </trkpt>
      <trkpt lat="48.59091" lon="1.91123">
        <ele>172</ele>
        <time>2020-10-27T09:59:32.003Z</time>
      </trkpt>
      <trkpt lat="48.59082" lon="1.91128">
        <ele>172</ele>
        <time>2020-10-27T09:59:38.988Z</time>
      </trkpt>
      <trkpt lat="48.59078" lon="1.91142">
        <ele>172</ele>
        <time>2020-10-27T09:59:48.987Z</time>
      </trkpt>
      <trkpt lat="48.59074" lon="1.91155">
        <ele>172</ele>
        <time>2020-10-27T09:59:59.000Z</time>
      </trkpt>
      <trkpt lat="48.59065" lon="1.91158">
        <ele>172</ele>
        <time>2020-10-27T10:00:03.987Z</time>
      </trkpt>
      <trkpt lat="48.59065" lon="1.91172">
        <ele>172</ele>
        <time>2020-10-27T10:00:20.989Z</time>
      </trkpt>
      <trkpt lat="48.59061" lon="1.91184">
        <ele>172</ele>
        <time>2020-10-27T10:00:34.000Z</time>
      </trkpt>
      <trkpt lat="48.59058" lon="1.91199">
        <ele>172</ele>
        <time>2020-10-27T10:00:41.000Z</time>
      </trkpt>
      <trkpt lat="48.59052" lon="1.91211">
        <ele>172</ele>
        <time>2020-10-27T10:00:48.001Z</time>
      </trkpt>
      <trkpt lat="48.59046" lon="1.91221">
        <ele>172</ele>
        <time>2020-10-27T10:00:56.000Z</time>
      </trkpt>
      <trkpt lat="48.59041" lon="1.91233">
        <ele>172</ele>
        <time>2020-10-27T10:01:08.000Z</time>
      </trkpt>
      <trkpt lat="48.59036" lon="1.91245">
        <ele>172</ele>
        <time>2020-10-27T10:01:14.987Z</time>
      </trkpt>
      <trkpt lat="48.5903" lon="1.91255">
        <ele>172</ele>
        <time>2020-10-27T10:01:24.997Z</time>
      </trkpt>
      <trkpt lat="48.59014" lon="1.9128">
        <ele>172</ele>
        <time>2020-10-27T10:01:41.000Z</time>
      </trkpt>
      <trkpt lat="48.58998" lon="1.9131">
        <ele>172</ele>
        <time>2020-10-27T10:02:05.000Z</time>
      </trkpt>
      <trkpt lat="48.58986" lon="1.91329">
        <ele>172</ele>
        <time>2020-10-27T10:02:19.000Z</time>
      </trkpt>
      <trkpt lat="48.5897" lon="1.91354">
        <ele>172</ele>
        <time>2020-10-27T10:02:42.000Z</time>
      </trkpt>
      <trkpt lat="48.58944" lon="1.91381">
        <ele>171</ele>
        <time>2020-10-27T10:03:06.000Z</time>
      </trkpt>
      <trkpt lat="48.58933" lon="1.91406">
        <ele>171</ele>
        <time>2020-10-27T10:03:28.000Z</time>
      </trkpt>
      <trkpt lat="48.58919" lon="1.9143">
        <ele>171</ele>
        <time>2020-10-27T10:03:50.000Z</time>
      </trkpt>
      <trkpt lat="48.58904" lon="1.91464">
        <ele>171</ele>
        <time>2020-10-27T10:04:13.000Z</time>
      </trkpt>
      <trkpt lat="48.58888" lon="1.91499">
        <ele>171.66403162055</ele>
        <time>2020-10-27T10:04:36.000Z</time>
      </trkpt>
      <trkpt lat="48.58876" lon="1.91531">
        <ele>172</ele>
        <time>2020-10-27T10:04:59.000Z</time>
      </trkpt>
      <trkpt lat="48.58868" lon="1.91554">
        <ele>172</ele>
        <time>2020-10-27T10:05:14.000Z</time>
      </trkpt>
      <trkpt lat="48.58863" lon="1.91575">
        <ele>172</ele>
        <time>2020-10-27T10:05:28.000Z</time>
      </trkpt>
      <trkpt lat="48.58856" lon="1.91616">
        <ele>172</ele>
        <time>2020-10-27T10:05:52.000Z</time>
      </trkpt>
      <trkpt lat="48.58847" lon="1.91659">
        <ele>172</ele>
        <time>2020-10-27T10:06:16.000Z</time>
      </trkpt>
      <trkpt lat="48.58836" lon="1.91697">
        <ele>173</ele>
        <time>2020-10-27T10:06:40.000Z</time>
      </trkpt>
      <trkpt lat="48.58828" lon="1.91738">
        <ele>173</ele>
        <time>2020-10-27T10:07:03.000Z</time>
      </trkpt>
      <trkpt lat="48.58821" lon="1.91776">
        <ele>173</ele>
        <time>2020-10-27T10:07:27.000Z</time>
      </trkpt>
      <trkpt lat="48.58811" lon="1.91815">
        <ele>173</ele>
        <time>2020-10-27T10:07:50.000Z</time>
      </trkpt>
      <trkpt lat="48.58804" lon="1.91838">
        <ele>173</ele>
        <time>2020-10-27T10:08:03.000Z</time>
      </trkpt>
      <trkpt lat="48.58796" lon="1.91881">
        <ele>174</ele>
        <time>2020-10-27T10:08:26.000Z</time>
      </trkpt>
      <trkpt lat="48.58781" lon="1.91905">
        <ele>174</ele>
        <time>2020-10-27T10:08:52.000Z</time>
      </trkpt>
      <trkpt lat="48.58771" lon="1.91895">
        <ele>174</ele>
        <time>2020-10-27T10:09:15.000Z</time>
      </trkpt>
      <trkpt lat="48.58766" lon="1.91927">
        <ele>174</ele>
        <time>2020-10-27T10:10:13.000Z</time>
      </trkpt>
      <trkpt lat="48.58753" lon="1.91958">
        <ele>174</ele>
        <time>2020-10-27T10:10:35.000Z</time>
      </trkpt>
      <trkpt lat="48.58741" lon="1.91992">
        <ele>174</ele>
        <time>2020-10-27T10:10:58.000Z</time>
      </trkpt>
      <trkpt lat="48.58723" lon="1.92025">
        <ele>174</ele>
        <time>2020-10-27T10:11:22.000Z</time>
      </trkpt>
      <trkpt lat="48.58712" lon="1.92058">
        <ele>174</ele>
        <time>2020-10-27T10:11:44.000Z</time>
      </trkpt>
      <trkpt lat="48.58694" lon="1.9209">
        <ele>174</ele>
        <time>2020-10-27T10:12:06.000Z</time>
      </trkpt>
      <trkpt lat="48.5868" lon="1.92129">
        <ele>174</ele>
        <time>2020-10-27T10:12:29.000Z</time>
      </trkpt>
      <trkpt lat="48.58666" lon="1.92168">
        <ele>174.36226054902</ele>
        <time>2020-10-27T10:12:53.000Z</time>
      </trkpt>
      <trkpt lat="48.5866" lon="1.92188">
        <ele>175</ele>
        <time>2020-10-27T10:13:15.000Z</time>
      </trkpt>
      <trkpt lat="48.58651" lon="1.92204">
        <ele>175</ele>
        <time>2020-10-27T10:13:29.000Z</time>
      </trkpt>
      <trkpt lat="48.58635" lon="1.9223">
        <ele>175</ele>
        <time>2020-10-27T10:13:52.000Z</time>
      </trkpt>
      <trkpt lat="48.58621" lon="1.92265">
        <ele>175</ele>
        <time>2020-10-27T10:14:17.000Z</time>
      </trkpt>
      <trkpt lat="48.58605" lon="1.923">
        <ele>175</ele>
        <time>2020-10-27T10:14:40.000Z</time>
      </trkpt>
      <trkpt lat="48.58601" lon="1.92322">
        <ele>175</ele>
        <time>2020-10-27T10:14:54.000Z</time>
      </trkpt>
      <trkpt lat="48.58584" lon="1.92363">
        <ele>175</ele>
        <time>2020-10-27T10:15:18.000Z</time>
      </trkpt>
      <trkpt lat="48.58571" lon="1.92398">
        <ele>175</ele>
        <time>2020-10-27T10:15:41.000Z</time>
      </trkpt>
      <trkpt lat="48.58557" lon="1.92432">
        <ele>175</ele>
        <time>2020-10-27T10:16:04.000Z</time>
      </trkpt>
      <trkpt lat="48.58545" lon="1.92431">
        <ele>175</ele>
        <time>2020-10-27T10:16:39.000Z</time>
      </trkpt>
      <trkpt lat="48.58542" lon="1.92448">
        <ele>175</ele>
        <time>2020-10-27T10:17:02.000Z</time>
      </trkpt>
      <trkpt lat="48.58522" lon="1.92478">
        <ele>175</ele>
        <time>2020-10-27T10:17:25.000Z</time>
      </trkpt>
      <trkpt lat="48.58499" lon="1.92505">
        <ele>175</ele>
        <time>2020-10-27T10:17:48.000Z</time>
      </trkpt>
      <trkpt lat="48.58473" lon="1.92528">
        <ele>175</ele>
        <time>2020-10-27T10:18:12.000Z</time>
      </trkpt>
      <trkpt lat="48.58448" lon="1.9255">
        <ele>175</ele>
        <time>2020-10-27T10:18:37.000Z</time>
      </trkpt>
      <trkpt lat="48.58425" lon="1.92577">
        <ele>175</ele>
        <time>2020-10-27T10:19:01.000Z</time>
      </trkpt>
      <trkpt lat="48.5841" lon="1.92608">
        <ele>175</ele>
        <time>2020-10-27T10:19:24.000Z</time>
      </trkpt>
      <trkpt lat="48.58397" lon="1.92639">
        <ele>175</ele>
        <time>2020-10-27T10:19:47.000Z</time>
      </trkpt>
      <trkpt lat="48.58371" lon="1.92665">
        <ele>175</ele>
        <time>2020-10-27T10:20:11.000Z</time>
      </trkpt>
      <trkpt lat="48.58345" lon="1.9268">
        <ele>175</ele>
        <time>2020-10-27T10:20:34.000Z</time>
      </trkpt>
      <trkpt lat="48.58322" lon="1.92705">
        <ele>175</ele>
        <time>2020-10-27T10:20:56.000Z</time>
      </trkpt>
      <trkpt lat="48.58302" lon="1.92732">
        <ele>175</ele>
        <time>2020-10-27T10:21:20.000Z</time>
      </trkpt>
      <trkpt lat="48.58295" lon="1.92749">
        <ele>175</ele>
        <time>2020-10-27T10:21:34.000Z</time>
      </trkpt>
      <trkpt lat="48.58285" lon="1.92779">
        <ele>175</ele>
        <time>2020-10-27T10:21:57.000Z</time>
      </trkpt>
      <trkpt lat="48.58265" lon="1.92812">
        <ele>175</ele>
        <time>2020-10-27T10:22:21.000Z</time>
      </trkpt>
      <trkpt lat="48.58243" lon="1.92846">
        <ele>177.288</ele>
        <time>2020-10-27T10:22:45.000Z</time>
      </trkpt>
      <trkpt lat="48.5822" lon="1.92875">
        <ele>179.87122728127</ele>
        <time>2020-10-27T10:23:08.000Z</time>
      </trkpt>
      <trkpt lat="48.58197" lon="1.92888">
        <ele>180</ele>
        <time>2020-10-27T10:23:43.000Z</time>
      </trkpt>
      <trkpt lat="48.58184" lon="1.92874">
        <ele>179.33768833361</ele>
        <time>2020-10-27T10:24:06.000Z</time>
      </trkpt>
      <trkpt lat="48.58173" lon="1.92846">
        <ele>180</ele>
        <time>2020-10-27T10:24:30.000Z</time>
      </trkpt>
      <trkpt lat="48.5817" lon="1.92833">
        <ele>180</ele>
        <time>2020-10-27T10:25:40.000Z</time>
      </trkpt>
      <trkpt lat="48.58167" lon="1.9282">
        <ele>180</ele>
        <time>2020-10-27T10:27:24.000Z</time>
      </trkpt>
      <trkpt lat="48.5817" lon="1.92833">
        <ele>179.45825214244</ele>
        <time>2020-10-27T10:31:34.000Z</time>
      </trkpt>
      <trkpt lat="48.58174" lon="1.92847">
        <ele>181</ele>
        <time>2020-10-27T10:40:15.000Z</time>
      </trkpt>
      <trkpt lat="48.58176" lon="1.92863">
        <ele>180</ele>
        <time>2020-10-27T10:46:49.000Z</time>
      </trkpt>
      <trkpt lat="48.58176" lon="1.9284">
        <ele>180</ele>
        <time>2020-10-27T10:49:12.000Z</time>
      </trkpt>
      <trkpt lat="48.5819" lon="1.92857">
        <ele>177</ele>
        <time>2020-10-27T10:54:42.000Z</time>
      </trkpt>
      <trkpt lat="48.58197" lon="1.92879">
        <ele>177</ele>
        <time>2020-10-27T10:55:02.000Z</time>
      </trkpt>
      <trkpt lat="48.58191" lon="1.929">
        <ele>177</ele>
        <time>2020-10-27T10:55:22.000Z</time>
      </trkpt>
      <trkpt lat="48.58164" lon="1.92914">
        <ele>177</ele>
        <time>2020-10-27T10:55:45.000Z</time>
      </trkpt>
      <trkpt lat="48.58155" lon="1.92914">
        <ele>177</ele>
        <time>2020-10-27T10:56:26.000Z</time>
      </trkpt>
      <trkpt lat="48.58144" lon="1.92919">
        <ele>177</ele>
        <time>2020-10-27T10:57:07.000Z</time>
      </trkpt>
      <trkpt lat="48.58123" lon="1.92925">
        <ele>177</ele>
        <time>2020-10-27T10:57:27.000Z</time>
      </trkpt>
      <trkpt lat="48.58103" lon="1.92935">
        <ele>177</ele>
        <time>2020-10-27T10:57:47.000Z</time>
      </trkpt>
      <trkpt lat="48.5808" lon="1.92947">
        <ele>177</ele>
        <time>2020-10-27T10:58:10.000Z</time>
      </trkpt>
      <trkpt lat="48.58059" lon="1.9296">
        <ele>176</ele>
        <time>2020-10-27T10:58:35.000Z</time>
      </trkpt>
      <trkpt lat="48.58037" lon="1.92971">
        <ele>176</ele>
        <time>2020-10-27T10:58:57.000Z</time>
      </trkpt>
      <trkpt lat="48.58014" lon="1.92983">
        <ele>176</ele>
        <time>2020-10-27T10:59:21.000Z</time>
      </trkpt>
      <trkpt lat="48.57992" lon="1.92995">
        <ele>175</ele>
        <time>2020-10-27T10:59:43.000Z</time>
      </trkpt>
      <trkpt lat="48.5797" lon="1.93011">
        <ele>175</ele>
        <time>2020-10-27T11:00:06.000Z</time>
      </trkpt>
      <trkpt lat="48.57946" lon="1.93025">
        <ele>174</ele>
        <time>2020-10-27T11:00:29.000Z</time>
      </trkpt>
      <trkpt lat="48.5792" lon="1.93043">
        <ele>173.63277382279</ele>
        <time>2020-10-27T11:00:53.000Z</time>
      </trkpt>
      <trkpt lat="48.57896" lon="1.93065">
        <ele>173</ele>
        <time>2020-10-27T11:01:17.000Z</time>
      </trkpt>
      <trkpt lat="48.57874" lon="1.93085">
        <ele>172</ele>
        <time>2020-10-27T11:01:40.000Z</time>
      </trkpt>
      <trkpt lat="48.57861" lon="1.93097">
        <ele>172</ele>
        <time>2020-10-27T11:01:53.000Z</time>
      </trkpt>
      <trkpt lat="48.5784" lon="1.93117">
        <ele>171</ele>
        <time>2020-10-27T11:02:14.000Z</time>
      </trkpt>
      <trkpt lat="48.57816" lon="1.9314">
        <ele>171</ele>
        <time>2020-10-27T11:02:38.000Z</time>
      </trkpt>
      <trkpt lat="48.57793" lon="1.93161">
        <ele>169.46626431944</ele>
        <time>2020-10-27T11:03:02.000Z</time>
      </trkpt>
      <trkpt lat="48.57769" lon="1.93184">
        <ele>169</ele>
        <time>2020-10-27T11:03:26.000Z</time>
      </trkpt>
      <trkpt lat="48.57748" lon="1.93205">
        <ele>168</ele>
        <time>2020-10-27T11:03:47.000Z</time>
      </trkpt>
      <trkpt lat="48.57724" lon="1.93229">
        <ele>167</ele>
        <time>2020-10-27T11:04:10.000Z</time>
      </trkpt>
      <trkpt lat="48.57699" lon="1.93251">
        <ele>166</ele>
        <time>2020-10-27T11:04:33.000Z</time>
      </trkpt>
      <trkpt lat="48.57673" lon="1.93275">
        <ele>167</ele>
        <time>2020-10-27T11:04:57.000Z</time>
      </trkpt>
      <trkpt lat="48.57651" lon="1.93299">
        <ele>165.028</ele>
        <time>2020-10-27T11:05:19.000Z</time>
      </trkpt>
      <trkpt lat="48.5763" lon="1.93302">
        <ele>163.628</ele>
        <time>2020-10-27T11:05:43.000Z</time>
      </trkpt>
      <trkpt lat="48.57616" lon="1.93276">
        <ele>164</ele>
        <time>2020-10-27T11:06:06.000Z</time>
      </trkpt>
      <trkpt lat="48.57598" lon="1.93245">
        <ele>165</ele>
        <time>2020-10-27T11:06:30.000Z</time>
      </trkpt>
      <trkpt lat="48.57588" lon="1.93208">
        <ele>164.26907630522</ele>
        <time>2020-10-27T11:06:52.000Z</time>
      </trkpt>
      <trkpt lat="48.57582" lon="1.93169">
        <ele>164</ele>
        <time>2020-10-27T11:07:14.000Z</time>
      </trkpt>
      <trkpt lat="48.57576" lon="1.93125">
        <ele>164.86080974873</ele>
        <time>2020-10-27T11:07:38.000Z</time>
      </trkpt>
      <trkpt lat="48.5757" lon="1.93086">
        <ele>166</ele>
        <time>2020-10-27T11:07:59.000Z</time>
      </trkpt>
      <trkpt lat="48.57564" lon="1.93043">
        <ele>164.73540856031</ele>
        <time>2020-10-27T11:08:22.000Z</time>
      </trkpt>
      <trkpt lat="48.57556" lon="1.92996">
        <ele>162.13449716008</ele>
        <time>2020-10-27T11:08:48.000Z</time>
      </trkpt>
      <trkpt lat="48.57549" lon="1.92953">
        <ele>162</ele>
        <time>2020-10-27T11:09:11.000Z</time>
      </trkpt>
      <trkpt lat="48.57541" lon="1.92912">
        <ele>161</ele>
        <time>2020-10-27T11:09:34.000Z</time>
      </trkpt>
      <trkpt lat="48.57536" lon="1.92887">
        <ele>161</ele>
        <time>2020-10-27T11:09:48.000Z</time>
      </trkpt>
      <trkpt lat="48.57528" lon="1.92846">
        <ele>158</ele>
        <time>2020-10-27T11:10:11.000Z</time>
      </trkpt>
      <trkpt lat="48.57505" lon="1.92842">
        <ele>158</ele>
        <time>2020-10-27T11:10:35.000Z</time>
      </trkpt>
      <trkpt lat="48.57478" lon="1.92859">
        <ele>158</ele>
        <time>2020-10-27T11:10:58.000Z</time>
      </trkpt>
      <trkpt lat="48.57451" lon="1.92875">
        <ele>156.73286997374</ele>
        <time>2020-10-27T11:11:22.000Z</time>
      </trkpt>
      <trkpt lat="48.57424" lon="1.9289">
        <ele>156</ele>
        <time>2020-10-27T11:11:45.000Z</time>
      </trkpt>
      <trkpt lat="48.57397" lon="1.92905">
        <ele>155.12864317471</ele>
        <time>2020-10-27T11:12:08.000Z</time>
      </trkpt>
      <trkpt lat="48.57371" lon="1.92922">
        <ele>157</ele>
        <time>2020-10-27T11:12:31.000Z</time>
      </trkpt>
      <trkpt lat="48.57344" lon="1.9294">
        <ele>156.43534039419</ele>
        <time>2020-10-27T11:12:55.000Z</time>
      </trkpt>
      <trkpt lat="48.57317" lon="1.92959">
        <ele>156</ele>
        <time>2020-10-27T11:13:18.000Z</time>
      </trkpt>
      <trkpt lat="48.57291" lon="1.92976">
        <ele>155</ele>
        <time>2020-10-27T11:13:41.000Z</time>
      </trkpt>
      <trkpt lat="48.57262" lon="1.92988">
        <ele>154.43534039419</ele>
        <time>2020-10-27T11:14:05.000Z</time>
      </trkpt>
      <trkpt lat="48.57246" lon="1.92998">
        <ele>154</ele>
        <time>2020-10-27T11:14:18.000Z</time>
      </trkpt>
      <trkpt lat="48.57218" lon="1.93015">
        <ele>153.63306451613</ele>
        <time>2020-10-27T11:14:43.000Z</time>
      </trkpt>
      <trkpt lat="48.57189" lon="1.93033">
        <ele>150.26364563917</ele>
        <time>2020-10-27T11:15:08.000Z</time>
      </trkpt>
      <trkpt lat="48.57162" lon="1.93048">
        <ele>148</ele>
        <time>2020-10-27T11:15:32.000Z</time>
      </trkpt>
      <trkpt lat="48.57137" lon="1.93061">
        <ele>145.86639676113</ele>
        <time>2020-10-27T11:15:55.000Z</time>
      </trkpt>
      <trkpt lat="48.57111" lon="1.93076">
        <ele>143</ele>
        <time>2020-10-27T11:16:19.000Z</time>
      </trkpt>
      <trkpt lat="48.57087" lon="1.93087">
        <ele>140</ele>
        <time>2020-10-27T11:16:41.000Z</time>
      </trkpt>
      <trkpt lat="48.57066" lon="1.931">
        <ele>137.089845</ele>
        <time>2020-10-27T11:17:04.000Z</time>
      </trkpt>
      <trkpt lat="48.57045" lon="1.9307">
        <ele>135.92835818614</ele>
        <time>2020-10-27T11:17:40.000Z</time>
      </trkpt>
      <trkpt lat="48.57028" lon="1.93037">
        <ele>133.08666108303</ele>
        <time>2020-10-27T11:18:04.000Z</time>
      </trkpt>
      <trkpt lat="48.57012" lon="1.93005">
        <ele>131</ele>
        <time>2020-10-27T11:18:28.000Z</time>
      </trkpt>
      <trkpt lat="48.56996" lon="1.92972">
        <ele>126</ele>
        <time>2020-10-27T11:18:52.000Z</time>
      </trkpt>
      <trkpt lat="48.56982" lon="1.9294">
        <ele>125</ele>
        <time>2020-10-27T11:19:14.000Z</time>
      </trkpt>
      <trkpt lat="48.56972" lon="1.92935">
        <ele>122.428</ele>
        <time>2020-10-27T11:19:35.000Z</time>
      </trkpt>
      <trkpt lat="48.56946" lon="1.9297">
        <ele>122</ele>
        <time>2020-10-27T11:20:11.000Z</time>
      </trkpt>
      <trkpt lat="48.56946" lon="1.93005">
        <ele>122</ele>
        <time>2020-10-27T11:20:33.000Z</time>
      </trkpt>
      <trkpt lat="48.5694" lon="1.92982">
        <ele>122.46612722868</ele>
        <time>2020-10-27T11:22:04.000Z</time>
      </trkpt>
      <trkpt lat="48.56952" lon="1.92942">
        <ele>122.23260486196</ele>
        <time>2020-10-27T11:22:27.000Z</time>
      </trkpt>
      <trkpt lat="48.56977" lon="1.92905">
        <ele>122.45560964157</ele>
        <time>2020-10-27T11:22:54.000Z</time>
      </trkpt>
      <trkpt lat="48.56985" lon="1.92882">
        <ele>122.02919707055</ele>
        <time>2020-10-27T11:23:10.000Z</time>
      </trkpt>
      <trkpt lat="48.56987" lon="1.92846">
        <ele>123</ele>
        <time>2020-10-27T11:23:33.000Z</time>
      </trkpt>
      <trkpt lat="48.56988" lon="1.92823">
        <ele>123</ele>
        <time>2020-10-27T11:23:47.000Z</time>
      </trkpt>
      <trkpt lat="48.56982" lon="1.9279">
        <ele>122.072</ele>
        <time>2020-10-27T11:24:10.000Z</time>
      </trkpt>
      <trkpt lat="48.56979" lon="1.92754">
        <ele>122.55114785727</ele>
        <time>2020-10-27T11:24:34.000Z</time>
      </trkpt>
      <trkpt lat="48.56967" lon="1.92743">
        <ele>122</ele>
        <time>2020-10-27T11:24:48.000Z</time>
      </trkpt>
      <trkpt lat="48.56937" lon="1.92732">
        <ele>122</ele>
        <time>2020-10-27T11:25:11.000Z</time>
      </trkpt>
      <trkpt lat="48.56911" lon="1.92714">
        <ele>122</ele>
        <time>2020-10-27T11:25:35.000Z</time>
      </trkpt>
      <trkpt lat="48.569" lon="1.92685">
        <ele>121</ele>
        <time>2020-10-27T11:25:58.000Z</time>
      </trkpt>
      <trkpt lat="48.56881" lon="1.92661">
        <ele>120.85272886419</ele>
        <time>2020-10-27T11:26:21.000Z</time>
      </trkpt>
      <trkpt lat="48.5686" lon="1.92634">
        <ele>119.33933955096</ele>
        <time>2020-10-27T11:26:46.000Z</time>
      </trkpt>
      <trkpt lat="48.56849" lon="1.92619">
        <ele>118.972</ele>
        <time>2020-10-27T11:27:09.000Z</time>
      </trkpt>
      <trkpt lat="48.56835" lon="1.92612">
        <ele>119.77209984</ele>
        <time>2020-10-27T11:31:27.000Z</time>
      </trkpt>
      <trkpt lat="48.56823" lon="1.92595">
        <ele>120.06263318506</ele>
        <time>2020-10-27T11:31:50.000Z</time>
      </trkpt>
      <trkpt lat="48.56817" lon="1.92577">
        <ele>121</ele>
        <time>2020-10-27T11:32:03.000Z</time>
      </trkpt>
      <trkpt lat="48.56803" lon="1.92551">
        <ele>122.66610510719</ele>
        <time>2020-10-27T11:32:26.000Z</time>
      </trkpt>
      <trkpt lat="48.56787" lon="1.92525">
        <ele>125.04918535929</ele>
        <time>2020-10-27T11:32:50.000Z</time>
      </trkpt>
      <trkpt lat="48.56771" lon="1.925">
        <ele>127</ele>
        <time>2020-10-27T11:33:13.000Z</time>
      </trkpt>
      <trkpt lat="48.56763" lon="1.92468">
        <ele>129.3361674119</ele>
        <time>2020-10-27T11:33:36.000Z</time>
      </trkpt>
      <trkpt lat="48.56768" lon="1.92428">
        <ele>129.99784991824</ele>
        <time>2020-10-27T11:34:00.000Z</time>
      </trkpt>
      <trkpt lat="48.5676" lon="1.92389">
        <ele>129.47209984</ele>
        <time>2020-10-27T11:34:24.000Z</time>
      </trkpt>
      <trkpt lat="48.56747" lon="1.92358">
        <ele>131</ele>
        <time>2020-10-27T11:34:46.000Z</time>
      </trkpt>
      <trkpt lat="48.56742" lon="1.92319">
        <ele>130.02790016</ele>
        <time>2020-10-27T11:35:09.000Z</time>
      </trkpt>
      <trkpt lat="48.56738" lon="1.92295">
        <ele>130</ele>
        <time>2020-10-27T11:35:24.000Z</time>
      </trkpt>
      <trkpt lat="48.56734" lon="1.92267">
        <ele>129.1318694951</ele>
        <time>2020-10-27T11:35:38.000Z</time>
      </trkpt>
      <trkpt lat="48.5673" lon="1.92226">
        <ele>129.72790016</ele>
        <time>2020-10-27T11:36:02.000Z</time>
      </trkpt>
      <trkpt lat="48.56723" lon="1.92186">
        <ele>129</ele>
        <time>2020-10-27T11:36:24.000Z</time>
      </trkpt>
      <trkpt lat="48.5672" lon="1.92164">
        <ele>129.76208375648</ele>
        <time>2020-10-27T11:36:37.000Z</time>
      </trkpt>
      <trkpt lat="48.56716" lon="1.9212">
        <ele>129</ele>
        <time>2020-10-27T11:37:00.000Z</time>
      </trkpt>
      <trkpt lat="48.56711" lon="1.92077">
        <ele>129</ele>
        <time>2020-10-27T11:37:24.000Z</time>
      </trkpt>
      <trkpt lat="48.56707" lon="1.92028">
        <ele>130</ele>
        <time>2020-10-27T11:37:48.000Z</time>
      </trkpt>
      <trkpt lat="48.56704" lon="1.91985">
        <ele>130</ele>
        <time>2020-10-27T11:38:12.000Z</time>
      </trkpt>
      <trkpt lat="48.56698" lon="1.91943">
        <ele>131</ele>
        <time>2020-10-27T11:38:34.000Z</time>
      </trkpt>
      <trkpt lat="48.56695" lon="1.91914">
        <ele>131</ele>
        <time>2020-10-27T11:38:48.000Z</time>
      </trkpt>
      <trkpt lat="48.56689" lon="1.91876">
        <ele>131</ele>
        <time>2020-10-27T11:39:11.000Z</time>
      </trkpt>
      <trkpt lat="48.56681" lon="1.91832">
        <ele>131</ele>
        <time>2020-10-27T11:39:34.000Z</time>
      </trkpt>
      <trkpt lat="48.56678" lon="1.91807">
        <ele>130.13182281959</ele>
        <time>2020-10-27T11:39:48.000Z</time>
      </trkpt>
      <trkpt lat="48.5667" lon="1.91773">
        <ele>131</ele>
        <time>2020-10-27T11:40:11.000Z</time>
      </trkpt>
      <trkpt lat="48.56663" lon="1.91733">
        <ele>131</ele>
        <time>2020-10-27T11:40:35.000Z</time>
      </trkpt>
      <trkpt lat="48.56658" lon="1.91698">
        <ele>130.228</ele>
        <time>2020-10-27T11:40:57.000Z</time>
      </trkpt>
      <trkpt lat="48.56652" lon="1.91658">
        <ele>131</ele>
        <time>2020-10-27T11:41:21.000Z</time>
      </trkpt>
      <trkpt lat="48.56646" lon="1.91621">
        <ele>131</ele>
        <time>2020-10-27T11:41:43.000Z</time>
      </trkpt>
      <trkpt lat="48.56644" lon="1.91583">
        <ele>131</ele>
        <time>2020-10-27T11:42:06.000Z</time>
      </trkpt>
      <trkpt lat="48.56642" lon="1.91548">
        <ele>131.86817718041</ele>
        <time>2020-10-27T11:42:28.000Z</time>
      </trkpt>
      <trkpt lat="48.56639" lon="1.91508">
        <ele>132.07128717388</ele>
        <time>2020-10-27T11:42:50.000Z</time>
      </trkpt>
      <trkpt lat="48.56635" lon="1.91469">
        <ele>133</ele>
        <time>2020-10-27T11:43:13.000Z</time>
      </trkpt>
      <trkpt lat="48.56633" lon="1.91425">
        <ele>134</ele>
        <time>2020-10-27T11:43:38.000Z</time>
      </trkpt>
      <trkpt lat="48.56629" lon="1.91388">
        <ele>134.1697927486</ele>
        <time>2020-10-27T11:44:01.000Z</time>
      </trkpt>
      <trkpt lat="48.56628" lon="1.91347">
        <ele>135</ele>
        <time>2020-10-27T11:44:25.000Z</time>
      </trkpt>
      <trkpt lat="48.56628" lon="1.91325">
        <ele>135</ele>
        <time>2020-10-27T11:44:38.000Z</time>
      </trkpt>
      <trkpt lat="48.56626" lon="1.91285">
        <ele>136</ele>
        <time>2020-10-27T11:45:02.000Z</time>
      </trkpt>
      <trkpt lat="48.56624" lon="1.91241">
        <ele>136.56633699253</ele>
        <time>2020-10-27T11:45:25.000Z</time>
      </trkpt>
      <trkpt lat="48.56621" lon="1.91202">
        <ele>135.13406184419</ele>
        <time>2020-10-27T11:45:48.000Z</time>
      </trkpt>
      <trkpt lat="48.56619" lon="1.91164">
        <ele>136</ele>
        <time>2020-10-27T11:46:11.000Z</time>
      </trkpt>
      <trkpt lat="48.5662" lon="1.91117">
        <ele>135</ele>
        <time>2020-10-27T11:46:35.000Z</time>
      </trkpt>
      <trkpt lat="48.5662" lon="1.91089">
        <ele>135</ele>
        <time>2020-10-27T11:46:50.000Z</time>
      </trkpt>
      <trkpt lat="48.56621" lon="1.91049">
        <ele>135</ele>
        <time>2020-10-27T11:47:14.000Z</time>
      </trkpt>
      <trkpt lat="48.56622" lon="1.91013">
        <ele>135</ele>
        <time>2020-10-27T11:47:36.000Z</time>
      </trkpt>
      <trkpt lat="48.56622" lon="1.90972">
        <ele>135</ele>
        <time>2020-10-27T11:48:00.000Z</time>
      </trkpt>
      <trkpt lat="48.56626" lon="1.90954">
        <ele>136</ele>
        <time>2020-10-27T11:48:33.000Z</time>
      </trkpt>
      <trkpt lat="48.56629" lon="1.90925">
        <ele>135.572</ele>
        <time>2020-10-27T11:48:55.000Z</time>
      </trkpt>
      <trkpt lat="48.56631" lon="1.90893">
        <ele>136</ele>
        <time>2020-10-27T11:49:18.000Z</time>
      </trkpt>
      <trkpt lat="48.56637" lon="1.90853">
        <ele>138</ele>
        <time>2020-10-27T11:49:41.000Z</time>
      </trkpt>
      <trkpt lat="48.56649" lon="1.90812">
        <ele>136.43319838057</ele>
        <time>2020-10-27T11:50:05.000Z</time>
      </trkpt>
      <trkpt lat="48.56659" lon="1.90776">
        <ele>137</ele>
        <time>2020-10-27T11:50:29.000Z</time>
      </trkpt>
      <trkpt lat="48.56667" lon="1.90737">
        <ele>136.73313215972</ele>
        <time>2020-10-27T11:50:52.000Z</time>
      </trkpt>
      <trkpt lat="48.5667" lon="1.90702">
        <ele>137</ele>
        <time>2020-10-27T11:51:14.000Z</time>
      </trkpt>
      <trkpt lat="48.56668" lon="1.90659">
        <ele>136.128</ele>
        <time>2020-10-27T11:51:38.000Z</time>
      </trkpt>
      <trkpt lat="48.56668" lon="1.90615">
        <ele>135.8326848249</ele>
        <time>2020-10-27T11:52:01.000Z</time>
      </trkpt>
      <trkpt lat="48.56673" lon="1.90573">
        <ele>135</ele>
        <time>2020-10-27T11:52:26.000Z</time>
      </trkpt>
      <trkpt lat="48.56681" lon="1.90541">
        <ele>135</ele>
        <time>2020-10-27T11:52:49.000Z</time>
      </trkpt>
      <trkpt lat="48.56684" lon="1.905">
        <ele>134.728</ele>
        <time>2020-10-27T11:53:12.000Z</time>
      </trkpt>
      <trkpt lat="48.56687" lon="1.90457">
        <ele>134.772</ele>
        <time>2020-10-27T11:53:37.000Z</time>
      </trkpt>
      <trkpt lat="48.56688" lon="1.90419">
        <ele>135</ele>
        <time>2020-10-27T11:54:01.000Z</time>
      </trkpt>
      <trkpt lat="48.56687" lon="1.90381">
        <ele>134</ele>
        <time>2020-10-27T11:54:24.000Z</time>
      </trkpt>
      <trkpt lat="48.56689" lon="1.90359">
        <ele>134</ele>
        <time>2020-10-27T11:54:38.000Z</time>
      </trkpt>
      <trkpt lat="48.56688" lon="1.90317">
        <ele>134</ele>
        <time>2020-10-27T11:55:02.000Z</time>
      </trkpt>
      <trkpt lat="48.56688" lon="1.90278">
        <ele>134.5639245396</ele>
        <time>2020-10-27T11:55:25.000Z</time>
      </trkpt>
      <trkpt lat="48.56687" lon="1.90255">
        <ele>135</ele>
        <time>2020-10-27T11:55:37.000Z</time>
      </trkpt>
      <trkpt lat="48.56688" lon="1.90212">
        <ele>135</ele>
        <time>2020-10-27T11:56:01.000Z</time>
      </trkpt>
      <trkpt lat="48.56689" lon="1.90171">
        <ele>137</ele>
        <time>2020-10-27T11:56:24.000Z</time>
      </trkpt>
      <trkpt lat="48.56692" lon="1.9015">
        <ele>137</ele>
        <time>2020-10-27T11:56:38.000Z</time>
      </trkpt>
      <trkpt lat="48.56694" lon="1.90113">
        <ele>138.16279042679</ele>
        <time>2020-10-27T11:57:01.000Z</time>
      </trkpt>
      <trkpt lat="48.56694" lon="1.90076">
        <ele>139</ele>
        <time>2020-10-27T11:57:23.000Z</time>
      </trkpt>
      <trkpt lat="48.56696" lon="1.90038">
        <ele>138.12929284571</ele>
        <time>2020-10-27T11:57:48.000Z</time>
      </trkpt>
      <trkpt lat="48.56697" lon="1.90016">
        <ele>139</ele>
        <time>2020-10-27T11:58:11.000Z</time>
      </trkpt>
      <trkpt lat="48.56698" lon="1.90001">
        <ele>140</ele>
        <time>2020-10-27T11:59:34.000Z</time>
      </trkpt>
      <trkpt lat="48.5671" lon="1.9002">
        <ele>139</ele>
        <time>2020-10-27T12:00:11.000Z</time>
      </trkpt>
      <trkpt lat="48.56706" lon="1.90003">
        <ele>138.728</ele>
        <time>2020-10-27T12:00:32.000Z</time>
      </trkpt>
      <trkpt lat="48.56701" lon="1.8998">
        <ele>140</ele>
        <time>2020-10-27T12:02:58.000Z</time>
      </trkpt>
      <trkpt lat="48.56702" lon="1.89963">
        <ele>139</ele>
        <time>2020-10-27T12:03:18.000Z</time>
      </trkpt>
      <trkpt lat="48.56701" lon="1.8994">
        <ele>138</ele>
        <time>2020-10-27T12:03:40.000Z</time>
      </trkpt>
      <trkpt lat="48.56702" lon="1.89898">
        <ele>138</ele>
        <time>2020-10-27T12:04:13.000Z</time>
      </trkpt>
      <trkpt lat="48.56704" lon="1.89856">
        <ele>137</ele>
        <time>2020-10-27T12:04:36.000Z</time>
      </trkpt>
      <trkpt lat="48.56703" lon="1.89824">
        <ele>137</ele>
        <time>2020-10-27T12:04:58.000Z</time>
      </trkpt>
      <trkpt lat="48.56702" lon="1.89787">
        <ele>137</ele>
        <time>2020-10-27T12:05:21.000Z</time>
      </trkpt>
      <trkpt lat="48.56694" lon="1.89746">
        <ele>138.31595434713</ele>
        <time>2020-10-27T12:05:46.000Z</time>
      </trkpt>
      <trkpt lat="48.56688" lon="1.89712">
        <ele>140</ele>
        <time>2020-10-27T12:06:08.000Z</time>
      </trkpt>
      <trkpt lat="48.56686" lon="1.89676">
        <ele>139</ele>
        <time>2020-10-27T12:06:30.000Z</time>
      </trkpt>
      <trkpt lat="48.56684" lon="1.89636">
        <ele>139</ele>
        <time>2020-10-27T12:06:53.000Z</time>
      </trkpt>
      <trkpt lat="48.56683" lon="1.89591">
        <ele>140</ele>
        <time>2020-10-27T12:07:17.000Z</time>
      </trkpt>
      <trkpt lat="48.56683" lon="1.89552">
        <ele>139.92857142857</ele>
        <time>2020-10-27T12:07:40.000Z</time>
      </trkpt>
      <trkpt lat="48.56686" lon="1.89526">
        <ele>139.46539633794</ele>
        <time>2020-10-27T12:07:54.000Z</time>
      </trkpt>
      <trkpt lat="48.56697" lon="1.89484">
        <ele>139</ele>
        <time>2020-10-27T12:08:17.000Z</time>
      </trkpt>
      <trkpt lat="48.56707" lon="1.89444">
        <ele>139.16522579527</ele>
        <time>2020-10-27T12:08:41.000Z</time>
      </trkpt>
      <trkpt lat="48.56712" lon="1.89405">
        <ele>141</ele>
        <time>2020-10-27T12:09:04.000Z</time>
      </trkpt>
      <trkpt lat="48.56713" lon="1.89364">
        <ele>140.12916242045</ele>
        <time>2020-10-27T12:09:28.000Z</time>
      </trkpt>
      <trkpt lat="48.5671" lon="1.89323">
        <ele>140.26877470356</ele>
        <time>2020-10-27T12:09:52.000Z</time>
      </trkpt>
      <trkpt lat="48.56709" lon="1.89284">
        <ele>141.57071199862</ele>
        <time>2020-10-27T12:10:15.000Z</time>
      </trkpt>
      <trkpt lat="48.56708" lon="1.89262">
        <ele>142</ele>
        <time>2020-10-27T12:10:27.000Z</time>
      </trkpt>
      <trkpt lat="48.567" lon="1.89222">
        <ele>143</ele>
        <time>2020-10-27T12:10:50.000Z</time>
      </trkpt>
      <trkpt lat="48.56691" lon="1.89184">
        <ele>141</ele>
        <time>2020-10-27T12:11:14.000Z</time>
      </trkpt>
      <trkpt lat="48.5668" lon="1.89146">
        <ele>140</ele>
        <time>2020-10-27T12:11:38.000Z</time>
      </trkpt>
      <trkpt lat="48.56671" lon="1.89105">
        <ele>139</ele>
        <time>2020-10-27T12:12:01.000Z</time>
      </trkpt>
      <trkpt lat="48.56663" lon="1.89064">
        <ele>138.528</ele>
        <time>2020-10-27T12:12:24.000Z</time>
      </trkpt>
      <trkpt lat="48.56662" lon="1.89019">
        <ele>138</ele>
        <time>2020-10-27T12:12:47.000Z</time>
      </trkpt>
      <trkpt lat="48.56661" lon="1.8898">
        <ele>138</ele>
        <time>2020-10-27T12:13:10.000Z</time>
      </trkpt>
      <trkpt lat="48.5666" lon="1.88956">
        <ele>138.472</ele>
        <time>2020-10-27T12:13:24.000Z</time>
      </trkpt>
      <trkpt lat="48.56659" lon="1.88931">
        <ele>140</ele>
        <time>2020-10-27T12:13:47.000Z</time>
      </trkpt>
      <trkpt lat="48.56659" lon="1.88905">
        <ele>139.828</ele>
        <time>2020-10-27T12:14:31.000Z</time>
      </trkpt>
      <trkpt lat="48.56661" lon="1.8887">
        <ele>139</ele>
        <time>2020-10-27T12:14:52.000Z</time>
      </trkpt>
      <trkpt lat="48.56664" lon="1.88828">
        <ele>139</ele>
        <time>2020-10-27T12:15:16.000Z</time>
      </trkpt>
      <trkpt lat="48.56674" lon="1.8879">
        <ele>138.93548387097</ele>
        <time>2020-10-27T12:15:40.000Z</time>
      </trkpt>
      <trkpt lat="48.5668" lon="1.88766">
        <ele>138</ele>
        <time>2020-10-27T12:15:53.000Z</time>
      </trkpt>
      <trkpt lat="48.5669" lon="1.88728">
        <ele>138</ele>
        <time>2020-10-27T12:16:16.000Z</time>
      </trkpt>
      <trkpt lat="48.56703" lon="1.88693">
        <ele>138</ele>
        <time>2020-10-27T12:16:39.000Z</time>
      </trkpt>
      <trkpt lat="48.56717" lon="1.88663">
        <ele>139.37014937159</ele>
        <time>2020-10-27T12:17:03.000Z</time>
      </trkpt>
      <trkpt lat="48.56731" lon="1.88628">
        <ele>140</ele>
        <time>2020-10-27T12:17:26.000Z</time>
      </trkpt>
      <trkpt lat="48.56745" lon="1.88595">
        <ele>140</ele>
        <time>2020-10-27T12:17:48.000Z</time>
      </trkpt>
      <trkpt lat="48.56762" lon="1.88559">
        <ele>139.35496538209</ele>
        <time>2020-10-27T12:18:13.000Z</time>
      </trkpt>
      <trkpt lat="48.56775" lon="1.88524">
        <ele>139</ele>
        <time>2020-10-27T12:18:38.000Z</time>
      </trkpt>
      <trkpt lat="48.56791" lon="1.88494">
        <ele>140</ele>
        <time>2020-10-27T12:19:01.000Z</time>
      </trkpt>
      <trkpt lat="48.56805" lon="1.88464">
        <ele>140</ele>
        <time>2020-10-27T12:19:24.000Z</time>
      </trkpt>
      <trkpt lat="48.56818" lon="1.88436">
        <ele>141.53892806113</ele>
        <time>2020-10-27T12:19:47.000Z</time>
      </trkpt>
      <trkpt lat="48.56833" lon="1.88403">
        <ele>142</ele>
        <time>2020-10-27T12:20:11.000Z</time>
      </trkpt>
      <trkpt lat="48.56848" lon="1.88368">
        <ele>141</ele>
        <time>2020-10-27T12:20:34.000Z</time>
      </trkpt>
      <trkpt lat="48.5686" lon="1.88333">
        <ele>140</ele>
        <time>2020-10-27T12:20:57.000Z</time>
      </trkpt>
      <trkpt lat="48.56873" lon="1.88298">
        <ele>140</ele>
        <time>2020-10-27T12:21:19.000Z</time>
      </trkpt>
      <trkpt lat="48.56889" lon="1.88259">
        <ele>140</ele>
        <time>2020-10-27T12:21:43.000Z</time>
      </trkpt>
      <trkpt lat="48.56905" lon="1.88228">
        <ele>140.772</ele>
        <time>2020-10-27T12:22:07.000Z</time>
      </trkpt>
      <trkpt lat="48.56915" lon="1.88192">
        <ele>141.05711394444</ele>
        <time>2020-10-27T12:22:30.000Z</time>
      </trkpt>
      <trkpt lat="48.56921" lon="1.88169">
        <ele>142</ele>
        <time>2020-10-27T12:22:44.000Z</time>
      </trkpt>
      <trkpt lat="48.56935" lon="1.8813">
        <ele>140.128</ele>
        <time>2020-10-27T12:23:08.000Z</time>
      </trkpt>
      <trkpt lat="48.56953" lon="1.88097">
        <ele>140</ele>
        <time>2020-10-27T12:23:31.000Z</time>
      </trkpt>
      <trkpt lat="48.56973" lon="1.88064">
        <ele>140</ele>
        <time>2020-10-27T12:23:54.000Z</time>
      </trkpt>
      <trkpt lat="48.56995" lon="1.8804">
        <ele>140</ele>
        <time>2020-10-27T12:24:17.000Z</time>
      </trkpt>
      <trkpt lat="48.57016" lon="1.88009">
        <ele>140</ele>
        <time>2020-10-27T12:24:42.000Z</time>
      </trkpt>
      <trkpt lat="48.57037" lon="1.87983">
        <ele>140</ele>
        <time>2020-10-27T12:25:05.000Z</time>
      </trkpt>
      <trkpt lat="48.5705" lon="1.8797">
        <ele>140</ele>
        <time>2020-10-27T12:25:18.000Z</time>
      </trkpt>
      <trkpt lat="48.57073" lon="1.87959">
        <ele>140</ele>
        <time>2020-10-27T12:25:42.000Z</time>
      </trkpt>
      <trkpt lat="48.57089" lon="1.87935">
        <ele>140</ele>
        <time>2020-10-27T12:26:04.000Z</time>
      </trkpt>
      <trkpt lat="48.57107" lon="1.8791">
        <ele>140</ele>
        <time>2020-10-27T12:26:28.000Z</time>
      </trkpt>
      <trkpt lat="48.57117" lon="1.87891">
        <ele>140</ele>
        <time>2020-10-27T12:26:40.000Z</time>
      </trkpt>
      <trkpt lat="48.57131" lon="1.87856">
        <ele>140</ele>
        <time>2020-10-27T12:27:02.000Z</time>
      </trkpt>
      <trkpt lat="48.57144" lon="1.87824">
        <ele>139.53118746475</ele>
        <time>2020-10-27T12:27:24.000Z</time>
      </trkpt>
      <trkpt lat="48.57162" lon="1.87785">
        <ele>139</ele>
        <time>2020-10-27T12:27:49.000Z</time>
      </trkpt>
      <trkpt lat="48.57179" lon="1.87776">
        <ele>139</ele>
        <time>2020-10-27T12:28:04.000Z</time>
      </trkpt>
      <trkpt lat="48.57208" lon="1.87769">
        <ele>139</ele>
        <time>2020-10-27T12:28:29.000Z</time>
      </trkpt>
      <trkpt lat="48.57234" lon="1.87765">
        <ele>139</ele>
        <time>2020-10-27T12:28:52.000Z</time>
      </trkpt>
      <trkpt lat="48.5726" lon="1.87759">
        <ele>138</ele>
        <time>2020-10-27T12:29:15.000Z</time>
      </trkpt>
      <trkpt lat="48.57274" lon="1.87754">
        <ele>138</ele>
        <time>2020-10-27T12:29:28.000Z</time>
      </trkpt>
      <trkpt lat="48.57303" lon="1.8775">
        <ele>138</ele>
        <time>2020-10-27T12:29:52.000Z</time>
      </trkpt>
      <trkpt lat="48.5733" lon="1.87746">
        <ele>138</ele>
        <time>2020-10-27T12:30:15.000Z</time>
      </trkpt>
      <trkpt lat="48.57358" lon="1.87746">
        <ele>138</ele>
        <time>2020-10-27T12:30:38.000Z</time>
      </trkpt>
      <trkpt lat="48.57386" lon="1.87743">
        <ele>137</ele>
        <time>2020-10-27T12:31:02.000Z</time>
      </trkpt>
      <trkpt lat="48.57412" lon="1.87737">
        <ele>137</ele>
        <time>2020-10-27T12:31:25.000Z</time>
      </trkpt>
      <trkpt lat="48.57438" lon="1.87733">
        <ele>137</ele>
        <time>2020-10-27T12:31:48.000Z</time>
      </trkpt>
      <trkpt lat="48.57463" lon="1.87731">
        <ele>137</ele>
        <time>2020-10-27T12:32:10.000Z</time>
      </trkpt>
      <trkpt lat="48.57488" lon="1.87725">
        <ele>137</ele>
        <time>2020-10-27T12:32:33.000Z</time>
      </trkpt>
      <trkpt lat="48.57513" lon="1.87719">
        <ele>137.672</ele>
        <time>2020-10-27T12:32:56.000Z</time>
      </trkpt>
      <trkpt lat="48.57537" lon="1.87707">
        <ele>143.232</ele>
        <time>2020-10-27T12:33:18.000Z</time>
      </trkpt>
      <trkpt lat="48.57559" lon="1.87717">
        <ele>143.26473502969</ele>
        <time>2020-10-27T12:33:42.000Z</time>
      </trkpt>
      <trkpt lat="48.57573" lon="1.87754">
        <ele>143.54913266998</ele>
        <time>2020-10-27T12:34:04.000Z</time>
      </trkpt>
      <trkpt lat="48.57584" lon="1.87778">
        <ele>143</ele>
        <time>2020-10-27T12:34:19.000Z</time>
      </trkpt>
      <trkpt lat="48.57583" lon="1.8781">
        <ele>142.628</ele>
        <time>2020-10-27T12:34:43.000Z</time>
      </trkpt>
      <trkpt lat="48.57588" lon="1.87828">
        <ele>141.32832822316</ele>
        <time>2020-10-27T12:35:06.000Z</time>
      </trkpt>
      <trkpt lat="48.57583" lon="1.87827">
        <ele>143</ele>
        <time>2020-10-27T12:36:14.000Z</time>
      </trkpt>
    </trkseg>
  </trk>
</gpx>